Provisional Data: Baldwin Creek near Lowman, NY


Please select a monitoring station.
Please select start date.
Please select start date.

Toggle Unit: C/F Toggle Unit: C/F
Sample Time Temperature (C) Temperature (F) Specific Conductivity (mS/cm) pH   Turbidity (NTU+) DO (mg/L)
9/6/2021 12:00:00 AM 18.76 65.768 0.205 8.44 3.81 7.99
9/6/2021 12:15:00 AM 18.73 65.714 0.205 8.45 3.65 8
9/6/2021 12:30:00 AM 18.71 65.67799 0.205 8.45 3.61 8.02
9/6/2021 12:45:00 AM 18.7 65.66 0.205 8.45 4.01 8.05
9/6/2021 1:00:00 AM 18.7 65.66 0.205 8.46 3.54 8.04
9/6/2021 1:15:00 AM 18.7 65.66 0.206 8.46 3.55 8.07
9/6/2021 1:30:00 AM 18.7 65.66 0.206 8.46 3.48 8.1
9/6/2021 1:45:00 AM 18.7 65.66 0.206 8.46 3.36 8.11
9/6/2021 2:00:00 AM 18.7 65.66 0.207 8.46 3.35 8.11
9/6/2021 2:15:00 AM 18.69 65.642 0.207 8.46 3.25 8.12
9/6/2021 2:30:00 AM 18.69 65.642 0.207 8.45 3.34 8.1
9/6/2021 2:45:00 AM 18.68 65.624 0.207 8.46 3.54 8.1
9/6/2021 3:00:00 AM 18.65 65.57 0.207 8.46 3.33 8.08
9/6/2021 3:15:00 AM 18.64 65.552 0.207 8.45 3.51 8.11
9/6/2021 3:30:00 AM 18.62 65.516 0.207 8.45 3.48 8.11
9/6/2021 3:45:00 AM 18.6 65.48 0.207 8.45 3.49 8.11
9/6/2021 4:00:00 AM 18.58 65.444 0.207 8.44 3.5 8.09
9/6/2021 4:15:00 AM 18.56 65.408 0.207 8.43 3.43 8.12
9/6/2021 4:30:00 AM 18.53 65.354 0.206 8.42 3.47 8.09
9/6/2021 4:45:00 AM 18.5 65.3 0.206 8.43 3.48 8.13
9/6/2021 5:00:00 AM 18.46 65.228 0.206 8.42 3.25 8.16
9/6/2021 5:15:00 AM 18.42 65.156 0.205 8.41 3.54 8.16
9/6/2021 5:30:00 AM 18.38 65.084 0.205 8.39 3.43 8.13
9/6/2021 5:45:00 AM 18.33 64.994 0.205 8.42 3.62 8.18
9/6/2021 6:00:00 AM 18.28 64.904 0.205 8.42 3.41 8.19
9/6/2021 6:15:00 AM 18.24 64.832 0.205 8.41 3.48 8.19
9/6/2021 6:30:00 AM 18.19 64.742 0.205 8.4 3.81 8.21
9/6/2021 6:45:00 AM 18.15 64.67 0.205 8.41 3.66 8.21
9/6/2021 7:00:00 AM 18.11 64.598 0.205 8.4 3.69 8.23
9/6/2021 7:15:00 AM 18.08 64.544 0.206 8.4 3.71 8.27
9/6/2021 7:30:00 AM 18.04 64.472 0.206 8.4 3.51 8.34
9/6/2021 7:45:00 AM 18.02 64.436 0.206 8.44 3.5 8.43
9/6/2021 8:00:00 AM 18 64.4 0.207 8.45 3.51 8.58
9/6/2021 8:15:00 AM 18 64.4 0.207 8.45 3.74 8.72
9/6/2021 8:30:00 AM 18.02 64.436 0.207 8.49 3.59 8.89
9/6/2021 8:45:00 AM 18.06 64.508 0.207 8.53 3.63 9.01
9/6/2021 9:00:00 AM 18.16 64.688 0.207 8.59 3.43 9.18
9/6/2021 9:15:00 AM 18.16 64.688 0.207 8.62 3.53 9.25
9/6/2021 9:30:00 AM 18.14 64.652 0.207 8.62 3.53 9.14
9/6/2021 9:45:00 AM 18.17 64.706 0.207 8.65 3.56 9.32
9/6/2021 10:00:00 AM 18.21 64.778 0.207 8.67 3.39 9.36
9/6/2021 10:15:00 AM 18.35 65.03 0.207 8.72 3.37 9.5
9/6/2021 10:30:00 AM 18.57 65.426 0.207 8.82 3.39 9.62
9/6/2021 10:45:00 AM 18.77 65.786 0.207 8.89 3.41 9.68
9/6/2021 11:00:00 AM 19.03 66.254 0.207 9 3.37 9.86
9/6/2021 11:15:00 AM 19.28 66.704 0.207 9.07 3.39 9.93
9/6/2021 11:30:00 AM 19.51 67.118 0.207 9.14 3.36 9.87
9/6/2021 11:45:00 AM 19.75 67.55 0.207 9.21 3.28 9.98
9/6/2021 12:00:00 PM 20.02 68.036 0.207 9.33 3.28 10.05
9/6/2021 12:15:00 PM 20.17 68.306 0.207 9.36 3.21 10.06
9/6/2021 12:30:00 PM 20.43 68.774 0.207 9.41 3.39 10.06
9/6/2021 12:45:00 PM 20.79 69.422 0.207 9.51 3.26 10.11
9/6/2021 1:00:00 PM 20.94 69.692 0.207 9.54 3.25 10.01
9/6/2021 1:15:00 PM 20.86 69.548 0.205 9.51 3.47 9.74
9/6/2021 1:30:00 PM 20.97 69.746 0.205 9.53 3.51 9.86
9/6/2021 1:45:00 PM 21.15 70.07 0.205 9.57 3.43 9.78
9/6/2021 2:00:00 PM 21.16 70.088 0.204 9.54 3.58 9.71
9/6/2021 2:15:00 PM 21.08 69.944 0.203 9.52 3.78 9.76
9/6/2021 2:30:00 PM 21.12 70.016 0.203 9.53 3.72 9.84
9/6/2021 2:45:00 PM 21.2 70.16 0.203 9.56 4 9.86
9/6/2021 3:00:00 PM 21.16 70.088 0.203 9.55 3.93 9.87
9/6/2021 3:15:00 PM 21.09 69.962 0.203 9.54 3.66 9.85
9/6/2021 3:30:00 PM 21.06 69.908 0.204 9.53 4.14 9.78
9/6/2021 3:45:00 PM 21.04 69.872 0.204 9.49 4.21 9.68
9/6/2021 4:00:00 PM 20.99 69.782 0.205 9.45 4.28 9.58
9/6/2021 4:15:00 PM 20.92 69.656 0.205 9.4 4.03 9.49
9/6/2021 4:30:00 PM 20.84 69.512 0.206 9.35 4.19 9.39
9/6/2021 4:45:00 PM 20.77 69.386 0.206 9.31 3.96 9.36
9/6/2021 5:00:00 PM 20.69 69.242 0.206 9.24 4.02 9.28
9/6/2021 5:15:00 PM 20.63 69.134 0.206 9.2 4.26 9.21
9/6/2021 5:30:00 PM 20.56 69.008 0.206 9.14 3.97 9.11
9/6/2021 5:45:00 PM 20.49 68.882 0.206 9.08 4.09 8.99
9/6/2021 6:00:00 PM 20.41 68.738 0.207 9.07 3.85 8.89
9/6/2021 6:15:00 PM 20.34 68.612 0.207 9.05 3.85 8.77
9/6/2021 6:30:00 PM 20.26 68.468 0.207 8.99 3.99 8.66
9/6/2021 6:45:00 PM 20.17 68.306 0.207 8.96 3.84 8.6
9/6/2021 7:00:00 PM 20.09 68.162 0.208 8.92 3.69 8.48
9/6/2021 7:15:00 PM 20 68 0.208 8.88 3.8 8.43
9/6/2021 7:30:00 PM 19.91 67.838 0.208 8.84 3.73 8.34
9/6/2021 7:45:00 PM 19.81 67.658 0.208 8.8 3.6 8.23
9/6/2021 8:00:00 PM 19.72 67.496 0.209 8.77 4.09 8.12
9/6/2021 8:15:00 PM 19.64 67.352 0.209 8.74 3.62 8.1
9/6/2021 8:30:00 PM 19.56 67.208 0.209 8.71 3.73 8.05
9/6/2021 8:45:00 PM 19.48 67.064 0.209 8.68 3.65 7.98
9/6/2021 9:00:00 PM 19.4 66.92 0.209 8.67 3.51 7.98
9/6/2021 9:15:00 PM 19.32 66.776 0.209 8.66 3.51 7.94
9/6/2021 9:30:00 PM 19.23 66.614 0.21 8.64 3.65 7.96
9/6/2021 9:45:00 PM 19.14 66.452 0.21 8.62 3.62 7.96
9/6/2021 10:00:00 PM 19.06 66.308 0.21 8.62 3.51 7.91
9/6/2021 10:15:00 PM 18.98 66.164 0.21 8.6 3.53 7.95
9/6/2021 10:30:00 PM 18.91 66.038 0.21 8.58 3.54 7.96
9/6/2021 10:45:00 PM 18.83 65.894 0.21 8.56 3.43 7.95
9/6/2021 11:00:00 PM 18.76 65.768 0.21 8.55 3.57 7.98
9/6/2021 11:15:00 PM 18.69 65.642 0.21 8.55 3.47 7.99
9/6/2021 11:30:00 PM 18.62 65.516 0.21 8.53 3.59 7.94
9/6/2021 11:45:00 PM 18.55 65.39 0.21 8.53 3.49 8
9/7/2021 12:00:00 AM 18.48 65.264 0.21 8.51 3.44 8
9/7/2021 12:15:00 AM 18.4 65.12 0.211 8.51 3.52 8.03
9/7/2021 12:30:00 AM 18.33 64.994 0.211 8.5 3.52 8.04
9/7/2021 12:45:00 AM 18.26 64.868 0.211 8.49 3.62 8.06
9/7/2021 1:00:00 AM 18.19 64.742 0.211 8.48 3.37 8.07
9/7/2021 1:15:00 AM 18.13 64.634 0.211 8.47 3.63 8.07
9/7/2021 1:30:00 AM 18.05 64.49 0.211 8.47 3.54 8.1
9/7/2021 1:45:00 AM 17.98 64.364 0.211 8.45 3.42 8.11
9/7/2021 2:00:00 AM 17.91 64.238 0.211 8.44 3.42 8.09
9/7/2021 2:15:00 AM 17.84 64.112 0.211 8.44 3.61 8.14
9/7/2021 2:30:00 AM 17.76 63.968 0.211 8.43 3.68 8.13
9/7/2021 2:45:00 AM 17.69 63.842 0.211 8.42 3.53 8.17
9/7/2021 3:00:00 AM 17.62 63.716 0.211 8.41 3.66 8.19
9/7/2021 3:15:00 AM 17.55 63.59 0.211 8.39 3.86 8.18
9/7/2021 3:30:00 AM 17.48 63.464 0.211 8.39 3.49 8.2
9/7/2021 3:45:00 AM 17.41 63.338 0.211 8.36 3.48 8.22
9/7/2021 4:00:00 AM 17.34 63.212 0.211 8.35 3.5 8.24
9/7/2021 4:15:00 AM 17.27 63.086 0.211 8.34 3.54 8.24
9/7/2021 4:30:00 AM 17.2 62.96 0.212 8.31 3.61 8.27
9/7/2021 4:45:00 AM 17.14 62.852 0.212 8.32 3.46 8.28
9/7/2021 5:00:00 AM 17.06 62.708 0.212 8.33 3.54 8.31
9/7/2021 5:15:00 AM 17 62.6 0.212 8.33 3.11 8.3
9/7/2021 5:30:00 AM 16.93 62.474 0.212 8.32 3.29 8.33
9/7/2021 5:45:00 AM 16.86 62.348 0.212 8.31 3.38 8.33
9/7/2021 6:00:00 AM 16.8 62.24 0.212 8.29 3.38 8.35
9/7/2021 6:15:00 AM 16.74 62.132 0.212 8.29 3.38 8.38
9/7/2021 6:30:00 AM 16.67 62.006 0.212 8.28 3.4 8.36
9/7/2021 6:45:00 AM 16.6 61.88 0.212 8.28 3.32 8.4
9/7/2021 7:00:00 AM 16.54 61.772 0.212 8.28 3.45 8.44
9/7/2021 7:15:00 AM 16.48 61.664 0.212 8.28 3.35 8.47
9/7/2021 7:30:00 AM 16.44 61.592 0.212 8.28 3.33 8.54
9/7/2021 7:45:00 AM 16.4 61.52 0.212 8.29 3.35 8.61
9/7/2021 8:00:00 AM 16.37 61.466 0.212 8.3 3.22 8.7
9/7/2021 8:15:00 AM 16.37 61.466 0.212 8.32 3.24 8.82
9/7/2021 8:30:00 AM 16.39 61.502 0.212 8.34 3.45 8.96
9/7/2021 8:45:00 AM 16.43 61.574 0.212 8.37 3.3 9.08
9/7/2021 9:00:00 AM 16.49 61.682 0.212 8.4 3.38 9.18
9/7/2021 9:15:00 AM 16.57 61.826 0.212 8.44 3.23 9.3
9/7/2021 9:30:00 AM 16.68 62.024 0.211 8.47 3.28 9.43
9/7/2021 9:45:00 AM 16.81 62.258 0.211 8.49 3.26 9.52
9/7/2021 10:00:00 AM 16.99 62.582 0.211 8.56 3.29 9.59
9/7/2021 10:15:00 AM 17.16 62.888 0.211 8.6 3.38 9.64
9/7/2021 10:30:00 AM 17.39 63.302 0.211 8.65 3.13 9.79
9/7/2021 10:45:00 AM 17.62 63.716 0.211 8.72 3.12 9.87
9/7/2021 11:00:00 AM 17.83 64.094 0.211 8.76 3.28 9.93
9/7/2021 11:15:00 AM 18.09 64.562 0.211 8.79 3.1 10
9/7/2021 11:30:00 AM 18.33 64.994 0.21 8.9 3.16 10.05
9/7/2021 11:45:00 AM 18.6 65.48 0.21 8.95 3.15 10.12
9/7/2021 12:00:00 PM 18.88 65.984 0.21 9.01 3.1 10.14
9/7/2021 12:15:00 PM 19.2 66.56 0.21 9.11 3.05 10.23
9/7/2021 12:30:00 PM 19.53 67.154 0.209 9.21 3.09 10.29
9/7/2021 12:45:00 PM 19.86 67.748 0.209 9.29 3.07 10.28
9/7/2021 1:00:00 PM 20.09 68.162 0.209 9.33 2.98 10.24
9/7/2021 1:15:00 PM 20.34 68.612 0.209 9.39 3.06 10.18
9/7/2021 1:30:00 PM 20.62 69.116 0.209 9.45 3.04 10.22
9/7/2021 1:45:00 PM 20.9 69.62 0.209 9.51 3.1 10.2
9/7/2021 2:00:00 PM 21.09 69.962 0.209 9.56 3.25 10.13
9/7/2021 2:15:00 PM 21.24 70.232 0.21 9.6 3.08 10.06
9/7/2021 2:30:00 PM 21.35 70.43 0.21 9.61 3.12 10.01
9/7/2021 2:45:00 PM 21.37 70.466 0.21 9.59 3.02 9.97
9/7/2021 3:00:00 PM 21.37 70.466 0.21 9.58 2.96 9.84
9/7/2021 3:15:00 PM 21.32 70.376 0.21 9.54 2.99 9.77
9/7/2021 3:30:00 PM 21.25 70.25 0.21 9.51 3 9.67
9/7/2021 3:45:00 PM 21.15 70.07 0.21 9.46 3.13 9.58
9/7/2021 4:00:00 PM 21.06 69.908 0.21 9.41 2.97 9.49
9/7/2021 4:15:00 PM 20.97 69.746 0.21 9.34 3.05 9.38
9/7/2021 4:30:00 PM 20.92 69.656 0.21 9.29 3.08 9.29
9/7/2021 4:45:00 PM 20.87 69.566 0.21 9.23 3.06 9.19
9/7/2021 5:00:00 PM 20.82 69.476 0.211 9.17 3.08 9.1
9/7/2021 5:15:00 PM 20.77 69.386 0.211 9.11 3.11 8.99
9/7/2021 5:30:00 PM 20.71 69.278 0.211 9.06 3.2 8.91
9/7/2021 5:45:00 PM 20.64 69.152 0.211 8.99 3.21 8.83
9/7/2021 6:00:00 PM 20.56 69.008 0.211 8.94 3.03 8.75
9/7/2021 6:15:00 PM 20.48 68.864 0.211 8.89 3.14 8.64
9/7/2021 6:30:00 PM 20.39 68.702 0.211 8.86 3.16 8.59
9/7/2021 6:45:00 PM 20.3 68.54 0.211 8.81 3.13 8.47
9/7/2021 7:00:00 PM 20.21 68.378 0.211 8.76 3.24 8.42
9/7/2021 7:15:00 PM 20.12 68.216 0.211 8.76 3.05 8.33
9/7/2021 7:30:00 PM 20.03 68.054 0.211 8.72 3.14 8.26
9/7/2021 7:45:00 PM 19.95 67.91 0.211 8.7 3.05 8.18
9/7/2021 8:00:00 PM 19.88 67.784 0.211 8.69 3.01 8.09
9/7/2021 8:15:00 PM 19.8 67.64 0.211 8.66 3.12 8.04
9/7/2021 8:30:00 PM 19.71 67.478 0.211 8.63 3.12 8.01
9/7/2021 8:45:00 PM 19.64 67.352 0.211 8.61 3.18 7.94
9/7/2021 9:00:00 PM 19.56 67.208 0.211 8.59 3.07 7.91
9/7/2021 9:15:00 PM 19.48 67.064 0.211 8.57 3.2 7.88
9/7/2021 9:30:00 PM 19.4 66.92 0.211 8.55 3.13 7.85
9/7/2021 9:45:00 PM 19.33 66.794 0.211 8.53 3.06 7.85
9/7/2021 10:00:00 PM 19.26 66.668 0.211 8.52 3.17 7.83
9/7/2021 10:15:00 PM 19.19 66.542 0.211 8.51 3.13 7.87
9/7/2021 10:30:00 PM 19.13 66.434 0.211 8.5 3.05 7.86
9/7/2021 10:45:00 PM 19.06 66.308 0.211 8.49 3.08 7.86
9/7/2021 11:00:00 PM 19 66.2 0.211 8.48 3.1 7.88
9/7/2021 11:15:00 PM 18.95 66.11 0.211 8.48 3.19 7.87
9/7/2021 11:30:00 PM 18.9 66.02 0.211 8.48 3.18 7.87
9/7/2021 11:45:00 PM 18.86 65.948 0.211 8.47 3.08 7.87
9/8/2021 12:00:00 AM 18.82 65.876 0.211 8.47 3.1 7.88
9/8/2021 12:15:00 AM 18.79 65.82201 0.211 8.48 3.1 7.88
9/8/2021 12:30:00 AM 18.75 65.75 0.211 8.47 3.11 7.88
9/8/2021 12:45:00 AM 18.71 65.67799 0.211 8.48 3.07 7.89
9/8/2021 1:00:00 AM 18.68 65.624 0.211 8.46 3.07 7.89
9/8/2021 1:15:00 AM 18.65 65.57 0.21 8.46 3.05 7.87
9/8/2021 1:30:00 AM 18.62 65.516 0.21 8.46 3.18 7.88
9/8/2021 1:45:00 AM 18.59 65.462 0.21 8.46 4 7.88
9/8/2021 2:00:00 AM 18.55 65.39 0.21 8.45 3.12 7.89
9/8/2021 2:15:00 AM 18.52 65.336 0.21 8.44 3.06 7.9
9/8/2021 2:30:00 AM 18.49 65.282 0.21 8.44 3.06 7.92
9/8/2021 2:45:00 AM 18.46 65.228 0.211 8.44 2.97 7.9
9/8/2021 3:00:00 AM 18.42 65.156 0.21 8.44 3.06 7.93
9/8/2021 3:15:00 AM 18.38 65.084 0.21 8.43 3.09 7.94
9/8/2021 3:30:00 AM 18.34 65.012 0.21 8.43 3 7.94
9/8/2021 3:45:00 AM 18.31 64.958 0.21 8.43 3.06 7.95
9/8/2021 4:00:00 AM 18.27 64.886 0.21 8.45 3.07 7.92
9/8/2021 4:15:00 AM 18.23 64.814 0.21 8.44 3.12 7.9
9/8/2021 4:30:00 AM 18.19 64.742 0.21 8.44 3.03 7.95
9/8/2021 4:45:00 AM 18.15 64.67 0.21 8.43 3.14 7.95
9/8/2021 5:00:00 AM 18.11 64.598 0.21 8.42 3.14 7.95
9/8/2021 5:15:00 AM 18.07 64.526 0.21 8.42 3.08 7.98
9/8/2021 5:30:00 AM 18.03 64.454 0.21 8.42 3.02 7.97
9/8/2021 5:45:00 AM 17.98 64.364 0.21 8.42 3.06 7.99
9/8/2021 6:00:00 AM 17.94 64.292 0.21 8.41 3.03 8
9/8/2021 6:15:00 AM 17.9 64.22 0.21 8.41 3.05 8.01
9/8/2021 6:30:00 AM 17.86 64.148 0.21 8.41 3.16 8.02
9/8/2021 6:45:00 AM 17.83 64.094 0.21 8.41 3.12 8
9/8/2021 7:00:00 AM 17.8 64.04 0.21 8.41 3.22 8.05
9/8/2021 7:15:00 AM 17.77 63.986 0.21 8.42 3.05 8.09
9/8/2021 7:30:00 AM 17.76 63.968 0.21 8.43 3.21 8.19
9/8/2021 7:45:00 AM 17.76 63.968 0.21 8.44 3.2 8.29
9/8/2021 8:00:00 AM 17.77 63.986 0.21 8.46 3.17 8.42
9/8/2021 8:15:00 AM 17.79 64.022 0.21 8.49 3.24 8.54
9/8/2021 8:30:00 AM 17.81 64.058 0.21 8.52 3.12 8.65
9/8/2021 8:45:00 AM 17.85 64.13 0.21 8.56 3.13 8.79
9/8/2021 9:00:00 AM 17.92 64.256 0.21 8.6 3.23 9
9/8/2021 9:15:00 AM 18 64.4 0.21 8.68 3.16 9.16
9/8/2021 9:30:00 AM 18.15 64.67 0.21 8.79 3.21 9.33
9/8/2021 9:45:00 AM 18.33 64.994 0.209 8.9 3.15 9.5
9/8/2021 10:00:00 AM 18.42 65.156 0.209 8.97 3.22 9.65
9/8/2021 10:15:00 AM 18.59 65.462 0.209 9.04 3.32 9.78
9/8/2021 10:30:00 AM 18.81 65.858 0.209 9.12 3.18 9.96
9/8/2021 10:45:00 AM 19 66.2 0.209 9.23 3.17 10.05
9/8/2021 11:00:00 AM 19.18 66.524 0.209 9.32 3.11 10.18
9/8/2021 11:15:00 AM 19.4 66.92 0.208 9.4 3.12 10.25
9/8/2021 11:30:00 AM 19.64 67.352 0.208 9.53 3.04 10.36
9/8/2021 11:45:00 AM 19.91 67.838 0.208 9.65 2.96 10.43
9/8/2021 12:00:00 PM 20.12 68.216 0.208 9.75 3.06 10.53
9/8/2021 12:15:00 PM 20.32 68.576 0.208 9.85 2.96 10.56
9/8/2021 12:30:00 PM 20.47 68.846 0.194 8.63 2.18 10.85
9/8/2021 12:45:00 PM 20.55 68.99 0.194 8.66 2.08 10.82
9/8/2021 1:00:00 PM 20.67 69.206 0.194 8.69 2.11 10.81
9/8/2021 1:15:00 PM 20.82 69.476 0.193 8.73 2.05 10.78
9/8/2021 1:30:00 PM 20.97 69.746 0.193 8.75 2.02 10.76
9/8/2021 1:45:00 PM 21.01 69.818 0.194 8.76 2.01 10.66
9/8/2021 2:00:00 PM 21.03 69.854 0.194 8.75 2.05 10.59
9/8/2021 2:15:00 PM 21.04 69.872 0.194 8.75 2.06 10.56
9/8/2021 2:30:00 PM 21.01 69.818 0.194 8.74 2.14 10.46
9/8/2021 2:45:00 PM 20.94 69.692 0.194 8.7 2.06 10.2
9/8/2021 3:00:00 PM 20.84 69.512 0.193 8.62 2.37 9.81
9/8/2021 3:15:00 PM 20.71 69.278 0.19 8.5 2.54 9.45
9/8/2021 3:30:00 PM 20.59 69.062 0.188 8.36 3.65 9.18
9/8/2021 3:45:00 PM 20.46 68.828 0.188 8.2 3.43 8.96
9/8/2021 4:00:00 PM 20.32 68.576 0.185 8.01 4.53 8.69
9/8/2021 4:15:00 PM 20.2 68.36 0.182 7.89 5.24 8.55
9/8/2021 4:30:00 PM 20.11 68.198 0.178 7.82 10.08 8.52
9/8/2021 4:45:00 PM 19.99 67.982 0.177 7.76 19.42 8.45
9/8/2021 5:00:00 PM 19.85 67.73 0.177 7.72 21.09 8.41
9/8/2021 5:15:00 PM 19.78 67.604 0.175 7.7 17.38 8.47
9/8/2021 5:30:00 PM 19.74 67.532 0.176 7.72 11.83 8.57
9/8/2021 5:45:00 PM 19.69 67.442 0.178 7.71 9.12 8.58
9/8/2021 6:00:00 PM 19.65 67.37 0.18 7.71 7.47 8.6
9/8/2021 6:15:00 PM 19.61 67.298 0.18 7.69 7.36 8.56
9/8/2021 6:30:00 PM 19.56 67.208 0.179 7.66 7.21 8.51
9/8/2021 6:45:00 PM 19.51 67.118 0.177 7.64 7.61 8.47
9/8/2021 7:00:00 PM 19.47 67.046 0.177 7.63 7.98 8.46
9/8/2021 7:15:00 PM 19.44 66.992 0.178 7.62 6.99 8.45
9/8/2021 7:30:00 PM 19.41 66.938 0.18 7.63 5.84 8.43
9/8/2021 7:45:00 PM 19.39 66.902 0.182 7.62 5.47 8.39
9/8/2021 8:00:00 PM 19.39 66.902 0.183 7.62 5.55 8.35
9/8/2021 8:15:00 PM 19.38 66.884 0.185 7.6 5.48 8.31
9/8/2021 8:30:00 PM 19.39 66.902 0.186 7.59 5.5 8.28
9/8/2021 8:45:00 PM 19.38 66.884 0.187 7.59 5.39 8.27
9/8/2021 9:00:00 PM 19.36 66.848 0.186 7.58 5.86 8.26
9/8/2021 9:15:00 PM 19.34 66.812 0.186 7.57 6.62 8.26
9/8/2021 9:30:00 PM 19.31 66.758 0.186 7.56 6.71 8.26
9/8/2021 9:45:00 PM 19.27 66.686 0.186 7.56 8.02 8.27
9/8/2021 10:00:00 PM 19.23 66.614 0.186 7.56 8.34 8.28
9/8/2021 10:15:00 PM 19.18 66.524 0.186 7.55 8.91 8.3
9/8/2021 10:30:00 PM 19.14 66.452 0.185 7.55 9.58 8.31
9/8/2021 10:45:00 PM 19.1 66.38 0.184 7.55 10.24 8.32
9/8/2021 11:00:00 PM 19.05 66.29 0.185 7.55 10.45 8.34
9/8/2021 11:15:00 PM 19 66.2 0.187 7.55 10.72 8.37
9/8/2021 11:30:00 PM 18.95 66.11 0.188 7.55 10.08 8.39
9/8/2021 11:45:00 PM 18.89 66.002 0.188 7.55 10.37 8.41
9/9/2021 12:00:00 AM 18.83 65.894 0.187 7.55 9.8 8.41
9/9/2021 12:15:00 AM 18.79 65.82201 0.186 7.55 9.22 8.42
9/9/2021 12:30:00 AM 18.76 65.768 0.185 7.55 8.8 8.42
9/9/2021 12:45:00 AM 18.74 65.732 0.185 7.56 8.84 8.42
9/9/2021 1:00:00 AM 18.73 65.714 0.184 7.56 9.33 8.42
9/9/2021 1:15:00 AM 18.71 65.67799 0.183 7.55 10.35 8.42
9/9/2021 1:30:00 AM 18.7 65.66 0.182 7.55 12.97 8.43
9/9/2021 1:45:00 AM 18.68 65.624 0.18 7.55 15.65 8.43
9/9/2021 2:00:00 AM 18.66 65.588 0.18 7.54 16.88 8.44
9/9/2021 2:15:00 AM 18.63 65.534 0.179 7.54 18.63 8.44
9/9/2021 2:30:00 AM 18.6 65.48 0.179 7.54 19.51 8.45
9/9/2021 2:45:00 AM 18.56 65.408 0.18 7.54 19.76 8.47
9/9/2021 3:00:00 AM 18.52 65.336 0.18 7.54 18.4 8.48
9/9/2021 3:15:00 AM 18.48 65.264 0.181 7.53 19.09 8.48
9/9/2021 3:30:00 AM 18.44 65.192 0.181 7.54 17.04 8.48
9/9/2021 3:45:00 AM 18.39 65.102 0.181 7.54 16.26 8.48
9/9/2021 4:00:00 AM 18.35 65.03 0.181 7.54 14.52 8.48
9/9/2021 4:15:00 AM 18.31 64.958 0.18 7.54 14.19 8.49
9/9/2021 4:30:00 AM 18.28 64.904 0.18 7.54 13 8.5
9/9/2021 4:45:00 AM 18.24 64.832 0.179 7.53 12.13 8.51
9/9/2021 5:00:00 AM 18.22 64.796 0.178 7.53 11.15 8.51
9/9/2021 5:15:00 AM 18.19 64.742 0.177 7.53 10.18 8.52
9/9/2021 5:30:00 AM 18.15 64.67 0.177 7.53 10.97 8.53
9/9/2021 5:45:00 AM 18.13 64.634 0.176 7.53 10.78 8.54
9/9/2021 6:00:00 AM 18.1 64.58 0.175 7.52 9.66 8.54
9/9/2021 6:15:00 AM 18.07 64.526 0.175 7.53 9.67 8.54
9/9/2021 6:30:00 AM 18.04 64.472 0.174 7.52 9.39 8.54
9/9/2021 6:45:00 AM 18.01 64.418 0.173 7.52 9.19 8.54
9/9/2021 7:00:00 AM 17.99 64.382 0.173 7.52 8.72 8.54
9/9/2021 7:15:00 AM 17.96 64.328 0.172 7.53 8.3 8.55
9/9/2021 7:30:00 AM 17.94 64.292 0.172 7.53 7.88 8.57
9/9/2021 7:45:00 AM 17.92 64.256 0.171 7.54 8.07 8.61
9/9/2021 8:00:00 AM 17.9 64.22 0.171 7.54 7.84 8.66
9/9/2021 8:15:00 AM 17.89 64.202 0.171 7.55 7.55 8.7
9/9/2021 8:30:00 AM 17.89 64.202 0.17 7.56 7.69 8.79
9/9/2021 8:45:00 AM 17.92 64.256 0.17 7.59 7.18 8.94
9/9/2021 9:00:00 AM 17.98 64.364 0.17 7.63 6.93 9.15
9/9/2021 9:15:00 AM 18.02 64.436 0.169 7.66 6.76 9.3
9/9/2021 9:30:00 AM 18.04 64.472 0.169 7.69 6.98 9.37
9/9/2021 9:45:00 AM 18.08 64.544 0.169 7.71 6.67 9.45
9/9/2021 10:00:00 AM 18.17 64.706 0.169 7.74 6.52 9.56
9/9/2021 10:15:00 AM 18.28 64.904 0.168 7.78 6.74 9.68
9/9/2021 10:30:00 AM 18.37 65.066 0.168 7.83 6.09 9.8
9/9/2021 10:45:00 AM 18.52 65.336 0.168 7.88 6.23 9.94
9/9/2021 11:00:00 AM 18.72 65.696 0.168 7.93 6.03 9.98
9/9/2021 11:15:00 AM 18.93 66.074 0.168 7.96 5.95 10.06
9/9/2021 11:30:00 AM 19.06 66.308 0.168 8.01 5.77 10.08
9/9/2021 11:45:00 AM 19.11 66.398 0.168 8.01 5.89 10.03
9/9/2021 12:00:00 PM 19.18 66.524 0.168 8.04 5.57 10.08
9/9/2021 12:15:00 PM 19.34 66.812 0.168 8.1 5.4 10.19
9/9/2021 12:30:00 PM 19.39 66.902 0.168 8.12 5.4 10.14
9/9/2021 12:45:00 PM 19.45 67.01 0.168 8.12 5.54 10.1
9/9/2021 1:00:00 PM 19.55 67.19 0.168 8.12 5.2 10.05
9/9/2021 1:15:00 PM 19.64 67.352 0.168 8.14 5.14 10.12
9/9/2021 1:30:00 PM 19.74 67.532 0.168 8.19 5.16 10.21
9/9/2021 1:45:00 PM 19.79 67.622 0.168 8.22 5.09 10.21
9/9/2021 2:00:00 PM 19.8 67.64 0.168 8.23 4.98 10.17
9/9/2021 2:15:00 PM 19.86 67.748 0.168 8.22 4.85 10.11
9/9/2021 2:30:00 PM 19.97 67.946 0.168 8.21 4.78 10.07
9/9/2021 2:45:00 PM 20.03 68.054 0.168 8.22 4.81 10.09
9/9/2021 3:00:00 PM 20.06 68.108 0.168 8.24 4.75 10.13
9/9/2021 3:15:00 PM 20.05 68.09 0.169 8.22 4.68 10.04
9/9/2021 3:30:00 PM 19.99 67.982 0.169 8.18 4.49 9.86
9/9/2021 3:45:00 PM 20.04 68.07201 0.169 8.11 4.45 9.74
9/9/2021 4:00:00 PM 20.02 68.036 0.169 8.03 4.38 9.52
9/9/2021 4:15:00 PM 20.03 68.054 0.17 8 4.34 9.48
9/9/2021 4:30:00 PM 20.08 68.144 0.17 7.99 4.41 9.46
9/9/2021 4:45:00 PM 20.05 68.09 0.17 7.96 4.2 9.38
9/9/2021 5:00:00 PM 20.07 68.126 0.17 7.95 4.19 9.37
9/9/2021 5:15:00 PM 20.08 68.144 0.171 7.93 4.21 9.3
9/9/2021 5:30:00 PM 20.05 68.09 0.171 7.88 4.31 9.19
9/9/2021 5:45:00 PM 20.03 68.054 0.171 7.86 4.07 9.13
9/9/2021 6:00:00 PM 20.01 68.018 0.171 7.82 4.29 9.02
9/9/2021 6:15:00 PM 19.97 67.946 0.172 7.79 4.09 8.9
9/9/2021 6:30:00 PM 19.94 67.892 0.172 7.76 3.9 8.81
9/9/2021 6:45:00 PM 19.88 67.784 0.172 7.74 3.94 8.71
9/9/2021 7:00:00 PM 19.81 67.658 0.172 7.71 3.93 8.63
9/9/2021 7:15:00 PM 19.74 67.532 0.173 7.68 4 8.56
9/9/2021 7:30:00 PM 19.67 67.406 0.173 7.66 3.75 8.49
9/9/2021 7:45:00 PM 19.6 67.28 0.173 7.63 3.84 8.41
9/9/2021 8:00:00 PM 19.54 67.172 0.173 7.62 3.87 8.35
9/9/2021 8:15:00 PM 19.48 67.064 0.172 7.6 3.84 8.3
9/9/2021 8:30:00 PM 19.43 66.974 0.172 7.58 3.99 8.27
9/9/2021 8:45:00 PM 19.36 66.848 0.172 7.57 3.78 8.25
9/9/2021 9:00:00 PM 19.3 66.74 0.172 7.56 3.89 8.24
9/9/2021 9:15:00 PM 19.23 66.614 0.172 7.56 4 8.24
9/9/2021 9:30:00 PM 19.16 66.488 0.172 7.55 3.92 8.23
9/9/2021 9:45:00 PM 19.1 66.38 0.173 7.55 4.1 8.22
9/9/2021 10:00:00 PM 19.05 66.29 0.173 7.55 3.81 8.22
9/9/2021 10:15:00 PM 19 66.2 0.173 7.55 3.84 8.23
9/9/2021 10:30:00 PM 18.95 66.11 0.173 7.54 3.94 8.24
9/9/2021 10:45:00 PM 18.89 66.002 0.173 7.54 3.82 8.26
9/9/2021 11:00:00 PM 18.84 65.912 0.173 7.54 3.85 8.27
9/9/2021 11:15:00 PM 18.79 65.82201 0.174 7.53 3.83 8.26
9/9/2021 11:30:00 PM 18.73 65.714 0.174 7.53 3.96 8.26
9/9/2021 11:45:00 PM 18.66 65.588 0.174 7.53 3.89 8.27
9/10/2021 12:00:00 AM 18.6 65.48 0.174 7.53 3.75 8.28
9/10/2021 12:15:00 AM 18.54 65.372 0.174 7.53 3.79 8.31
9/10/2021 12:30:00 AM 18.47 65.246 0.174 7.52 3.79 8.32
9/10/2021 12:45:00 AM 18.41 65.138 0.174 7.53 3.69 8.33
9/10/2021 1:00:00 AM 18.35 65.03 0.175 7.53 3.52 8.33
9/10/2021 1:15:00 AM 18.31 64.958 0.175 7.52 3.65 8.33
9/10/2021 1:30:00 AM 18.25 64.85 0.175 7.52 3.65 8.34
9/10/2021 1:45:00 AM 18.21 64.778 0.175 7.52 3.56 8.35
9/10/2021 2:00:00 AM 18.17 64.706 0.175 7.52 3.54 8.37
9/10/2021 2:15:00 AM 18.12 64.616 0.175 7.52 3.6 8.38
9/10/2021 2:30:00 AM 18.08 64.544 0.176 7.52 3.54 8.4
9/10/2021 2:45:00 AM 18.04 64.472 0.176 7.52 3.56 8.41
9/10/2021 3:00:00 AM 17.99 64.382 0.176 7.52 3.64 8.41
9/10/2021 3:15:00 AM 17.94 64.292 0.176 7.52 3.59 8.41
9/10/2021 3:30:00 AM 17.9 64.22 0.176 7.52 3.48 8.41
9/10/2021 3:45:00 AM 17.86 64.148 0.176 7.52 3.5 8.41
9/10/2021 4:00:00 AM 17.82 64.076 0.176 7.52 3.53 8.42
9/10/2021 4:15:00 AM 17.79 64.022 0.176 7.52 3.49 8.44
9/10/2021 4:30:00 AM 17.75 63.95 0.176 7.52 3.46 8.45
9/10/2021 4:45:00 AM 17.72 63.896 0.176 7.52 3.52 8.46
9/10/2021 5:00:00 AM 17.7 63.86 0.176 7.52 3.88 8.47
9/10/2021 5:15:00 AM 17.67 63.806 0.176 7.52 3.43 8.48
9/10/2021 5:30:00 AM 17.63 63.734 0.176 7.52 3.46 8.49
9/10/2021 5:45:00 AM 17.59 63.662 0.177 7.52 3.57 8.48
9/10/2021 6:00:00 AM 17.54 63.572 0.177 7.52 3.4 8.48
9/10/2021 6:15:00 AM 17.5 63.5 0.177 7.52 3.49 8.49
9/10/2021 6:30:00 AM 17.47 63.446 0.177 7.52 3.39 8.5
9/10/2021 6:45:00 AM 17.45 63.41 0.177 7.52 3.4 8.5
9/10/2021 7:00:00 AM 17.43 63.374 0.177 7.52 3.56 8.53
9/10/2021 7:15:00 AM 17.42 63.356 0.177 7.53 3.63 8.59
9/10/2021 7:30:00 AM 17.43 63.374 0.177 7.54 3.69 8.69
9/10/2021 7:45:00 AM 17.45 63.41 0.177 7.56 3.46 8.81
9/10/2021 8:00:00 AM 17.45 63.41 0.177 7.58 3.24 8.91
9/10/2021 8:15:00 AM 17.46 63.428 0.177 7.61 3.1 9.03
9/10/2021 8:30:00 AM 17.49 63.482 0.177 7.63 3.12 9.14
9/10/2021 8:45:00 AM 17.51 63.518 0.177 7.65 3.15 9.21
9/10/2021 9:00:00 AM 17.56 63.608 0.178 7.67 3.2 9.32
9/10/2021 9:15:00 AM 17.66 63.788 0.177 7.71 3.13 9.49
9/10/2021 9:30:00 AM 17.74 63.932 0.177 7.74 3.12 9.63
9/10/2021 9:45:00 AM 17.84 64.112 0.177 7.79 3.04 9.8
9/10/2021 10:00:00 AM 17.81 64.058 0.177 7.83 3.13 9.83
9/10/2021 10:15:00 AM 17.79 64.022 0.176 7.84 3.17 9.84
9/10/2021 10:30:00 AM 17.83 64.094 0.176 7.85 3.29 9.85
9/10/2021 10:45:00 AM 18 64.4 0.175 7.87 3.29 9.89
9/10/2021 11:00:00 AM 18.22 64.796 0.175 7.89 3.27 9.99
9/10/2021 11:15:00 AM 18.45 65.21 0.168 7.95 5.13 10.16
9/10/2021 11:30:00 AM 18.63 65.534 0.175 8.02 3.3 10.27
9/10/2021 11:45:00 AM 18.79 65.82201 0.175 8.08 3.37 10.35
9/10/2021 12:00:00 PM 18.97 66.146 0.175 8.14 3.37 10.42
9/10/2021 12:15:00 PM 19.14 66.452 0.176 8.18 3.22 10.4
9/10/2021 12:30:00 PM 19.35 66.83 0.176 8.21 3.29 10.41
9/10/2021 12:45:00 PM 19.64 67.352 0.176 8.26 3.35 10.46
9/10/2021 1:00:00 PM 19.84 67.712 0.176 8.28 3.45 10.39
9/10/2021 1:15:00 PM 20.01 68.018 0.176 8.31 3.27 10.42
9/10/2021 1:30:00 PM 20.13 68.234 0.177 8.33 3.39 10.38
9/10/2021 1:45:00 PM 20.24 68.432 0.177 8.33 3.34 10.32
9/10/2021 2:00:00 PM 20.32 68.576 0.177 8.31 8.44 10.27
9/10/2021 2:15:00 PM 20.36 68.648 0.177 8.3 7.07 10.23
9/10/2021 2:30:00 PM 20.33 68.594 0.178 8.29 4.56 10.13
9/10/2021 2:45:00 PM 20.33 68.594 0.178 8.28 3.65 10.1
9/10/2021 3:00:00 PM 20.27 68.486 0.178 8.27 3.57 10.01
9/10/2021 3:15:00 PM 20.2 68.36 0.178 8.25 3.21 9.99
9/10/2021 3:30:00 PM 20.18 68.324 0.178 8.25 3.17 9.98
9/10/2021 3:45:00 PM 20.19 68.342 0.178 8.25 3.12 9.99
9/10/2021 4:00:00 PM 20.18 68.324 0.178 8.27 3.26 10.01
9/10/2021 4:15:00 PM 20.14 68.252 0.178 8.25 3.28 9.95
9/10/2021 4:30:00 PM 20.09 68.162 0.178 8.21 3.51 9.84
9/10/2021 4:45:00 PM 20.05 68.09 0.178 8.16 3.19 9.76
9/10/2021 5:00:00 PM 19.98 67.964 0.179 8.11 3.13 9.66
9/10/2021 5:15:00 PM 19.9 67.82 0.179 8.03 3.28 9.47
9/10/2021 5:30:00 PM 19.85 67.73 0.179 7.98 3.25 9.38
9/10/2021 5:45:00 PM 19.81 67.658 0.179 7.94 3.2 9.28
9/10/2021 6:00:00 PM 19.74 67.532 0.179 7.89 3.16 9.18
9/10/2021 6:15:00 PM 19.67 67.406 0.179 7.86 3.28 9.14
9/10/2021 6:30:00 PM 19.56 67.208 0.179 7.83 3.22 9.05
9/10/2021 6:45:00 PM 19.45 67.01 0.179 7.8 3.27 8.97
9/10/2021 7:00:00 PM 19.35 66.83 0.179 7.77 3.15 8.89
9/10/2021 7:15:00 PM 19.26 66.668 0.179 7.73 3.18 8.81
9/10/2021 7:30:00 PM 19.18 66.524 0.18 7.7 3.05 8.7
9/10/2021 7:45:00 PM 19.1 66.38 0.18 7.67 3.22 8.6
9/10/2021 8:00:00 PM 19.01 66.218 0.18 7.64 3.14 8.5
9/10/2021 8:15:00 PM 18.93 66.074 0.18 7.62 3.08 8.44
9/10/2021 8:30:00 PM 18.84 65.912 0.18 7.6 3.13 8.4
9/10/2021 8:45:00 PM 18.75 65.75 0.18 7.59 3.02 8.37
9/10/2021 9:00:00 PM 18.67 65.606 0.181 7.57 3.25 8.34
9/10/2021 9:15:00 PM 18.6 65.48 0.181 7.56 3.27 8.31
9/10/2021 9:30:00 PM 18.52 65.336 0.181 7.56 3.15 8.31
9/10/2021 9:45:00 PM 18.45 65.21 0.181 7.55 3.07 8.33
9/10/2021 10:00:00 PM 18.37 65.066 0.181 7.54 3.14 8.34
9/10/2021 10:15:00 PM 18.3 64.94 0.181 7.54 3.06 8.33
9/10/2021 10:30:00 PM 18.23 64.814 0.182 7.54 3.11 8.32
9/10/2021 10:45:00 PM 18.15 64.67 0.182 7.53 3.16 8.34
9/10/2021 11:00:00 PM 18.07 64.526 0.182 7.53 3.14 8.36
9/10/2021 11:15:00 PM 18 64.4 0.182 7.53 3.21 8.39
9/10/2021 11:30:00 PM 17.92 64.256 0.182 7.53 3.26 8.39
9/10/2021 11:45:00 PM 17.84 64.112 0.182 7.52 3.05 8.39
9/11/2021 12:00:00 AM 17.77 63.986 0.183 7.52 3.05 8.4
9/11/2021 12:15:00 AM 17.68 63.824 0.183 7.52 3.05 8.43
9/11/2021 12:30:00 AM 17.61 63.698 0.183 7.52 3.19 8.46
9/11/2021 12:45:00 AM 17.53 63.554 0.183 7.52 3.18 8.46
9/11/2021 1:00:00 AM 17.45 63.41 0.183 7.51 3.18 8.46
9/11/2021 1:15:00 AM 17.36 63.248 0.183 7.52 3.2 8.48
9/11/2021 1:30:00 AM 17.29 63.122 0.183 7.52 3.15 8.5
9/11/2021 1:45:00 AM 17.21 62.978 0.184 7.52 3.18 8.54
9/11/2021 2:00:00 AM 17.13 62.834 0.184 7.51 3.13 8.55
9/11/2021 2:15:00 AM 17.05 62.69 0.184 7.52 3.12 8.54
9/11/2021 2:30:00 AM 16.98 62.564 0.184 7.51 3.17 8.55
9/11/2021 2:45:00 AM 16.91 62.438 0.184 7.51 3.13 8.58
9/11/2021 3:00:00 AM 16.85 62.33 0.184 7.51 3.22 8.61
9/11/2021 3:15:00 AM 16.78 62.204 0.179 7.51 4.84 8.64
9/11/2021 3:30:00 AM 16.7 62.06 0.184 7.52 3.09 8.65
9/11/2021 3:45:00 AM 16.63 61.934 0.184 7.51 3.13 8.65
9/11/2021 4:00:00 AM 16.56 61.808 0.185 7.51 3.24 8.65
9/11/2021 4:15:00 AM 16.49 61.682 0.185 7.51 3.13 8.68
9/11/2021 4:30:00 AM 16.43 61.574 0.185 7.51 3.06 8.7
9/11/2021 4:45:00 AM 16.36 61.448 0.185 7.52 3.15 8.73
9/11/2021 5:00:00 AM 16.3 61.34 0.185 7.51 3.19 8.74
9/11/2021 5:15:00 AM 16.23 61.214 0.185 7.51 3.14 8.74
9/11/2021 5:30:00 AM 16.17 61.106 0.185 7.52 3.17 8.75
9/11/2021 5:45:00 AM 16.11 60.998 0.185 7.51 3.18 8.76
9/11/2021 6:00:00 AM 16.06 60.908 0.185 7.51 3.17 8.79
9/11/2021 6:15:00 AM 16 60.8 0.185 7.52 3.17 8.81
9/11/2021 6:30:00 AM 15.94 60.692 0.185 7.52 3.29 8.84
9/11/2021 6:45:00 AM 15.87 60.566 0.186 7.51 3.16 8.85
9/11/2021 7:00:00 AM 15.8 60.44 0.186 7.52 3.29 8.86
9/11/2021 7:15:00 AM 15.75 60.35 0.186 7.52 3.31 8.89
9/11/2021 7:30:00 AM 15.69 60.242 0.186 7.53 3.27 8.96
9/11/2021 7:45:00 AM 15.66 60.188 0.186 7.54 3.25 9.06
9/11/2021 8:00:00 AM 15.63 60.134 0.186 7.55 3.24 9.2
9/11/2021 8:15:00 AM 15.62 60.116 0.186 7.58 3.4 9.36
9/11/2021 8:30:00 AM 15.64 60.152 0.186 7.56 3.39 9.51
9/11/2021 8:45:00 AM 15.67 60.206 0.186 7.58 3.16 9.67
9/11/2021 9:00:00 AM 15.73 60.314 0.186 7.62 3.19 9.81
9/11/2021 9:15:00 AM 15.82 60.476 0.185 7.67 4.68 9.97
9/11/2021 9:30:00 AM 15.91 60.638 0.186 7.73 3.21 10.11
9/11/2021 9:45:00 AM 16 60.8 0.186 7.76 3.14 10.24
9/11/2021 10:00:00 AM 16.16 61.088 0.185 7.81 3.22 10.32
9/11/2021 10:15:00 AM 16.35 61.43 0.185 7.85 3.08 10.42
9/11/2021 10:30:00 AM 16.54 61.772 0.185 7.89 3.09 10.49
9/11/2021 10:45:00 AM 16.76 62.168 0.185 7.92 3.11 10.55
9/11/2021 11:00:00 AM 16.96 62.528 0.185 7.97 3.24 10.63
9/11/2021 11:15:00 AM 17.18 62.924 0.185 8.01 3.12 10.69
9/11/2021 11:30:00 AM 17.44 63.392 0.185 8.07 3.18 10.77
9/11/2021 11:45:00 AM 17.71 63.878 0.185 8.15 3.28 10.88
9/11/2021 12:00:00 PM 17.88 64.184 0.185 8.22 3.14 10.91
9/11/2021 12:15:00 PM 18.12 64.616 0.185 8.29 3.19 11.03
9/11/2021 12:30:00 PM 18.46 65.228 0.184 8.36 3.08 11.04
9/11/2021 12:45:00 PM 18.79 65.82201 0.184 8.43 3.2 11.01
9/11/2021 1:00:00 PM 19.05 66.29 0.185 8.46 3.08 10.97
9/11/2021 1:15:00 PM 19.3 66.74 0.185 8.48 3.07 10.95
9/11/2021 1:30:00 PM 19.57 67.226 0.185 8.52 3.06 10.92
9/11/2021 1:45:00 PM 19.84 67.712 0.185 8.55 3.11 10.87
9/11/2021 2:00:00 PM 19.98 67.964 0.185 8.56 3.06 10.84
9/11/2021 2:15:00 PM 20.02 68.036 0.185 8.57 3.11 10.8
9/11/2021 2:30:00 PM 20.12 68.216 0.185 8.57 3.08 10.74
9/11/2021 2:45:00 PM 20.16 68.288 0.185 8.56 3.12 10.64
9/11/2021 3:00:00 PM 20.14 68.252 0.185 8.55 3.06 10.59
9/11/2021 3:15:00 PM 20.15 68.27 0.185 8.55 3.14 10.54
9/11/2021 3:30:00 PM 20.12 68.216 0.185 8.53 3.53 10.47
9/11/2021 3:45:00 PM 20.06 68.108 0.185 8.49 4.6 10.39
9/11/2021 4:00:00 PM 20.01 68.018 0.186 8.45 5.92 10.32
9/11/2021 4:15:00 PM 19.98 67.964 0.186 8.42 4.59 10.22
9/11/2021 4:30:00 PM 19.94 67.892 0.186 8.39 4.04 10.12
9/11/2021 4:45:00 PM 19.89 67.802 0.186 8.35 3.6 10.04
9/11/2021 5:00:00 PM 19.83 67.694 0.186 8.3 3.41 9.96
9/11/2021 5:15:00 PM 19.78 67.604 0.186 8.25 3.24 9.85
9/11/2021 5:30:00 PM 19.72 67.496 0.186 8.19 3.26 9.76
9/11/2021 5:45:00 PM 19.65 67.37 0.187 8.13 3.24 9.67
9/11/2021 6:00:00 PM 19.57 67.226 0.187 8.06 3.23 9.55
9/11/2021 6:15:00 PM 19.5 67.1 0.187 8 3.3 9.41
9/11/2021 6:30:00 PM 19.42 66.956 0.187 7.94 3.16 9.27
9/11/2021 6:45:00 PM 19.33 66.794 0.187 7.88 3.18 9.14
9/11/2021 7:00:00 PM 19.24 66.632 0.188 7.83 3.26 9.02
9/11/2021 7:15:00 PM 19.15 66.47 0.188 7.78 3.26 8.91
9/11/2021 7:30:00 PM 19.05 66.29 0.188 7.74 3.3 8.77
9/11/2021 7:45:00 PM 18.97 66.146 0.188 7.71 3.2 8.64
9/11/2021 8:00:00 PM 18.88 65.984 0.188 7.67 3.25 8.56
9/11/2021 8:15:00 PM 18.8 65.84 0.188 7.65 3.32 8.49
9/11/2021 8:30:00 PM 18.71 65.67799 0.189 7.62 3.29 8.43
9/11/2021 8:45:00 PM 18.62 65.516 0.189 7.6 3.32 8.36
9/11/2021 9:00:00 PM 18.54 65.372 0.189 7.59 3.27 8.33
9/11/2021 9:15:00 PM 18.45 65.21 0.189 7.58 3.22 8.33
9/11/2021 9:30:00 PM 18.37 65.066 0.189 7.56 3.32 8.32
9/11/2021 9:45:00 PM 18.29 64.922 0.189 7.56 3.52 8.31
9/11/2021 10:00:00 PM 18.21 64.778 0.189 7.55 3.4 8.29
9/11/2021 10:15:00 PM 18.14 64.652 0.189 7.55 3.35 8.3
9/11/2021 10:30:00 PM 18.07 64.526 0.189 7.54 3.28 8.31
9/11/2021 10:45:00 PM 18 64.4 0.189 7.54 3.43 8.33
9/11/2021 11:00:00 PM 17.93 64.274 0.189 7.54 3.76 8.34
9/11/2021 11:15:00 PM 17.88 64.184 0.189 7.53 3.39 8.33
9/11/2021 11:30:00 PM 17.82 64.076 0.189 7.53 3.46 8.32
9/11/2021 11:45:00 PM 17.77 63.986 0.189 7.53 3.33 8.33
9/12/2021 12:00:00 AM 17.72 63.896 0.189 7.52 3.25 8.33
9/12/2021 12:15:00 AM 17.67 63.806 0.189 7.52 3.31 8.34
9/12/2021 12:30:00 AM 17.62 63.716 0.189 7.52 3.4 8.36
9/12/2021 12:45:00 AM 17.57 63.626 0.189 7.52 3.39 8.38
9/12/2021 1:00:00 AM 17.52 63.536 0.189 7.52 3.33 8.39
9/12/2021 1:15:00 AM 17.48 63.464 0.189 7.51 3.45 8.39
9/12/2021 1:30:00 AM 17.44 63.392 0.189 7.52 3.32 8.4
9/12/2021 1:45:00 AM 17.41 63.338 0.189 7.52 3.31 8.4
9/12/2021 2:00:00 AM 17.38 63.284 0.189 7.51 3.34 8.39
9/12/2021 2:15:00 AM 17.35 63.23 0.189 7.51 3.27 8.4
9/12/2021 2:30:00 AM 17.32 63.176 0.189 7.51 3.32 8.41
9/12/2021 2:45:00 AM 17.29 63.122 0.189 7.51 3.21 8.42
9/12/2021 3:00:00 AM 17.27 63.086 0.189 7.51 3.37 8.43
9/12/2021 3:15:00 AM 17.24 63.032 0.189 7.51 3.36 8.43
9/12/2021 3:30:00 AM 17.21 62.978 0.189 7.51 3.34 8.44
9/12/2021 3:45:00 AM 17.19 62.942 0.189 7.5 3.43 8.44
9/12/2021 4:00:00 AM 17.17 62.906 0.189 7.51 3.24 8.47
9/12/2021 4:15:00 AM 17.16 62.888 0.19 7.51 3.36 8.47
9/12/2021 4:30:00 AM 17.15 62.87 0.19 7.51 3.35 8.47
9/12/2021 4:45:00 AM 17.13 62.834 0.19 7.51 3.28 8.48
9/12/2021 5:00:00 AM 17.11 62.798 0.19 7.51 3.25 8.48
9/12/2021 5:15:00 AM 17.07 62.726 0.19 7.51 3.48 8.48
9/12/2021 5:30:00 AM 17.05 62.69 0.19 7.51 3.28 8.48
9/12/2021 5:45:00 AM 17.02 62.636 0.19 7.51 3.31 8.48
9/12/2021 6:00:00 AM 16.99 62.582 0.19 7.51 3.43 8.48
9/12/2021 6:15:00 AM 16.97 62.546 0.19 7.51 3.32 8.48
9/12/2021 6:30:00 AM 16.95 62.51 0.19 7.5 3.37 8.47
9/12/2021 6:45:00 AM 16.93 62.474 0.19 7.51 3.65 8.47
9/12/2021 7:00:00 AM 16.91 62.438 0.19 7.5 3.45 8.49
9/12/2021 7:15:00 AM 16.89 62.402 0.19 7.51 3.68 8.53
9/12/2021 7:30:00 AM 16.87 62.366 0.19 7.51 3.58 8.59
9/12/2021 7:45:00 AM 16.86 62.348 0.19 7.53 3.48 8.7
9/12/2021 8:00:00 AM 16.86 62.348 0.19 7.54 3.43 8.81
9/12/2021 8:15:00 AM 16.87 62.366 0.19 7.56 3.51 8.95
9/12/2021 8:30:00 AM 16.9 62.42 0.19 7.59 3.71 9.11
9/12/2021 8:45:00 AM 16.95 62.51 0.19 7.62 3.45 9.31
9/12/2021 9:00:00 AM 17.03 62.654 0.19 7.66 4.88 9.54
9/12/2021 9:15:00 AM 17.14 62.852 0.19 7.71 3.29 9.75
9/12/2021 9:30:00 AM 17.26 63.068 0.19 7.75 3.37 9.9
9/12/2021 9:45:00 AM 17.32 63.176 0.19 7.79 3.36 10.03
9/12/2021 10:00:00 AM 17.37 63.266 0.19 7.83 3.32 10.15
9/12/2021 10:15:00 AM 17.52 63.536 0.189 7.89 3.35 10.34
9/12/2021 10:30:00 AM 17.68 63.824 0.189 7.97 3.35 10.51
9/12/2021 10:45:00 AM 17.78 64.004 0.189 8.02 3.31 10.57
9/12/2021 11:00:00 AM 17.94 64.292 0.189 8.09 3.29 10.71
9/12/2021 11:15:00 AM 18.13 64.634 0.189 8.18 3.34 10.85
9/12/2021 11:30:00 AM 18.26 64.868 0.189 8.26 3.35 10.95
9/12/2021 11:45:00 AM 18.34 65.012 0.188 8.31 3.43 10.97
9/12/2021 12:00:00 PM 18.46 65.228 0.188 8.39 3.3 10.99
9/12/2021 12:15:00 PM 18.57 65.426 0.188 8.45 3.23 11
9/12/2021 12:30:00 PM 18.66 65.588 0.188 8.47 3.26 10.93
9/12/2021 12:45:00 PM 18.75 65.75 0.188 8.47 3.24 10.85
9/12/2021 1:00:00 PM 18.85 65.93 0.188 8.48 3.31 10.79
9/12/2021 1:15:00 PM 18.91 66.038 0.189 8.46 2.95 10.71
9/12/2021 1:30:00 PM 18.93 66.074 0.189 8.44 2.94 10.62
9/12/2021 1:45:00 PM 18.97 66.146 0.189 8.41 2.91 10.58
9/12/2021 2:00:00 PM 19.01 66.218 0.189 8.42 2.82 10.6
9/12/2021 2:15:00 PM 19.05 66.29 0.189 8.42 2.89 10.54
9/12/2021 2:30:00 PM 19.13 66.434 0.189 8.41 2.84 10.54
9/12/2021 2:45:00 PM 19.25 66.65 0.189 8.41 2.88 10.53
9/12/2021 3:00:00 PM 19.33 66.794 0.19 8.41 2.89 10.54
9/12/2021 3:15:00 PM 19.41 66.938 0.19 8.41 2.85 10.59
9/12/2021 3:30:00 PM 19.45 67.01 0.189 8.45 2.87 10.66
9/12/2021 3:45:00 PM 19.52 67.136 0.189 8.51 2.94 10.73
9/12/2021 4:00:00 PM 19.59 67.262 0.189 8.56 3.01 10.78
9/12/2021 4:15:00 PM 19.64 67.352 0.189 8.59 2.96 10.79
9/12/2021 4:30:00 PM 19.68 67.424 0.189 8.62 2.83 10.79
9/12/2021 4:45:00 PM 19.71 67.478 0.189 8.62 3.04 10.76
9/12/2021 5:00:00 PM 19.72 67.496 0.189 8.6 2.95 10.63
9/12/2021 5:15:00 PM 19.73 67.514 0.189 8.57 2.88 10.52
9/12/2021 5:30:00 PM 19.74 67.532 0.189 8.54 2.87 10.41
9/12/2021 5:45:00 PM 19.74 67.532 0.19 8.49 2.94 10.26
9/12/2021 6:00:00 PM 19.72 67.496 0.19 8.41 3.13 10.09
9/12/2021 6:15:00 PM 19.69 67.442 0.191 8.31 3.02 9.9
9/12/2021 6:30:00 PM 19.66 67.388 0.191 8.21 3 9.74
9/12/2021 6:45:00 PM 19.61 67.298 0.191 8.11 2.98 9.52
9/12/2021 7:00:00 PM 19.56 67.208 0.191 8.01 2.96 9.33
9/12/2021 7:15:00 PM 19.52 67.136 0.192 7.91 3.05 9.14
9/12/2021 7:30:00 PM 19.48 67.064 0.192 7.83 2.96 8.93
9/12/2021 7:45:00 PM 19.44 66.992 0.192 7.77 3.09 8.76
9/12/2021 8:00:00 PM 19.41 66.938 0.193 7.71 3.1 8.61
9/12/2021 8:15:00 PM 19.37 66.866 0.193 7.67 3.26 8.48
9/12/2021 8:30:00 PM 19.33 66.794 0.193 7.63 3.07 8.36
9/12/2021 8:45:00 PM 19.29 66.722 0.193 7.6 2.95 8.27
9/12/2021 9:00:00 PM 19.26 66.668 0.193 7.58 3.16 8.2
9/12/2021 9:15:00 PM 19.22 66.596 0.193 7.56 3.04 8.15
9/12/2021 9:30:00 PM 19.18 66.524 0.193 7.54 3.1 8.11
9/12/2021 9:45:00 PM 19.14 66.452 0.194 7.52 3.08 8.09
9/12/2021 10:00:00 PM 19.11 66.398 0.194 7.51 2.93 8.07
9/12/2021 10:15:00 PM 19.09 66.362 0.194 7.5 3.19 8.06
9/12/2021 10:30:00 PM 19.06 66.308 0.194 7.5 3.2 8.05
9/12/2021 10:45:00 PM 19.04 66.272 0.194 7.49 3.18 8.05
9/12/2021 11:00:00 PM 19.02 66.236 0.194 7.49 2.99 8.04
9/12/2021 11:15:00 PM 19 66.2 0.194 7.48 3.08 8.04
9/12/2021 11:30:00 PM 18.98 66.164 0.194 7.48 3.08 8.04
9/12/2021 11:45:00 PM 18.94 66.092 0.194 7.48 3.04 8.04
9/13/2021 12:00:00 AM 18.92 66.056 0.194 7.47 3.01 8.03
9/13/2021 12:15:00 AM 18.91 66.038 0.194 7.47 2.99 8.03
9/13/2021 12:30:00 AM 18.9 66.02 0.194 7.47 3.07 8.03
9/13/2021 12:45:00 AM 18.88 65.984 0.194 7.47 3.21 8.03
9/13/2021 1:00:00 AM 18.87 65.966 0.194 7.47 3 8.03
9/13/2021 1:15:00 AM 18.86 65.948 0.194 7.47 3.06 8.03
9/13/2021 1:30:00 AM 18.85 65.93 0.194 7.47 3.11 8.03
9/13/2021 1:45:00 AM 18.85 65.93 0.194 7.47 3.11 8.04
9/13/2021 2:00:00 AM 18.84 65.912 0.193 7.47 3.2 8.06
9/13/2021 2:15:00 AM 18.83 65.894 0.193 7.47 3.16 8.06
9/13/2021 2:30:00 AM 18.82 65.876 0.193 7.47 3.05 8.04
9/13/2021 2:45:00 AM 18.8 65.84 0.193 7.47 3.27 8.05
9/13/2021 3:00:00 AM 18.79 65.82201 0.193 7.46 3.09 8.03
9/13/2021 3:15:00 AM 18.78 65.804 0.193 7.46 3.09 8.02
9/13/2021 3:30:00 AM 18.77 65.786 0.193 7.46 3.26 8.01
9/13/2021 3:45:00 AM 18.76 65.768 0.193 7.46 3.13 8
9/13/2021 4:00:00 AM 18.75 65.75 0.193 7.46 3.07 8.01
9/13/2021 4:15:00 AM 18.73 65.714 0.193 7.47 3.29 8.01
9/13/2021 4:30:00 AM 18.71 65.67799 0.193 7.47 3.09 8.01
9/13/2021 4:45:00 AM 18.69 65.642 0.193 7.47 3.14 8.01
9/13/2021 5:00:00 AM 18.67 65.606 0.193 7.47 3.05 8.02
9/13/2021 5:15:00 AM 18.64 65.552 0.193 7.48 3.13 8.04
9/13/2021 5:30:00 AM 18.63 65.534 0.193 7.48 3.11 8.04
9/13/2021 5:45:00 AM 18.61 65.498 0.194 7.48 3.09 8.05
9/13/2021 6:00:00 AM 18.6 65.48 0.194 7.48 3.12 8.07
9/13/2021 6:15:00 AM 18.59 65.462 0.194 7.48 3.23 8.07
9/13/2021 6:30:00 AM 18.58 65.444 0.194 7.48 3.24 8.07
9/13/2021 6:45:00 AM 18.56 65.408 0.194 7.49 3.24 8.08
9/13/2021 7:00:00 AM 18.55 65.39 0.194 7.49 3.23 8.09
9/13/2021 7:15:00 AM 18.54 65.372 0.194 7.49 3.16 8.11
9/13/2021 7:30:00 AM 18.53 65.354 0.194 7.49 3.19 8.13
9/13/2021 7:45:00 AM 18.52 65.336 0.194 7.5 3.24 8.17
9/13/2021 8:00:00 AM 18.5 65.3 0.194 7.51 3.13 8.23
9/13/2021 8:15:00 AM 18.5 65.3 0.194 7.52 3.2 8.27
9/13/2021 8:30:00 AM 18.49 65.282 0.194 7.53 3.27 8.36
9/13/2021 8:45:00 AM 18.49 65.282 0.194 7.55 3.13 8.46
9/13/2021 9:00:00 AM 18.49 65.282 0.194 7.57 3.19 8.58
9/13/2021 9:15:00 AM 18.5 65.3 0.194 7.59 3.06 8.71
9/13/2021 9:30:00 AM 18.5 65.3 0.194 7.61 3.22 8.84
9/13/2021 9:45:00 AM 18.51 65.318 0.194 7.63 3.27 8.94
9/13/2021 10:00:00 AM 18.54 65.372 0.194 7.66 3.21 9.1
9/13/2021 10:15:00 AM 18.55 65.39 0.194 7.68 3.2 9.19
9/13/2021 10:30:00 AM 18.59 65.462 0.194 7.71 3.22 9.31
9/13/2021 10:45:00 AM 18.65 65.57 0.194 7.75 3.26 9.47
9/13/2021 11:00:00 AM 18.72 65.696 0.194 7.8 3.16 9.68
9/13/2021 11:15:00 AM 18.78 65.804 0.194 7.85 3.38 9.84
9/13/2021 11:30:00 AM 18.85 65.93 0.194 7.9 3.2 9.99
9/13/2021 11:45:00 AM 18.94 66.092 0.193 7.98 3.17 10.17
9/13/2021 12:00:00 PM 19.04 66.272 0.193 8.06 3.25 10.38
9/13/2021 12:15:00 PM 19.15 66.47 0.193 8.18 3.14 10.59
9/13/2021 12:30:00 PM 19.21 66.578 0.193 8.24 3.27 10.67
9/13/2021 12:45:00 PM 19.29 66.722 0.192 8.32 3.22 10.73
9/13/2021 1:00:00 PM 19.36 66.848 0.192 8.4 3.28 10.8
9/13/2021 1:15:00 PM 19.46 67.028 0.192 8.46 3.27 10.88
9/13/2021 1:30:00 PM 19.65 67.37 0.192 8.53 3.14 10.93
9/13/2021 1:45:00 PM 19.81 67.658 0.192 8.57 3.29 10.98
9/13/2021 2:00:00 PM 20.01 68.018 0.192 8.61 3.16 10.96
9/13/2021 2:15:00 PM 20.1 68.18 0.192 8.64 3.01 10.97
9/13/2021 2:30:00 PM 20.22 68.396 0.192 8.68 3.19 11.01
9/13/2021 2:45:00 PM 20.32 68.576 0.192 8.72 3.16 11.08
9/13/2021 3:00:00 PM 20.44 68.792 0.191 8.76 3.12 11.12
9/13/2021 3:15:00 PM 20.53 68.954 0.191 8.81 3.24 11.11
9/13/2021 3:30:00 PM 20.56 69.008 0.191 8.82 3.08 11.06
9/13/2021 3:45:00 PM 20.56 69.008 0.191 8.82 3.09 11.02
9/13/2021 4:00:00 PM 20.59 69.062 0.191 8.84 3.26 10.96
9/13/2021 4:15:00 PM 20.62 69.116 0.192 8.85 3.13 10.9
9/13/2021 4:30:00 PM 20.67 69.206 0.192 8.83 3.22 10.78
9/13/2021 4:45:00 PM 20.69 69.242 0.192 8.8 4.14 10.58
9/13/2021 5:00:00 PM 20.71 69.278 0.192 8.79 3.27 10.52
9/13/2021 5:15:00 PM 20.73 69.314 0.192 8.74 3.24 10.41
9/13/2021 5:30:00 PM 20.76 69.368 0.192 8.71 3.23 10.29
9/13/2021 5:45:00 PM 20.77 69.386 0.193 8.66 3.22 10.15
9/13/2021 6:00:00 PM 20.74 69.332 0.193 8.58 3.34 9.98
9/13/2021 6:15:00 PM 20.7 69.26 0.193 8.51 3.3 9.82
9/13/2021 6:30:00 PM 20.65 69.17 0.194 8.4 3.26 9.64
9/13/2021 6:45:00 PM 20.58 69.044 0.194 8.29 3.26 9.45
9/13/2021 7:00:00 PM 20.5 68.9 0.195 8.18 3.23 9.23
9/13/2021 7:15:00 PM 20.43 68.774 0.195 8.05 3.17 9.02
9/13/2021 7:30:00 PM 20.36 68.648 0.195 7.94 3.16 8.8
9/13/2021 7:45:00 PM 20.29 68.522 0.195 7.85 3.28 8.59
9/13/2021 8:00:00 PM 20.22 68.396 0.195 7.78 3.31 8.42
9/13/2021 8:15:00 PM 20.16 68.288 0.195 7.73 3.5 8.3
9/13/2021 8:30:00 PM 20.09 68.162 0.195 7.69 3.36 8.17
9/13/2021 8:45:00 PM 20.02 68.036 0.195 7.65 3.35 8.08
9/13/2021 9:00:00 PM 19.94 67.892 0.195 7.62 3.34 7.99
9/13/2021 9:15:00 PM 19.86 67.748 0.195 7.6 3.51 7.95
9/13/2021 9:30:00 PM 19.78 67.604 0.195 7.58 3.39 7.93
9/13/2021 9:45:00 PM 19.69 67.442 0.195 7.57 3.44 7.91
9/13/2021 10:00:00 PM 19.61 67.298 0.195 7.56 3.4 7.88
9/13/2021 10:15:00 PM 19.52 67.136 0.195 7.55 3.5 7.88
9/13/2021 10:30:00 PM 19.45 67.01 0.195 7.54 3.27 7.89
9/13/2021 10:45:00 PM 19.37 66.866 0.195 7.54 3.42 7.91
9/13/2021 11:00:00 PM 19.3 66.74 0.195 7.53 3.4 7.91
9/13/2021 11:15:00 PM 19.24 66.632 0.196 7.53 3.4 7.91
9/13/2021 11:30:00 PM 19.18 66.524 0.195 7.53 3.4 7.91
9/13/2021 11:45:00 PM 19.14 66.452 0.196 7.52 3.38 7.93
9/14/2021 12:00:00 AM 19.09 66.362 0.196 7.52 3.38 7.94
9/14/2021 12:15:00 AM 19.04 66.272 0.195 7.52 3.34 8
9/14/2021 12:30:00 AM 18.98 66.164 0.193 7.53 3.58 8.05
9/14/2021 12:45:00 AM 18.95 66.11 0.193 7.52 3.61 8.05
9/14/2021 1:00:00 AM 18.92 66.056 0.193 7.52 3.48 8.04
9/14/2021 1:15:00 AM 18.89 66.002 0.192 7.52 3.39 8.05
9/14/2021 1:30:00 AM 18.86 65.948 0.191 7.51 3.62 8.02
9/14/2021 1:45:00 AM 18.83 65.894 0.191 7.5 3.73 8
9/14/2021 2:00:00 AM 18.82 65.876 0.191 7.49 4 7.97
9/14/2021 2:15:00 AM 18.81 65.858 0.191 7.49 4.11 7.96
9/14/2021 2:30:00 AM 18.8 65.84 0.191 7.48 4.27 7.96
9/14/2021 2:45:00 AM 18.79 65.82201 0.191 7.48 4.29 7.95
9/14/2021 3:00:00 AM 18.78 65.804 0.191 7.48 3.87 7.96
9/14/2021 3:15:00 AM 18.77 65.786 0.191 7.48 3.95 7.97
9/14/2021 3:30:00 AM 18.76 65.768 0.192 7.48 4.05 7.98
9/14/2021 3:45:00 AM 18.75 65.75 0.192 7.49 3.91 7.99
9/14/2021 4:00:00 AM 18.74 65.732 0.193 7.48 4.02 7.99
9/14/2021 4:15:00 AM 18.73 65.714 0.193 7.49 4.04 7.99
9/14/2021 4:30:00 AM 18.73 65.714 0.193 7.49 4.04 8.01
9/14/2021 4:45:00 AM 18.72 65.696 0.193 7.49 3.9 8.02
9/14/2021 5:00:00 AM 18.71 65.67799 0.193 7.49 3.78 8.04
9/14/2021 5:15:00 AM 18.71 65.67799 0.194 7.49 3.96 8.03
9/14/2021 5:30:00 AM 18.7 65.66 0.194 7.5 3.86 8.05
9/14/2021 5:45:00 AM 18.69 65.642 0.194 7.5 3.92 8.06
9/14/2021 6:00:00 AM 18.69 65.642 0.194 7.5 3.8 8.06
9/14/2021 6:15:00 AM 18.67 65.606 0.195 7.5 3.86 8.08
9/14/2021 6:30:00 AM 18.65 65.57 0.195 7.5 3.75 8.09
9/14/2021 6:45:00 AM 18.64 65.552 0.195 7.5 3.81 8.09
9/14/2021 7:00:00 AM 18.63 65.534 0.195 7.5 3.66 8.12
9/14/2021 7:15:00 AM 18.61 65.498 0.195 7.51 3.79 8.15
9/14/2021 7:30:00 AM 18.61 65.498 0.195 7.52 3.45 8.19
9/14/2021 7:45:00 AM 18.62 65.516 0.195 7.52 3.42 8.28
9/14/2021 8:00:00 AM 18.63 65.534 0.195 7.54 3.46 8.37
9/14/2021 8:15:00 AM 18.65 65.57 0.195 7.57 3.33 8.55
9/14/2021 8:30:00 AM 18.69 65.642 0.195 7.6 3.32 8.74
9/14/2021 8:45:00 AM 18.75 65.75 0.195 7.65 3.37 8.97
9/14/2021 9:00:00 AM 18.82 65.876 0.195 7.71 3.4 9.2
9/14/2021 9:15:00 AM 18.87 65.966 0.195 7.76 3.37 9.4
9/14/2021 9:30:00 AM 18.91 66.038 0.195 7.81 3.34 9.54
9/14/2021 9:45:00 AM 19.02 66.236 0.194 7.86 3.33 9.75
9/14/2021 10:00:00 AM 19.11 66.398 0.194 7.92 3.29 9.87
9/14/2021 10:15:00 AM 19.23 66.614 0.194 7.99 3.37 10.02
9/14/2021 10:30:00 AM 19.33 66.794 0.194 8.05 3.08 10.17
9/14/2021 10:45:00 AM 19.43 66.974 0.194 8.13 3.34 10.25
9/14/2021 11:00:00 AM 19.53 67.154 0.194 8.19 3.15 10.34
9/14/2021 11:15:00 AM 19.65 67.37 0.194 8.25 3.13 10.45
9/14/2021 11:30:00 AM 19.73 67.514 0.193 8.3 3.33 10.45
9/14/2021 11:45:00 AM 19.82 67.676 0.193 8.33 3.26 10.45
9/14/2021 12:00:00 PM 19.89 67.802 0.193 8.34 3.32 10.4
9/14/2021 12:15:00 PM 20.03 68.054 0.193 8.35 3.42 10.38
9/14/2021 12:30:00 PM 20.27 68.486 0.192 8.37 3.71 10.39
9/14/2021 12:45:00 PM 20.55 68.99 0.192 8.43 3.07 10.48
9/14/2021 1:00:00 PM 20.87 69.566 0.192 8.51 2.88 10.59
9/14/2021 1:15:00 PM 21.15 70.07 0.191 8.56 2.85 10.64
9/14/2021 1:30:00 PM 21.35 70.43 0.191 8.59 2.9 10.64
9/14/2021 1:45:00 PM 21.47 70.646 0.191 8.61 2.96 10.57
9/14/2021 2:00:00 PM 21.6 70.88 0.191 8.62 3.07 10.53
9/14/2021 2:15:00 PM 21.71 71.078 0.191 8.64 2.9 10.5
9/14/2021 2:30:00 PM 21.81 71.258 0.191 8.64 2.9 10.44
9/14/2021 2:45:00 PM 21.86 71.348 0.192 8.63 2.97 10.37
9/14/2021 3:00:00 PM 21.89 71.402 0.192 8.63 3 10.31
9/14/2021 3:15:00 PM 21.93 71.474 0.193 8.62 2.9 10.24
9/14/2021 3:30:00 PM 21.96 71.528 0.193 8.59 3 10.13
9/14/2021 3:45:00 PM 21.98 71.564 0.194 8.56 3.06 10.05
9/14/2021 4:00:00 PM 22.03 71.654 0.194 8.54 3.08 9.99
9/14/2021 4:15:00 PM 22.06 71.708 0.194 8.51 2.91 9.9
9/14/2021 4:30:00 PM 22.07 71.726 0.195 8.48 2.95 9.83
9/14/2021 4:45:00 PM 22.06 71.708 0.195 8.45 2.98 9.76
9/14/2021 5:00:00 PM 22.02 71.636 0.195 8.39 2.95 9.63
9/14/2021 5:15:00 PM 22 71.6 0.195 8.33 3.07 9.51
9/14/2021 5:30:00 PM 21.97 71.546 0.196 8.27 2.98 9.42
9/14/2021 5:45:00 PM 21.94 71.492 0.196 8.2 2.91 9.3
9/14/2021 6:00:00 PM 21.91 71.438 0.196 8.14 3.03 9.23
9/14/2021 6:15:00 PM 21.87 71.366 0.196 8.08 2.91 9.13
9/14/2021 6:30:00 PM 21.82 71.276 0.196 8.03 3.06 9
9/14/2021 6:45:00 PM 21.77 71.186 0.196 7.97 3.06 8.87
9/14/2021 7:00:00 PM 21.71 71.078 0.197 7.91 2.96 8.73
9/14/2021 7:15:00 PM 21.63 70.934 0.197 7.84 2.9 8.55
9/14/2021 7:30:00 PM 21.54 70.772 0.197 7.78 2.94 8.38
9/14/2021 7:45:00 PM 21.46 70.628 0.197 7.73 2.94 8.21
9/14/2021 8:00:00 PM 21.38 70.484 0.197 7.68 3.1 8.08
9/14/2021 8:15:00 PM 21.29 70.32201 0.198 7.65 2.99 7.97
9/14/2021 8:30:00 PM 21.22 70.196 0.198 7.62 2.96 7.88
9/14/2021 8:45:00 PM 21.15 70.07 0.198 7.59 3.34 7.82
9/14/2021 9:00:00 PM 21.09 69.962 0.198 7.58 3.02 7.78
9/14/2021 9:15:00 PM 21.03 69.854 0.198 7.56 2.96 7.74
9/14/2021 9:30:00 PM 20.98 69.764 0.198 7.55 2.94 7.72
9/14/2021 9:45:00 PM 20.93 69.674 0.198 7.54 3.08 7.72
9/14/2021 10:00:00 PM 20.89 69.602 0.198 7.53 3.11 7.71
9/14/2021 10:15:00 PM 20.84 69.512 0.198 7.53 2.95 7.71
9/14/2021 10:30:00 PM 20.81 69.458 0.198 7.53 2.94 7.72
9/14/2021 10:45:00 PM 20.77 69.386 0.198 7.52 3.03 7.72
9/14/2021 11:00:00 PM 20.74 69.332 0.198 7.51 3.01 7.71
9/14/2021 11:15:00 PM 20.71 69.278 0.198 7.52 2.95 7.71
9/14/2021 11:30:00 PM 20.68 69.224 0.198 7.52 3.01 7.72
9/14/2021 11:45:00 PM 20.65 69.17 0.198 7.52 3.01 7.71
9/15/2021 12:00:00 AM 20.62 69.116 0.198 7.51 3.02 7.71
9/15/2021 12:15:00 AM 20.59 69.062 0.199 7.51 3.15 7.71
9/15/2021 12:30:00 AM 20.56 69.008 0.199 7.51 3.11 7.71
9/15/2021 12:45:00 AM 20.54 68.972 0.199 7.51 3 7.72
9/15/2021 1:00:00 AM 20.51 68.918 0.199 7.51 3.06 7.73
9/15/2021 1:15:00 AM 20.48 68.864 0.199 7.51 3.03 7.73
9/15/2021 1:30:00 AM 20.45 68.81 0.199 7.5 3.11 7.72
9/15/2021 1:45:00 AM 20.42 68.756 0.199 7.5 3.04 7.73
9/15/2021 2:00:00 AM 20.38 68.684 0.199 7.5 3.09 7.73
9/15/2021 2:15:00 AM 20.35 68.63 0.199 7.5 3.12 7.73
9/15/2021 2:30:00 AM 20.31 68.558 0.199 7.49 3.1 7.73
9/15/2021 2:45:00 AM 20.28 68.504 0.199 7.5 3.01 7.73
9/15/2021 3:00:00 AM 20.25 68.45 0.199 7.49 3.18 7.72
9/15/2021 3:15:00 AM 20.21 68.378 0.199 7.49 3.05 7.72
9/15/2021 3:30:00 AM 20.17 68.306 0.199 7.49 3.1 7.73
9/15/2021 3:45:00 AM 20.13 68.234 0.199 7.49 3.22 7.74
9/15/2021 4:00:00 AM 20.1 68.18 0.199 7.49 3.36 7.76
9/15/2021 4:15:00 AM 20.06 68.108 0.199 7.49 3.14 7.76
9/15/2021 4:30:00 AM 20.03 68.054 0.199 7.49 3.15 7.76
9/15/2021 4:45:00 AM 20 68 0.199 7.48 3.13 7.76
9/15/2021 5:00:00 AM 19.98 67.964 0.199 7.48 3.17 7.77
9/15/2021 5:15:00 AM 19.95 67.91 0.199 7.49 3.12 7.77
9/15/2021 5:30:00 AM 19.91 67.838 0.2 7.49 3.1 7.76
9/15/2021 5:45:00 AM 19.88 67.784 0.2 7.49 3.22 7.78
9/15/2021 6:00:00 AM 19.84 67.712 0.2 7.49 3.16 7.77
9/15/2021 6:15:00 AM 19.81 67.658 0.2 7.49 3.14 7.78
9/15/2021 6:30:00 AM 19.78 67.604 0.2 7.48 3.14 7.79
9/15/2021 6:45:00 AM 19.75 67.55 0.2 7.48 3.15 7.79
9/15/2021 7:00:00 AM 19.73 67.514 0.2 7.48 3.12 7.8
9/15/2021 7:15:00 AM 19.72 67.496 0.2 7.49 3.17 7.84
9/15/2021 7:30:00 AM 19.73 67.514 0.2 7.5 3.22 7.91
9/15/2021 7:45:00 AM 19.74 67.532 0.2 7.51 3.29 8
9/15/2021 8:00:00 AM 19.75 67.55 0.2 7.53 3.18 8.15
9/15/2021 8:15:00 AM 19.79 67.622 0.2 7.56 3.22 8.34
9/15/2021 8:30:00 AM 19.83 67.694 0.2 7.59 3.22 8.54
9/15/2021 8:45:00 AM 19.87 67.766 0.2 7.62 3.18 8.71
9/15/2021 9:00:00 AM 19.93 67.874 0.2 7.67 3.14 8.94
9/15/2021 9:15:00 AM 19.96 67.92799 0.2 7.7 3.23 9.07
9/15/2021 9:30:00 AM 19.99 67.982 0.2 7.73 3.19 9.2
9/15/2021 9:45:00 AM 20.07 68.126 0.2 7.77 3.15 9.32
9/15/2021 10:00:00 AM 20.22 68.396 0.2 7.83 3.3 9.51
9/15/2021 10:15:00 AM 20.35 68.63 0.2 7.89 3.23 9.68
9/15/2021 10:30:00 AM 20.39 68.702 0.2 7.94 3.16 9.75
9/15/2021 10:45:00 AM 20.56 69.008 0.2 8.02 3.15 9.95
9/15/2021 11:00:00 AM 20.68 69.224 0.2 8.1 3.1 10.1
9/15/2021 11:15:00 AM 20.73 69.314 0.2 8.17 3.23 10.19
9/15/2021 11:30:00 AM 20.79 69.422 0.2 8.22 3.05 10.18
9/15/2021 11:45:00 AM 20.88 69.584 0.199 8.28 3.07 10.29
9/15/2021 12:00:00 PM 20.94 69.692 0.199 8.35 3.26 10.31
9/15/2021 12:15:00 PM 20.92 69.656 0.2 8.32 3.07 10.09
9/15/2021 12:30:00 PM 20.89 69.602 0.2 8.23 3.2 9.76
9/15/2021 12:45:00 PM 20.87 69.566 0.199 8.18 3.08 9.57
9/15/2021 1:00:00 PM 20.86 69.548 0.199 8.13 3.07 9.46
9/15/2021 1:15:00 PM 20.89 69.602 0.199 8.06 3.05 9.37
9/15/2021 1:30:00 PM 20.9 69.62 0.199 8.01 2.99 9.3
9/15/2021 1:45:00 PM 20.91 69.638 0.199 8.01 3.22 9.35
9/15/2021 2:00:00 PM 20.9 69.62 0.199 8.02 3.11 9.41
9/15/2021 2:15:00 PM 20.89 69.602 0.199 8.07 3.1 9.53
9/15/2021 2:30:00 PM 20.88 69.584 0.199 8.11 3.19 9.58
9/15/2021 2:45:00 PM 20.86 69.548 0.198 8.12 3.17 9.59
9/15/2021 3:00:00 PM 20.83 69.494 0.198 8.1 3.22 9.48
9/15/2021 3:15:00 PM 20.8 69.44 0.198 8.05 3.25 9.34
9/15/2021 3:30:00 PM 20.78 69.404 0.198 8.04 3.47 9.29
9/15/2021 3:45:00 PM 20.69 69.242 0.199 7.95 5.28 9.14
9/15/2021 4:00:00 PM 20.61 69.098 0.2 7.83 5.24 8.97
9/15/2021 4:15:00 PM 20.58 69.044 0.2 7.79 5.11 8.85
9/15/2021 4:30:00 PM 20.57 69.026 0.201 7.78 5 8.79
9/15/2021 4:45:00 PM 20.56 69.008 0.203 7.76 5.02 8.71
9/15/2021 5:00:00 PM 20.54 68.972 0.203 7.73 6.03 8.61
9/15/2021 5:15:00 PM 20.51 68.918 0.202 7.71 8.26 8.55
9/15/2021 5:30:00 PM 20.46 68.828 0.197 7.67 12.54 8.48
9/15/2021 5:45:00 PM 20.38 68.684 0.193 7.63 19.56 8.41
9/15/2021 6:00:00 PM 20.29 68.522 0.19 7.59 23.6 8.36
9/15/2021 6:15:00 PM 20.2 68.36 0.188 7.58 27.74 8.33
9/15/2021 6:30:00 PM 20.13 68.234 0.188 7.58 29.88 8.31
9/15/2021 6:45:00 PM 20.08 68.144 0.187 7.56 27.4 8.31
9/15/2021 7:00:00 PM 20.06 68.108 0.186 7.57 25.71 8.3
9/15/2021 7:15:00 PM 20.03 68.054 0.185 7.54 25.2 8.27
9/15/2021 7:30:00 PM 20 68 0.183 7.56 23.79 8.25
9/15/2021 7:45:00 PM 19.96 67.92799 0.182 7.54 22.52 8.23
9/15/2021 8:00:00 PM 19.91 67.838 0.181 7.53 23.81 8.22
9/15/2021 8:15:00 PM 19.85 67.73 0.179 7.53 20.96 8.22
9/15/2021 8:30:00 PM 19.78 67.604 0.179 7.53 19.15 8.23
9/15/2021 8:45:00 PM 19.71 67.478 0.178 7.53 20.53 8.25
9/15/2021 9:00:00 PM 19.64 67.352 0.178 7.53 16.73 8.26
9/15/2021 9:15:00 PM 19.57 67.226 0.178 7.53 16 8.27
9/15/2021 9:30:00 PM 19.51 67.118 0.178 7.53 15.81 8.27
9/15/2021 9:45:00 PM 19.44 66.992 0.178 7.54 14.4 8.29
9/15/2021 10:00:00 PM 19.38 66.884 0.177 7.53 13.92 8.31
9/15/2021 10:15:00 PM 19.32 66.776 0.176 7.53 14.2 8.33
9/15/2021 10:30:00 PM 19.26 66.668 0.176 7.52 14.07 8.35
9/15/2021 10:45:00 PM 19.21 66.578 0.175 7.53 14.89 8.35
9/15/2021 11:00:00 PM 19.16 66.488 0.174 7.51 15.13 8.35
9/15/2021 11:15:00 PM 19.11 66.398 0.173 7.52 14.28 8.36
9/15/2021 11:30:00 PM 19.06 66.308 0.172 7.52 15.17 8.36
9/15/2021 11:45:00 PM 19.01 66.218 0.172 7.52 15.16 8.38
9/16/2021 12:00:00 AM 18.97 66.146 0.171 7.51 16.21 8.39
9/16/2021 12:15:00 AM 18.92 66.056 0.171 7.52 18.18 8.4
9/16/2021 12:30:00 AM 18.88 65.984 0.17 7.51 17.06 8.4
9/16/2021 12:45:00 AM 18.83 65.894 0.17 7.52 17.87 8.41
9/16/2021 1:00:00 AM 18.79 65.82201 0.17 7.51 16.37 8.41
9/16/2021 1:15:00 AM 18.75 65.75 0.17 7.51 17.05 8.41
9/16/2021 1:30:00 AM 18.71 65.67799 0.17 7.51 16.17 8.42
9/16/2021 1:45:00 AM 18.67 65.606 0.17 7.51 15.81 8.43
9/16/2021 2:00:00 AM 18.63 65.534 0.17 7.51 14.62 8.44
9/16/2021 2:15:00 AM 18.59 65.462 0.171 7.51 14.54 8.46
9/16/2021 2:30:00 AM 18.55 65.39 0.171 7.51 12.45 8.47
9/16/2021 2:45:00 AM 18.53 65.354 0.172 7.51 12.81 8.48
9/16/2021 3:00:00 AM 18.5 65.3 0.173 7.51 12.36 8.49
9/16/2021 3:15:00 AM 18.46 65.228 0.173 7.51 11.89 8.5
9/16/2021 3:30:00 AM 18.44 65.192 0.174 7.51 11.32 8.5
9/16/2021 3:45:00 AM 18.41 65.138 0.174 7.53 11.94 8.5
9/16/2021 4:00:00 AM 18.39 65.102 0.099 7.52 12.8 8.51
9/16/2021 4:15:00 AM 18.36 65.048 0.175 7.51 11.81 8.5
9/16/2021 4:30:00 AM 18.33 64.994 0.176 7.52 12.58 8.51
9/16/2021 4:45:00 AM 18.3 64.94 0.176 7.53 12.83 8.52
9/16/2021 5:00:00 AM 18.28 64.904 0.177 7.52 12.83 8.53
9/16/2021 5:15:00 AM 18.25 64.85 0.177 7.52 13.57 8.53
9/16/2021 5:30:00 AM 18.22 64.796 0.177 7.53 13.66 8.55
9/16/2021 5:45:00 AM 18.18 64.724 0.178 7.53 14.37 8.57
9/16/2021 6:00:00 AM 18.14 64.652 0.178 7.53 15.3 8.58
9/16/2021 6:15:00 AM 18.11 64.598 0.178 7.53 14.86 8.59
9/16/2021 6:30:00 AM 18.08 64.544 0.178 7.53 14.75 8.59
9/16/2021 6:45:00 AM 18.05 64.49 0.179 7.53 14.73 8.6
9/16/2021 7:00:00 AM 18.02 64.436 0.179 7.53 14.93 8.59
9/16/2021 7:15:00 AM 18 64.4 0.179 7.52 13.6 8.61
9/16/2021 7:30:00 AM 17.98 64.364 0.179 7.53 13.22 8.63
9/16/2021 7:45:00 AM 17.97 64.346 0.179 7.54 12.33 8.68
9/16/2021 8:00:00 AM 17.96 64.328 0.179 7.56 11.96 8.75
9/16/2021 8:15:00 AM 17.97 64.346 0.179 7.57 11.19 8.81
9/16/2021 8:30:00 AM 17.97 64.346 0.179 7.58 11.67 8.88
9/16/2021 8:45:00 AM 17.99 64.382 0.179 7.6 11.09 8.98
9/16/2021 9:00:00 AM 18.01 64.418 0.179 7.62 10.19 9.08
9/16/2021 9:15:00 AM 18.07 64.526 0.179 7.66 9.95 9.3
9/16/2021 9:30:00 AM 18.09 64.562 0.179 7.69 9.81 9.39
9/16/2021 9:45:00 AM 18.12 64.616 0.179 7.71 10.19 9.47
9/16/2021 10:00:00 AM 18.14 64.652 0.179 7.72 8.61 9.48
9/16/2021 10:15:00 AM 18.19 64.742 0.179 7.75 8.01 9.58
9/16/2021 10:30:00 AM 18.21 64.778 0.179 7.79 7.9 9.67
9/16/2021 10:45:00 AM 18.23 64.814 0.179 7.81 7.2 9.71
9/16/2021 11:00:00 AM 18.24 64.832 0.179 7.81 7.19 9.67
9/16/2021 11:15:00 AM 18.26 64.868 0.179 7.82 7 9.71
9/16/2021 11:30:00 AM 18.31 64.958 0.179 7.85 6.54 9.8
9/16/2021 11:45:00 AM 18.37 65.066 0.179 7.89 6.65 9.91
9/16/2021 12:00:00 PM 18.44 65.192 0.179 7.94 6.43 10.05
9/16/2021 12:15:00 PM 18.53 65.354 0.179 8 6.37 10.19
9/16/2021 12:30:00 PM 18.6 65.48 0.179 8.06 6.08 10.27
9/16/2021 12:45:00 PM 18.66 65.588 0.179 8.1 5.88 10.32
9/16/2021 1:00:00 PM 18.75 65.75 0.179 8.14 5.81 10.38
9/16/2021 1:15:00 PM 18.88 65.984 0.179 8.2 5.72 10.47
9/16/2021 1:30:00 PM 18.98 66.164 0.179 8.23 5.71 10.46
9/16/2021 1:45:00 PM 19.17 66.506 0.179 8.26 5.61 10.49
9/16/2021 2:00:00 PM 19.35 66.83 0.179 8.26 5.85 10.4
9/16/2021 2:15:00 PM 19.45 67.01 0.179 8.24 5.3 10.3
9/16/2021 2:30:00 PM 19.54 67.172 0.179 8.2 5.28 10.17
9/16/2021 2:45:00 PM 19.63 67.334 0.179 8.16 5.07 10.06
9/16/2021 3:00:00 PM 19.71 67.478 0.179 8.13 5.22 9.93
9/16/2021 3:15:00 PM 19.75 67.55 0.179 8.08 4.92 9.83
9/16/2021 3:30:00 PM 19.82 67.676 0.179 8.05 5 9.73
9/16/2021 3:45:00 PM 19.88 67.784 0.179 8.01 4.82 9.65
9/16/2021 4:00:00 PM 19.95 67.91 0.179 8 4.86 9.62
9/16/2021 4:15:00 PM 20 68 0.179 7.99 4.86 9.58
9/16/2021 4:30:00 PM 20.03 68.054 0.179 7.99 4.71 9.54
9/16/2021 4:45:00 PM 20.05 68.09 0.179 7.94 4.66 9.39
9/16/2021 5:00:00 PM 20.06 68.108 0.179 7.89 4.73 9.25
9/16/2021 5:15:00 PM 20.05 68.09 0.179 7.85 4.47 9.14
9/16/2021 5:30:00 PM 20.03 68.054 0.18 7.81 4.58 9.04
9/16/2021 5:45:00 PM 20 68 0.18 7.78 4.54 8.95
9/16/2021 6:00:00 PM 19.98 67.964 0.18 7.76 4.44 8.91
9/16/2021 6:15:00 PM 19.96 67.92799 0.18 7.74 4.49 8.89
9/16/2021 6:30:00 PM 19.94 67.892 0.18 7.74 4.57 8.87
9/16/2021 6:45:00 PM 19.92 67.856 0.18 7.73 4.5 8.84
9/16/2021 7:00:00 PM 19.91 67.838 0.18 7.7 4.39 8.76
9/16/2021 7:15:00 PM 19.89 67.802 0.18 7.68 4.59 8.66
9/16/2021 7:30:00 PM 19.87 67.766 0.18 7.65 4.48 8.57
9/16/2021 7:45:00 PM 19.84 67.712 0.18 7.62 5.38 8.47
9/16/2021 8:00:00 PM 19.82 67.676 0.18 7.61 4.23 8.4
9/16/2021 8:15:00 PM 19.8 67.64 0.18 7.59 4.62 8.35
9/16/2021 8:30:00 PM 19.79 67.622 0.18 7.58 4.57 8.31
9/16/2021 8:45:00 PM 19.78 67.604 0.18 7.56 4.38 8.28
9/16/2021 9:00:00 PM 19.76 67.568 0.18 7.56 4.25 8.25
9/16/2021 9:15:00 PM 19.75 67.55 0.18 7.55 4.2 8.24
9/16/2021 9:30:00 PM 19.73 67.514 0.18 7.55 4.29 8.23
9/16/2021 9:45:00 PM 19.7 67.46 0.181 7.55 4.08 8.22
9/16/2021 10:00:00 PM 19.68 67.424 0.181 7.54 4.17 8.22
9/16/2021 10:15:00 PM 19.65 67.37 0.181 7.54 4.2 8.22
9/16/2021 10:30:00 PM 19.63 67.334 0.181 7.53 4.07 8.22
9/16/2021 10:45:00 PM 19.59 67.262 0.181 7.53 4.21 8.22
9/16/2021 11:00:00 PM 19.56 67.208 0.181 7.53 4.09 8.22
9/16/2021 11:15:00 PM 19.51 67.118 0.181 7.53 4.45 8.23
9/16/2021 11:30:00 PM 19.46 67.028 0.181 7.52 4.14 8.24
9/16/2021 11:45:00 PM 19.41 66.938 0.181 7.52 4 8.25
9/17/2021 12:00:00 AM 19.35 66.83 0.181 7.52 4.04 8.24
9/17/2021 12:15:00 AM 19.29 66.722 0.181 7.52 4.12 8.24
9/17/2021 12:30:00 AM 19.22 66.596 0.181 7.52 4.13 8.25
9/17/2021 12:45:00 AM 19.16 66.488 0.182 7.52 4.08 8.28
9/17/2021 1:00:00 AM 19.09 66.362 0.182 7.51 3.93 8.29
9/17/2021 1:15:00 AM 19.03 66.254 0.182 7.51 4.07 8.29
9/17/2021 1:30:00 AM 18.97 66.146 0.182 7.51 3.98 8.29
9/17/2021 1:45:00 AM 18.91 66.038 0.182 7.51 4.34 8.29
9/17/2021 2:00:00 AM 18.86 65.948 0.182 7.51 4.01 8.31
9/17/2021 2:15:00 AM 18.82 65.876 0.182 7.51 4.06 8.32
9/17/2021 2:30:00 AM 18.79 65.82201 0.182 7.51 3.96 8.33
9/17/2021 2:45:00 AM 18.77 65.786 0.182 7.51 4.18 8.34
9/17/2021 3:00:00 AM 18.76 65.768 0.182 7.51 4.08 8.35
9/17/2021 3:15:00 AM 18.75 65.75 0.182 7.51 4.04 8.35
9/17/2021 3:30:00 AM 18.73 65.714 0.183 7.51 3.99 8.35
9/17/2021 3:45:00 AM 18.71 65.67799 0.183 7.52 4.02 8.36
9/17/2021 4:00:00 AM 18.7 65.66 0.183 7.51 3.98 8.36
9/17/2021 4:15:00 AM 18.68 65.624 0.183 7.51 3.93 8.37
9/17/2021 4:30:00 AM 18.67 65.606 0.183 7.51 3.94 8.37
9/17/2021 4:45:00 AM 18.66 65.588 0.183 7.51 4.05 8.37
9/17/2021 5:00:00 AM 18.64 65.552 0.183 7.51 3.94 8.37
9/17/2021 5:15:00 AM 18.63 65.534 0.183 7.51 3.96 8.39
9/17/2021 5:30:00 AM 18.62 65.516 0.183 7.51 4.06 8.38
9/17/2021 5:45:00 AM 18.61 65.498 0.183 7.51 4.04 8.38
9/17/2021 6:00:00 AM 18.6 65.48 0.183 7.51 3.9 8.39
9/17/2021 6:15:00 AM 18.59 65.462 0.183 7.51 4.08 8.39
9/17/2021 6:30:00 AM 18.59 65.462 0.184 7.51 3.92 8.39
9/17/2021 6:45:00 AM 18.58 65.444 0.184 7.51 3.92 8.4
9/17/2021 7:00:00 AM 18.57 65.426 0.184 7.51 3.89 8.39
9/17/2021 7:15:00 AM 18.57 65.426 0.184 7.51 3.94 8.41
9/17/2021 7:30:00 AM 18.56 65.408 0.184 7.51 3.92 8.43
9/17/2021 7:45:00 AM 18.56 65.408 0.184 7.51 3.84 8.47
9/17/2021 8:00:00 AM 18.57 65.426 0.184 7.52 3.84 8.52
9/17/2021 8:15:00 AM 18.57 65.426 0.184 7.53 3.9 8.57
9/17/2021 8:30:00 AM 18.59 65.462 0.184 7.54 3.75 8.66
9/17/2021 8:45:00 AM 18.61 65.498 0.184 7.56 3.8 8.78
9/17/2021 9:00:00 AM 18.65 65.57 0.184 7.59 3.81 8.95
9/17/2021 9:15:00 AM 18.7 65.66 0.184 7.62 3.69 9.14
9/17/2021 9:30:00 AM 18.75 65.75 0.184 7.67 3.71 9.31
9/17/2021 9:45:00 AM 18.81 65.858 0.184 7.71 3.66 9.45
9/17/2021 10:00:00 AM 18.89 66.002 0.184 7.77 3.74 9.64
9/17/2021 10:15:00 AM 18.96 66.128 0.184 7.82 3.63 9.78
9/17/2021 10:30:00 AM 19.05 66.29 0.184 7.89 3.67 9.97
9/17/2021 10:45:00 AM 19.16 66.488 0.183 7.97 3.65 10.15
9/17/2021 11:00:00 AM 19.26 66.668 0.183 8.05 3.63 10.3
9/17/2021 11:15:00 AM 19.36 66.848 0.183 8.12 3.65 10.42
9/17/2021 11:30:00 AM 19.52 67.136 0.183 8.2 3.82 10.52
9/17/2021 11:45:00 AM 19.66 67.388 0.183 8.27 3.67 10.6
9/17/2021 12:00:00 PM 19.76 67.568 0.183 8.34 3.67 10.68
9/17/2021 12:15:00 PM 19.86 67.748 0.183 8.41 3.81 10.74
9/17/2021 12:30:00 PM 19.93 67.874 0.183 8.45 3.7 10.7
9/17/2021 12:45:00 PM 19.99 67.982 0.183 8.47 3.65 10.68
9/17/2021 1:00:00 PM 20.02 68.036 0.183 8.44 3.58 10.57
9/17/2021 1:15:00 PM 20.03 68.054 0.184 8.39 3.57 10.4
9/17/2021 1:30:00 PM 20.03 68.054 0.184 8.34 3.63 10.24
9/17/2021 1:45:00 PM 20.04 68.07201 0.184 8.27 3.54 10.09
9/17/2021 2:00:00 PM 20.06 68.108 0.184 8.19 3.6 9.94
9/17/2021 2:15:00 PM 20.08 68.144 0.184 8.14 3.63 9.88
9/17/2021 2:30:00 PM 20.14 68.252 0.184 8.18 3.57 10.01
9/17/2021 2:45:00 PM 20.21 68.378 0.184 8.27 3.31 10.19
9/17/2021 3:00:00 PM 20.27 68.486 0.184 8.34 3.34 10.32
9/17/2021 3:15:00 PM 20.32 68.576 0.184 8.4 3.36 10.45
9/17/2021 3:30:00 PM 20.37 68.666 0.184 8.45 3.32 10.53
9/17/2021 3:45:00 PM 20.43 68.774 0.184 8.49 3.3 10.56
9/17/2021 4:00:00 PM 20.48 68.864 0.184 8.52 3.29 10.55
9/17/2021 4:15:00 PM 20.52 68.936 0.184 8.54 3.34 10.53
9/17/2021 4:30:00 PM 20.55 68.99 0.184 8.54 3.38 10.45
9/17/2021 4:45:00 PM 20.57 69.026 0.184 8.5 3.39 10.31
9/17/2021 5:00:00 PM 20.58 69.044 0.184 8.45 3.32 10.17
9/17/2021 5:15:00 PM 20.58 69.044 0.184 8.37 3.44 9.98
9/17/2021 5:30:00 PM 20.58 69.044 0.185 8.29 3.46 9.8
9/17/2021 5:45:00 PM 20.55 68.99 0.185 8.17 3.36 9.57
9/17/2021 6:00:00 PM 20.5 68.9 0.185 8.06 3.28 9.35
9/17/2021 6:15:00 PM 20.47 68.846 0.186 7.97 3.38 9.21
9/17/2021 6:30:00 PM 20.43 68.774 0.186 7.9 3.27 9.05
9/17/2021 6:45:00 PM 20.4 68.72 0.186 7.84 3.36 8.91
9/17/2021 7:00:00 PM 20.37 68.666 0.186 7.79 3.31 8.79
9/17/2021 7:15:00 PM 20.34 68.612 0.186 7.74 3.33 8.66
9/17/2021 7:30:00 PM 20.29 68.522 0.186 7.7 3.4 8.53
9/17/2021 7:45:00 PM 20.24 68.432 0.187 7.66 3.48 8.41
9/17/2021 8:00:00 PM 20.19 68.342 0.187 7.63 3.41 8.31
9/17/2021 8:15:00 PM 20.15 68.27 0.187 7.6 3.45 8.23
9/17/2021 8:30:00 PM 20.09 68.162 0.187 7.58 3.5 8.17
9/17/2021 8:45:00 PM 20.03 68.054 0.187 7.57 3.37 8.15
9/17/2021 9:00:00 PM 19.98 67.964 0.187 7.56 3.39 8.13
9/17/2021 9:15:00 PM 19.93 67.874 0.187 7.55 3.37 8.11
9/17/2021 9:30:00 PM 19.88 67.784 0.187 7.54 3.54 8.1
9/17/2021 9:45:00 PM 19.83 67.694 0.187 7.53 3.56 8.08
9/17/2021 10:00:00 PM 19.77 67.586 0.187 7.53 3.42 8.08
9/17/2021 10:15:00 PM 19.73 67.514 0.188 7.52 3.52 8.08
9/17/2021 10:30:00 PM 19.68 67.424 0.188 7.52 3.52 8.07
9/17/2021 10:45:00 PM 19.63 67.334 0.188 7.52 3.37 8.08
9/17/2021 11:00:00 PM 19.59 67.262 0.188 7.51 3.44 8.08
9/17/2021 11:15:00 PM 19.54 67.172 0.188 7.51 3.52 8.09
9/17/2021 11:30:00 PM 19.5 67.1 0.188 7.5 3.56 8.09
9/17/2021 11:45:00 PM 19.46 67.028 0.188 7.51 3.59 8.09
9/18/2021 12:00:00 AM 19.42 66.956 0.188 7.5 3.45 8.09
9/18/2021 12:15:00 AM 19.37 66.866 0.188 7.5 3.58 8.09
9/18/2021 12:30:00 AM 19.34 66.812 0.188 7.5 3.42 8.1
9/18/2021 12:45:00 AM 19.3 66.74 0.188 7.5 3.61 8.1
9/18/2021 1:00:00 AM 19.27 66.686 0.189 7.5 3.55 8.11
9/18/2021 1:15:00 AM 19.23 66.614 0.189 7.5 3.78 8.11
9/18/2021 1:30:00 AM 19.2 66.56 0.189 7.5 3.47 8.13
9/18/2021 1:45:00 AM 19.18 66.524 0.189 7.5 3.57 8.13
9/18/2021 2:00:00 AM 19.16 66.488 0.189 7.5 3.5 8.14
9/18/2021 2:15:00 AM 19.14 66.452 0.189 7.5 3.49 8.14
9/18/2021 2:30:00 AM 19.12 66.416 0.189 7.5 3.44 8.15
9/18/2021 2:45:00 AM 19.11 66.398 0.189 7.5 3.65 8.15
9/18/2021 3:00:00 AM 19.09 66.362 0.189 7.5 3.69 8.15
9/18/2021 3:15:00 AM 19.06 66.308 0.189 7.51 3.64 8.16
9/18/2021 3:30:00 AM 19.04 66.272 0.189 7.5 3.67 8.16
9/18/2021 3:45:00 AM 19.03 66.254 0.189 7.5 3.63 8.17
9/18/2021 4:00:00 AM 19.01 66.218 0.189 7.5 3.67 8.16
9/18/2021 4:15:00 AM 18.99 66.182 0.189 7.49 3.79 8.14
9/18/2021 4:30:00 AM 18.98 66.164 0.189 7.5 3.58 8.14
9/18/2021 4:45:00 AM 18.96 66.128 0.189 7.5 3.7 8.15
9/18/2021 5:00:00 AM 18.95 66.11 0.189 7.5 3.59 8.16
9/18/2021 5:15:00 AM 18.93 66.074 0.189 7.5 3.75 8.17
9/18/2021 5:30:00 AM 18.91 66.038 0.189 7.5 3.58 8.18
9/18/2021 5:45:00 AM 18.88 65.984 0.19 7.5 3.6 8.19
9/18/2021 6:00:00 AM 18.86 65.948 0.19 7.5 3.79 8.2
9/18/2021 6:15:00 AM 18.84 65.912 0.19 7.5 3.72 8.2
9/18/2021 6:30:00 AM 18.81 65.858 0.189 7.5 3.69 8.22
9/18/2021 6:45:00 AM 18.79 65.82201 0.189 7.5 3.73 8.22
9/18/2021 7:00:00 AM 18.76 65.768 0.19 7.5 3.6 8.24
9/18/2021 7:15:00 AM 18.74 65.732 0.19 7.5 3.67 8.25
9/18/2021 7:30:00 AM 18.74 65.732 0.19 7.51 4.64 8.3
9/18/2021 7:45:00 AM 18.74 65.732 0.19 7.53 3.78 8.41
9/18/2021 8:00:00 AM 18.75 65.75 0.19 7.55 3.67 8.58
9/18/2021 8:15:00 AM 18.76 65.768 0.189 7.58 3.66 8.74
9/18/2021 8:30:00 AM 18.79 65.82201 0.189 7.62 3.79 8.93
9/18/2021 8:45:00 AM 18.82 65.876 0.189 7.65 3.8 9.04
9/18/2021 9:00:00 AM 18.89 66.002 0.189 7.7 3.7 9.24
9/18/2021 9:15:00 AM 18.95 66.11 0.189 7.76 4.19 9.48
9/18/2021 9:30:00 AM 19.07 66.326 0.189 7.82 3.73 9.69
9/18/2021 9:45:00 AM 19.15 66.47 0.189 7.88 3.79 9.84
9/18/2021 10:00:00 AM 19.28 66.704 0.189 7.92 3.68 9.91
9/18/2021 10:15:00 AM 19.4 66.92 0.189 7.97 3.64 10
9/18/2021 10:30:00 AM 19.55 67.19 0.189 8.01 3.61 10.08
9/18/2021 10:45:00 AM 19.69 67.442 0.189 8.07 3.58 10.17
9/18/2021 11:00:00 AM 19.86 67.748 0.189 8.13 3.64 10.28
9/18/2021 11:15:00 AM 20.04 68.07201 0.189 8.2 3.63 10.4
9/18/2021 11:30:00 AM 20.27 68.486 0.189 8.3 3.74 10.52
9/18/2021 11:45:00 AM 20.52 68.936 0.189 8.38 3.67 10.62
9/18/2021 12:00:00 PM 20.78 69.404 0.189 8.48 3.63 10.71
9/18/2021 12:15:00 PM 21.04 69.872 0.189 8.54 3.77 10.75
9/18/2021 12:30:00 PM 21.29 70.32201 0.189 8.61 3.69 10.78
9/18/2021 12:45:00 PM 21.52 70.736 0.189 8.65 3.59 10.81
9/18/2021 1:00:00 PM 21.75 71.15 0.188 8.7 3.66 10.82
9/18/2021 1:15:00 PM 21.78 71.204 0.188 8.71 3.88 10.75
9/18/2021 1:30:00 PM 21.72 71.096 0.188 8.7 3.73 10.62
9/18/2021 1:45:00 PM 21.62 70.916 0.188 8.62 3.76 10.33
9/18/2021 2:00:00 PM 21.48 70.664 0.188 8.51 4.09 10.1
9/18/2021 2:15:00 PM 21.37 70.466 0.188 8.4 3.87 9.94
9/18/2021 2:30:00 PM 21.38 70.484 0.188 8.39 3.88 10.02
9/18/2021 2:45:00 PM 21.41 70.538 0.189 8.4 3.9 10.04
9/18/2021 3:00:00 PM 21.36 70.448 0.189 8.41 3.93 10.09
9/18/2021 3:15:00 PM 21.39 70.502 0.188 8.44 3.83 10.16
9/18/2021 3:30:00 PM 21.39 70.502 0.188 8.45 3.95 10.15
9/18/2021 3:45:00 PM 21.36 70.448 0.187 8.45 3.91 10.08
9/18/2021 4:00:00 PM 21.39 70.502 0.186 8.42 3.96 10
9/18/2021 4:15:00 PM 21.36 70.448 0.186 8.35 3.95 9.83
9/18/2021 4:30:00 PM 21.36 70.448 0.186 8.31 4.03 9.75
9/18/2021 4:45:00 PM 21.35 70.43 0.185 8.28 4.03 9.65
9/18/2021 5:00:00 PM 21.35 70.43 0.185 8.22 3.96 9.56
9/18/2021 5:15:00 PM 21.34 70.412 0.185 8.19 4.05 9.49
9/18/2021 5:30:00 PM 21.31 70.358 0.185 8.13 3.97 9.35
9/18/2021 5:45:00 PM 21.24 70.232 0.185 8.04 3.96 9.16
9/18/2021 6:00:00 PM 21.17 70.106 0.186 7.96 4.07 8.99
9/18/2021 6:15:00 PM 21.1 69.98 0.186 7.89 4.01 8.84
9/18/2021 6:30:00 PM 21.03 69.854 0.186 7.84 4 8.71
9/18/2021 6:45:00 PM 20.96 69.728 0.186 7.8 4.02 8.6
9/18/2021 7:00:00 PM 20.89 69.602 0.186 7.75 4.06 8.51
9/18/2021 7:15:00 PM 20.82 69.476 0.187 7.72 4.12 8.41
9/18/2021 7:30:00 PM 20.75 69.35 0.187 7.69 4.08 8.33
9/18/2021 7:45:00 PM 20.68 69.224 0.187 7.67 4.09 8.25
9/18/2021 8:00:00 PM 20.63 69.134 0.188 7.64 4.26 8.19
9/18/2021 8:15:00 PM 20.57 69.026 0.188 7.63 4.07 8.15
9/18/2021 8:30:00 PM 20.52 68.936 0.188 7.61 3.98 8.12
9/18/2021 8:45:00 PM 20.45 68.81 0.188 7.59 4.03 8.11
9/18/2021 9:00:00 PM 20.39 68.702 0.189 7.59 4.03 8.11
9/18/2021 9:15:00 PM 20.32 68.576 0.189 7.59 4.09 8.1
9/18/2021 9:30:00 PM 20.25 68.45 0.189 7.58 3.96 8.09
9/18/2021 9:45:00 PM 20.17 68.306 0.189 7.58 4.04 8.09
9/18/2021 10:00:00 PM 20.08 68.144 0.19 7.57 4.07 8.11
9/18/2021 10:15:00 PM 20 68 0.19 7.57 4.11 8.12
9/18/2021 10:30:00 PM 19.91 67.838 0.19 7.56 4.14 8.12
9/18/2021 10:45:00 PM 19.82 67.676 0.19 7.56 4.17 8.13
9/18/2021 11:00:00 PM 19.74 67.532 0.191 7.56 4.16 8.15
9/18/2021 11:15:00 PM 19.65 67.37 0.191 7.55 4.07 8.16
9/18/2021 11:30:00 PM 19.56 67.208 0.191 7.55 4.16 8.16
9/18/2021 11:45:00 PM 19.46 67.028 0.191 7.55 4.23 8.18
9/19/2021 12:00:00 AM 19.37 66.866 0.191 7.55 4.16 8.2
9/19/2021 12:15:00 AM 19.3 66.74 0.191 7.55 4.25 8.22
9/19/2021 12:30:00 AM 19.22 66.596 0.191 7.55 4.13 8.22
9/19/2021 12:45:00 AM 19.14 66.452 0.191 7.55 4.54 8.22
9/19/2021 1:00:00 AM 19.06 66.308 0.191 7.55 4.34 8.24
9/19/2021 1:15:00 AM 18.99 66.182 0.191 7.54 4.17 8.26
9/19/2021 1:30:00 AM 18.92 66.056 0.191 7.54 4.37 8.27
9/19/2021 1:45:00 AM 18.86 65.948 0.19 7.54 4.25 8.28
9/19/2021 2:00:00 AM 18.82 65.876 0.19 7.54 4.4 8.28
9/19/2021 2:15:00 AM 18.77 65.786 0.19 7.54 4.31 8.29
9/19/2021 2:30:00 AM 18.75 65.75 0.19 7.54 4.28 8.3
9/19/2021 2:45:00 AM 18.72 65.696 0.189 7.54 4.38 8.3
9/19/2021 3:00:00 AM 18.7 65.66 0.189 7.54 4.29 8.3
9/19/2021 3:15:00 AM 18.67 65.606 0.189 7.54 4.49 8.32
9/19/2021 3:30:00 AM 18.64 65.552 0.188 7.54 4.25 8.33
9/19/2021 3:45:00 AM 18.62 65.516 0.188 7.53 4.12 8.33
9/19/2021 4:00:00 AM 18.6 65.48 0.188 7.54 4.09 8.35
9/19/2021 4:15:00 AM 18.58 65.444 0.187 7.53 4.07 8.35
9/19/2021 4:30:00 AM 18.55 65.39 0.187 7.54 4.25 8.35
9/19/2021 4:45:00 AM 18.54 65.372 0.187 7.54 4.21 8.36
9/19/2021 5:00:00 AM 18.52 65.336 0.187 7.53 4.08 8.35
9/19/2021 5:15:00 AM 18.49 65.282 0.186 7.53 4.14 8.36
9/19/2021 5:30:00 AM 18.47 65.246 0.186 7.54 4.08 8.36
9/19/2021 5:45:00 AM 18.45 65.21 0.186 7.54 4.14 8.37
9/19/2021 6:00:00 AM 18.43 65.174 0.185 7.54 4.11 8.37
9/19/2021 6:15:00 AM 18.42 65.156 0.185 7.54 4.22 8.37
9/19/2021 6:30:00 AM 18.4 65.12 0.185 7.53 4.24 8.37
9/19/2021 6:45:00 AM 18.38 65.084 0.185 7.54 4.15 8.38
9/19/2021 7:00:00 AM 18.35 65.03 0.185 7.54 4.06 8.38
9/19/2021 7:15:00 AM 18.33 64.994 0.184 7.54 4.14 8.4
9/19/2021 7:30:00 AM 18.3 64.94 0.184 7.54 4.03 8.44
9/19/2021 7:45:00 AM 18.28 64.904 0.184 7.55 4.04 8.5
9/19/2021 8:00:00 AM 18.27 64.886 0.184 7.57 4.17 8.62
9/19/2021 8:15:00 AM 18.27 64.886 0.183 7.59 4.06 8.76
9/19/2021 8:30:00 AM 18.26 64.868 0.183 7.62 4.05 8.9
9/19/2021 8:45:00 AM 18.27 64.886 0.183 7.65 4.04 9.09
9/19/2021 9:00:00 AM 18.28 64.904 0.182 7.7 4.03 9.26
9/19/2021 9:15:00 AM 18.4 65.12 0.182 7.76 4.04 9.52
9/19/2021 9:30:00 AM 18.5 65.3 0.182 7.81 4.04 9.72
9/19/2021 9:45:00 AM 18.55 65.39 0.182 7.87 4.02 9.87
9/19/2021 10:00:00 AM 18.62 65.516 0.181 7.94 4.09 10.05
9/19/2021 10:15:00 AM 18.73 65.714 0.181 7.99 3.96 10.12
9/19/2021 10:30:00 AM 18.79 65.82201 0.181 8.01 3.95 10.13
9/19/2021 10:45:00 AM 18.91 66.038 0.181 8.05 3.99 10.21
9/19/2021 11:00:00 AM 19 66.2 0.181 8.1 4.14 10.26
9/19/2021 11:15:00 AM 19.12 66.416 0.181 8.16 4 10.33
9/19/2021 11:30:00 AM 19.25 66.65 0.18 8.23 4.04 10.47
9/19/2021 11:45:00 AM 19.4 66.92 0.18 8.29 3.97 10.5
9/19/2021 12:00:00 PM 19.61 67.298 0.18 8.38 3.94 10.61
9/19/2021 12:15:00 PM 19.82 67.676 0.18 8.42 3.94 10.64
9/19/2021 12:30:00 PM 20.07 68.126 0.18 8.48 3.91 10.69
9/19/2021 12:45:00 PM 20.31 68.558 0.18 8.54 3.94 10.71
9/19/2021 1:00:00 PM 20.53 68.954 0.18 8.57 3.59 10.68
9/19/2021 1:15:00 PM 20.7 69.26 0.18 8.58 3.45 10.63
9/19/2021 1:30:00 PM 20.83 69.494 0.18 8.58 3.55 10.55
9/19/2021 1:45:00 PM 20.92 69.656 0.18 8.58 3.37 10.51
9/19/2021 2:00:00 PM 20.96 69.728 0.18 8.56 3.44 10.42
9/19/2021 2:15:00 PM 20.98 69.764 0.18 8.53 3.42 10.32
9/19/2021 2:30:00 PM 20.99 69.782 0.18 8.51 3.36 10.24
9/19/2021 2:45:00 PM 20.95 69.71 0.18 8.46 3.38 10.11
9/19/2021 3:00:00 PM 20.91 69.638 0.18 8.42 3.36 9.99
9/19/2021 3:15:00 PM 20.84 69.512 0.18 8.37 3.38 9.88
9/19/2021 3:30:00 PM 20.79 69.422 0.18 8.31 3.54 9.77
9/19/2021 3:45:00 PM 20.74 69.332 0.181 8.26 3.43 9.66
9/19/2021 4:00:00 PM 20.7 69.26 0.181 8.2 3.39 9.56
9/19/2021 4:15:00 PM 20.66 69.188 0.181 8.14 3.48 9.48
9/19/2021 4:30:00 PM 20.61 69.098 0.181 8.08 3.38 9.38
9/19/2021 4:45:00 PM 20.55 68.99 0.181 8.04 3.46 9.28
9/19/2021 5:00:00 PM 20.49 68.882 0.181 7.97 3.37 9.15
9/19/2021 5:15:00 PM 20.42 68.756 0.181 7.93 3.41 9.06
9/19/2021 5:30:00 PM 20.33 68.594 0.181 7.89 3.47 8.99
9/19/2021 5:45:00 PM 20.24 68.432 0.181 7.84 3.42 8.88
9/19/2021 6:00:00 PM 20.15 68.27 0.181 7.81 3.44 8.79
9/19/2021 6:15:00 PM 20.05 68.09 0.182 7.78 3.42 8.72
9/19/2021 6:30:00 PM 19.94 67.892 0.182 7.75 3.8 8.66
9/19/2021 6:45:00 PM 19.83 67.694 0.182 7.74 3.57 8.62
9/19/2021 7:00:00 PM 19.72 67.496 0.182 7.71 3.5 8.56
9/19/2021 7:15:00 PM 19.63 67.334 0.182 7.69 3.52 8.5
9/19/2021 7:30:00 PM 19.54 67.172 0.182 7.67 3.34 8.44
9/19/2021 7:45:00 PM 19.45 67.01 0.182 7.64 3.36 8.39
9/19/2021 8:00:00 PM 19.35 66.83 0.182 7.62 3.61 8.33
9/19/2021 8:15:00 PM 19.25 66.65 0.182 7.61 3.37 8.3
9/19/2021 8:30:00 PM 19.15 66.47 0.182 7.6 3.35 8.29
9/19/2021 8:45:00 PM 19.06 66.308 0.182 7.59 3.38 8.26
9/19/2021 9:00:00 PM 18.97 66.146 0.182 7.58 3.39 8.24
9/19/2021 9:15:00 PM 18.89 66.002 0.182 7.57 3.39 8.24
9/19/2021 9:30:00 PM 18.81 65.858 0.182 7.56 3.38 8.27
9/19/2021 9:45:00 PM 18.73 65.714 0.183 7.56 3.41 8.26
9/19/2021 10:00:00 PM 18.66 65.588 0.183 7.56 3.39 8.27
9/19/2021 10:15:00 PM 18.58 65.444 0.183 7.55 3.4 8.27
9/19/2021 10:30:00 PM 18.51 65.318 0.183 7.55 3.48 8.29
9/19/2021 10:45:00 PM 18.44 65.192 0.183 7.55 3.36 8.31
9/19/2021 11:00:00 PM 18.36 65.048 0.183 7.55 3.36 8.31
9/19/2021 11:15:00 PM 18.28 64.904 0.183 7.54 3.4 8.31
9/19/2021 11:30:00 PM 18.2 64.76 0.183 7.54 3.48 8.32
9/19/2021 11:45:00 PM 18.13 64.634 0.183 7.54 3.39 8.34
9/20/2021 12:00:00 AM 18.05 64.49 0.183 7.54 3.41 8.37
9/20/2021 12:15:00 AM 17.97 64.346 0.184 7.54 3.47 8.38
9/20/2021 12:30:00 AM 17.88 64.184 0.184 7.54 3.43 8.38
9/20/2021 12:45:00 AM 17.8 64.04 0.184 7.54 3.58 8.41
9/20/2021 1:00:00 AM 17.72 63.896 0.184 7.53 3.44 8.43
9/20/2021 1:15:00 AM 17.63 63.734 0.184 7.54 3.38 8.45
9/20/2021 1:30:00 AM 17.55 63.59 0.184 7.54 3.39 8.45
9/20/2021 1:45:00 AM 17.47 63.446 0.184 7.54 3.43 8.46
9/20/2021 2:00:00 AM 17.4 63.32 0.185 7.54 3.61 8.48
9/20/2021 2:15:00 AM 17.32 63.176 0.185 7.54 3.44 8.52
9/20/2021 2:30:00 AM 17.24 63.032 0.185 7.53 3.49 8.53
9/20/2021 2:45:00 AM 17.17 62.906 0.185 7.54 3.46 8.54
9/20/2021 3:00:00 AM 17.09 62.762 0.185 7.54 3.47 8.55
9/20/2021 3:15:00 AM 17 62.6 0.185 7.54 3.51 8.56
9/20/2021 3:30:00 AM 16.91 62.438 0.185 7.54 3.5 8.6
9/20/2021 3:45:00 AM 16.84 62.312 0.185 7.54 3.55 8.62
9/20/2021 4:00:00 AM 16.78 62.204 0.186 7.54 3.53 8.63
9/20/2021 4:15:00 AM 16.72 62.096 0.186 7.53 5.18 8.64
9/20/2021 4:30:00 AM 16.67 62.006 0.186 7.54 3.45 8.65
9/20/2021 4:45:00 AM 16.63 61.934 0.186 7.54 3.59 8.67
9/20/2021 5:00:00 AM 16.59 61.862 0.186 7.54 3.47 8.69
9/20/2021 5:15:00 AM 16.56 61.808 0.186 7.54 3.48 8.71
9/20/2021 5:30:00 AM 16.52 61.736 0.186 7.54 3.47 8.73
9/20/2021 5:45:00 AM 16.49 61.682 0.186 7.53 4.9 8.74
9/20/2021 6:00:00 AM 16.46 61.628 0.187 7.54 3.52 8.74
9/20/2021 6:15:00 AM 16.43 61.574 0.187 7.54 4.82 8.75
9/20/2021 6:30:00 AM 16.4 61.52 0.187 7.55 3.5 8.75
9/20/2021 6:45:00 AM 16.37 61.466 0.187 7.55 3.51 8.75
9/20/2021 7:00:00 AM 16.33 61.394 0.187 7.55 3.51 8.76
9/20/2021 7:15:00 AM 16.31 61.358 0.187 7.55 4.94 8.79
9/20/2021 7:30:00 AM 16.28 61.304 0.187 7.56 3.61 8.84
9/20/2021 7:45:00 AM 16.26 61.268 0.187 7.57 3.49 8.93
9/20/2021 8:00:00 AM 16.24 61.232 0.187 7.59 3.4 9.02
9/20/2021 8:15:00 AM 16.24 61.232 0.187 7.61 3.7 9.17
9/20/2021 8:30:00 AM 16.25 61.25 0.187 7.64 3.43 9.35
9/20/2021 8:45:00 AM 16.27 61.286 0.187 7.68 3.37 9.57
9/20/2021 9:00:00 AM 16.3 61.34 0.187 7.73 3.38 9.8
9/20/2021 9:15:00 AM 16.35 61.43 0.187 7.79 3.45 10.02
9/20/2021 9:30:00 AM 16.41 61.538 0.187 7.87 3.33 10.28
9/20/2021 9:45:00 AM 16.54 61.772 0.187 7.93 3.38 10.48
9/20/2021 10:00:00 AM 16.65 61.97 0.186 7.99 3.36 10.59
9/20/2021 10:15:00 AM 16.78 62.204 0.186 8.04 3.36 10.67
9/20/2021 10:30:00 AM 16.95 62.51 0.186 8.08 3.4 10.74
9/20/2021 10:45:00 AM 17.13 62.834 0.186 8.13 3.26 10.74
9/20/2021 11:00:00 AM 17.28 63.104 0.186 8.18 3.33 10.84
9/20/2021 11:15:00 AM 17.47 63.446 0.186 8.22 3.59 10.86
9/20/2021 11:30:00 AM 17.7 63.86 0.186 8.29 3.01 10.94
9/20/2021 11:45:00 AM 17.97 64.346 0.186 8.36 3.12 11
9/20/2021 12:00:00 PM 18.25 64.85 0.186 8.43 3.23 11.03
9/20/2021 12:15:00 PM 18.55 65.39 0.186 8.49 3.31 11.09
9/20/2021 12:30:00 PM 18.87 65.966 0.186 8.56 3.08 11.13
9/20/2021 12:45:00 PM 19.18 66.524 0.186 8.61 2.95 11.12
9/20/2021 1:00:00 PM 19.49 67.082 0.186 8.66 3.13 11.12
9/20/2021 1:15:00 PM 19.73 67.514 0.186 8.68 3.04 11.04
9/20/2021 1:30:00 PM 19.95 67.91 0.186 8.7 2.89 11.02
9/20/2021 1:45:00 PM 20.09 68.162 0.187 8.69 2.97 10.9
9/20/2021 2:00:00 PM 20.2 68.36 0.187 8.7 3.13 10.84
9/20/2021 2:15:00 PM 20.26 68.468 0.187 8.7 2.73 10.79
9/20/2021 2:30:00 PM 20.28 68.504 0.187 8.68 2.74 10.7
9/20/2021 2:45:00 PM 20.27 68.486 0.187 8.66 3.24 10.62
9/20/2021 3:00:00 PM 20.21 68.378 0.187 8.64 2.67 10.53
9/20/2021 3:15:00 PM 20.17 68.306 0.187 8.61 2.63 10.43
9/20/2021 3:30:00 PM 20.14 68.252 0.188 8.59 2.67 10.35
9/20/2021 3:45:00 PM 20.11 68.198 0.188 8.55 2.72 10.25
9/20/2021 4:00:00 PM 20.1 68.18 0.188 8.52 2.61 10.19
9/20/2021 4:15:00 PM 20.08 68.144 0.188 8.47 2.56 10.08
9/20/2021 4:30:00 PM 20.06 68.108 0.188 8.45 2.63 10.07
9/20/2021 4:45:00 PM 20.04 68.07201 0.188 8.42 2.63 10.02
9/20/2021 5:00:00 PM 20.01 68.018 0.189 8.36 2.62 9.92
9/20/2021 5:15:00 PM 19.96 67.92799 0.189 8.31 2.6 9.78
9/20/2021 5:30:00 PM 19.91 67.838 0.189 8.25 2.68 9.72
9/20/2021 5:45:00 PM 19.86 67.748 0.189 8.2 4.07 9.65
9/20/2021 6:00:00 PM 19.82 67.676 0.189 8.14 2.75 9.58
9/20/2021 6:15:00 PM 19.76 67.568 0.189 8.1 2.71 9.51
9/20/2021 6:30:00 PM 19.69 67.442 0.189 8.05 2.75 9.41
9/20/2021 6:45:00 PM 19.62 67.316 0.19 7.99 2.73 9.3
9/20/2021 7:00:00 PM 19.53 67.154 0.19 7.94 2.74 9.16
9/20/2021 7:15:00 PM 19.44 66.992 0.19 7.87 2.51 9
9/20/2021 7:30:00 PM 19.35 66.83 0.19 7.8 2.57 8.82
9/20/2021 7:45:00 PM 19.26 66.668 0.19 7.75 2.64 8.67
9/20/2021 8:00:00 PM 19.16 66.488 0.19 7.71 2.58 8.55
9/20/2021 8:15:00 PM 19.08 66.344 0.191 7.67 2.71 8.46
9/20/2021 8:30:00 PM 18.99 66.182 0.191 7.65 2.7 8.38
9/20/2021 8:45:00 PM 18.91 66.038 0.191 7.62 2.75 8.32
9/20/2021 9:00:00 PM 18.82 65.876 0.191 7.61 2.72 8.29
9/20/2021 9:15:00 PM 18.74 65.732 0.191 7.6 2.85 8.29
9/20/2021 9:30:00 PM 18.67 65.606 0.191 7.59 2.69 8.29
9/20/2021 9:45:00 PM 18.59 65.462 0.191 7.58 2.62 8.25
9/20/2021 10:00:00 PM 18.52 65.336 0.191 7.56 2.66 8.24
9/20/2021 10:15:00 PM 18.45 65.21 0.191 7.56 2.65 8.24
9/20/2021 10:30:00 PM 18.37 65.066 0.191 7.55 2.57 8.27
9/20/2021 10:45:00 PM 18.31 64.958 0.191 7.55 2.6 8.28
9/20/2021 11:00:00 PM 18.25 64.85 0.191 7.55 2.62 8.27
9/20/2021 11:15:00 PM 18.19 64.742 0.191 7.55 2.67 8.28
9/20/2021 11:30:00 PM 18.14 64.652 0.191 7.54 2.68 8.27
9/20/2021 11:45:00 PM 18.09 64.562 0.191 7.54 2.6 8.27
9/21/2021 12:00:00 AM 18.05 64.49 0.191 7.53 2.59 8.3
9/21/2021 12:15:00 AM 18 64.4 0.191 7.53 2.63 8.31
9/21/2021 12:30:00 AM 17.96 64.328 0.191 7.53 2.55 8.32
9/21/2021 12:45:00 AM 17.92 64.256 0.192 7.53 2.67 8.32
9/21/2021 1:00:00 AM 17.88 64.184 0.192 7.53 2.82 8.34
9/21/2021 1:15:00 AM 17.83 64.094 0.191 7.53 2.72 8.33
9/21/2021 1:30:00 AM 17.8 64.04 0.192 7.53 2.67 8.33
9/21/2021 1:45:00 AM 17.77 63.986 0.192 7.53 2.7 8.32
9/21/2021 2:00:00 AM 17.75 63.95 0.192 7.53 2.66 8.35
9/21/2021 2:15:00 AM 17.73 63.914 0.192 7.53 2.62 8.35
9/21/2021 2:30:00 AM 17.71 63.878 0.192 7.53 2.57 8.36
9/21/2021 2:45:00 AM 17.7 63.86 0.192 7.54 2.62 8.38
9/21/2021 3:00:00 AM 17.69 63.842 0.192 7.53 2.79 8.37
9/21/2021 3:15:00 AM 17.67 63.806 0.192 7.54 3.63 8.38
9/21/2021 3:30:00 AM 17.66 63.788 0.192 7.54 2.7 8.38
9/21/2021 3:45:00 AM 17.65 63.77 0.192 7.54 2.73 8.39
9/21/2021 4:00:00 AM 17.63 63.734 0.192 7.54 2.67 8.39
9/21/2021 4:15:00 AM 17.6 63.68 0.192 7.54 2.69 8.4
9/21/2021 4:30:00 AM 17.57 63.626 0.192 7.54 2.7 8.41
9/21/2021 4:45:00 AM 17.54 63.572 0.192 7.54 2.74 8.42
9/21/2021 5:00:00 AM 17.51 63.518 0.192 7.54 2.72 8.41
9/21/2021 5:15:00 AM 17.48 63.464 0.192 7.54 2.74 8.42
9/21/2021 5:30:00 AM 17.46 63.428 0.193 7.54 2.76 8.42
9/21/2021 5:45:00 AM 17.42 63.356 0.193 7.54 5.58 8.41
9/21/2021 6:00:00 AM 17.39 63.302 0.193 7.54 2.64 8.42
9/21/2021 6:15:00 AM 17.36 63.248 0.193 7.54 2.53 8.42
9/21/2021 6:30:00 AM 17.33 63.194 0.193 7.54 2.54 8.44
9/21/2021 6:45:00 AM 17.29 63.122 0.194 7.54 2.5 8.46
9/21/2021 7:00:00 AM 17.27 63.086 0.193 7.54 2.52 8.49
9/21/2021 7:15:00 AM 17.24 63.032 0.193 7.55 2.53 8.54
9/21/2021 7:30:00 AM 17.23 63.014 0.193 7.56 2.6 8.58
9/21/2021 7:45:00 AM 17.24 63.032 0.193 7.56 4.1 8.67
9/21/2021 8:00:00 AM 17.24 63.032 0.193 7.58 2.56 8.75
9/21/2021 8:15:00 AM 17.26 63.068 0.193 7.6 2.57 8.9
9/21/2021 8:30:00 AM 17.29 63.122 0.193 7.65 2.67 9.14
9/21/2021 8:45:00 AM 17.32 63.176 0.193 7.69 2.57 9.3
9/21/2021 9:00:00 AM 17.33 63.194 0.193 7.73 2.58 9.51
9/21/2021 9:15:00 AM 17.34 63.212 0.193 7.76 2.6 9.61
9/21/2021 9:30:00 AM 17.37 63.266 0.193 7.78 2.51 9.69
9/21/2021 9:45:00 AM 17.53 63.554 0.193 7.85 2.47 9.96
9/21/2021 10:00:00 AM 17.63 63.734 0.193 7.89 2.5 10.05
9/21/2021 10:15:00 AM 17.71 63.878 0.193 7.96 2.55 10.19
9/21/2021 10:30:00 AM 17.87 64.166 0.192 8.02 2.56 10.4
9/21/2021 10:45:00 AM 17.94 64.292 0.192 8.12 2.58 10.63
9/21/2021 11:00:00 AM 18.09 64.562 0.192 8.24 2.51 10.79
9/21/2021 11:15:00 AM 18.2 64.76 0.192 8.38 2.51 10.97
9/21/2021 11:30:00 AM 18.35 65.03 0.192 8.43 2.58 11.01
9/21/2021 11:45:00 AM 18.51 65.318 0.192 8.5 2.69 10.98
9/21/2021 12:00:00 PM 18.71 65.67799 0.191 8.58 2.57 11.16
9/21/2021 12:15:00 PM 18.98 66.164 0.192 8.64 2.56 11.2
9/21/2021 12:30:00 PM 19.28 66.704 0.191 8.71 2.75 11.27
9/21/2021 12:45:00 PM 19.55 67.19 0.191 8.74 2.75 11.23
9/21/2021 1:00:00 PM 19.74 67.532 0.191 8.79 2.69 11.27
9/21/2021 1:15:00 PM 19.86 67.748 0.191 8.84 2.69 11.26
9/21/2021 1:30:00 PM 19.91 67.838 0.191 8.88 2.56 11.27
9/21/2021 1:45:00 PM 19.96 67.92799 0.191 8.91 2.49 11.29
9/21/2021 2:00:00 PM 20 68 0.191 8.92 2.7 11.26
9/21/2021 2:15:00 PM 20.03 68.054 0.191 8.93 2.5 11.22
9/21/2021 2:30:00 PM 20.06 68.108 0.191 8.94 2.48 11.19
9/21/2021 2:45:00 PM 20.09 68.162 0.191 8.93 2.36 11.15
9/21/2021 3:00:00 PM 20.17 68.306 0.192 8.93 2.52 11.1
9/21/2021 3:15:00 PM 20.18 68.324 0.192 8.93 2.52 11.07
9/21/2021 3:30:00 PM 20.18 68.324 0.192 8.93 2.47 11.06
9/21/2021 3:45:00 PM 20.19 68.342 0.192 8.95 2.46 11.11
9/21/2021 4:00:00 PM 20.15 68.27 0.192 8.96 2.47 11.04
9/21/2021 4:15:00 PM 20.1 68.18 0.192 8.93 2.49 10.9
9/21/2021 4:30:00 PM 20.03 68.054 0.192 8.91 2.44 10.81
9/21/2021 4:45:00 PM 19.99 67.982 0.192 8.88 2.66 10.63
9/21/2021 5:00:00 PM 19.93 67.874 0.192 8.83 2.55 10.44
9/21/2021 5:15:00 PM 19.91 67.838 0.193 8.79 2.52 10.3
9/21/2021 5:30:00 PM 19.9 67.82 0.193 8.72 2.5 10.15
9/21/2021 5:45:00 PM 19.85 67.73 0.193 8.61 2.41 9.9
9/21/2021 6:00:00 PM 19.81 67.658 0.194 8.5 2.5 9.68
9/21/2021 6:15:00 PM 19.77 67.586 0.194 8.4 2.47 9.57
9/21/2021 6:30:00 PM 19.71 67.478 0.194 8.3 2.56 9.45
9/21/2021 6:45:00 PM 19.66 67.388 0.195 8.21 2.53 9.34
9/21/2021 7:00:00 PM 19.6 67.28 0.195 8.1 2.49 9.17
9/21/2021 7:15:00 PM 19.53 67.154 0.195 7.98 2.48 8.97
9/21/2021 7:30:00 PM 19.47 67.046 0.195 7.91 2.48 8.82
9/21/2021 7:45:00 PM 19.4 66.92 0.196 7.84 2.55 8.68
9/21/2021 8:00:00 PM 19.34 66.812 0.196 7.78 2.6 8.54
9/21/2021 8:15:00 PM 19.28 66.704 0.196 7.73 2.65 8.4
9/21/2021 8:30:00 PM 19.23 66.614 0.196 7.69 2.62 8.31
9/21/2021 8:45:00 PM 19.17 66.506 0.196 7.66 2.6 8.24
9/21/2021 9:00:00 PM 19.11 66.398 0.196 7.64 2.63 8.18
9/21/2021 9:15:00 PM 19.05 66.29 0.196 7.62 2.64 8.15
9/21/2021 9:30:00 PM 18.99 66.182 0.197 7.6 2.65 8.12
9/21/2021 9:45:00 PM 18.94 66.092 0.196 7.59 2.61 8.11
9/21/2021 10:00:00 PM 18.9 66.02 0.197 7.58 2.69 8.1
9/21/2021 10:15:00 PM 18.85 65.93 0.197 7.58 2.6 8.1
9/21/2021 10:30:00 PM 18.81 65.858 0.196 7.57 2.54 8.09
9/21/2021 10:45:00 PM 18.78 65.804 0.196 7.56 2.69 8.09
9/21/2021 11:00:00 PM 18.76 65.768 0.196 7.56 2.64 8.08
9/21/2021 11:15:00 PM 18.74 65.732 0.196 7.55 2.59 8.08
9/21/2021 11:30:00 PM 18.72 65.696 0.196 7.55 2.73 8.07
9/21/2021 11:45:00 PM 18.7 65.66 0.196 7.54 2.72 8.05
9/22/2021 12:00:00 AM 18.69 65.642 0.196 7.54 2.65 8.07
9/22/2021 12:15:00 AM 18.68 65.624 0.196 7.54 2.71 8.07
9/22/2021 12:30:00 AM 18.67 65.606 0.196 7.54 2.67 8.06
9/22/2021 12:45:00 AM 18.66 65.588 0.196 7.54 2.57 8.06
9/22/2021 1:00:00 AM 18.65 65.57 0.196 7.53 2.64 8.06
9/22/2021 1:15:00 AM 18.64 65.552 0.196 7.53 2.57 8.05
9/22/2021 1:30:00 AM 18.63 65.534 0.196 7.53 2.61 8.04
9/22/2021 1:45:00 AM 18.62 65.516 0.196 7.53 2.63 8.04
9/22/2021 2:00:00 AM 18.61 65.498 0.196 7.53 2.64 8.05
9/22/2021 2:15:00 AM 18.61 65.498 0.196 7.52 2.98 8.04
9/22/2021 2:30:00 AM 18.6 65.48 0.196 7.52 2.64 8.04
9/22/2021 2:45:00 AM 18.58 65.444 0.196 7.52 2.58 8.03
9/22/2021 3:00:00 AM 18.57 65.426 0.196 7.52 2.66 8.03
9/22/2021 3:15:00 AM 18.56 65.408 0.197 7.52 2.68 8.03
9/22/2021 3:30:00 AM 18.55 65.39 0.197 7.52 2.78 8.04
9/22/2021 3:45:00 AM 18.54 65.372 0.197 7.52 2.68 8.04
9/22/2021 4:00:00 AM 18.53 65.354 0.197 7.52 2.66 8.03
9/22/2021 4:15:00 AM 18.52 65.336 0.197 7.52 2.59 8.03
9/22/2021 4:30:00 AM 18.51 65.318 0.197 7.52 2.65 8.03
9/22/2021 4:45:00 AM 18.5 65.3 0.197 7.52 2.78 8.03
9/22/2021 5:00:00 AM 18.49 65.282 0.197 7.52 2.69 8.03
9/22/2021 5:15:00 AM 18.48 65.264 0.197 7.52 2.66 8.03
9/22/2021 5:30:00 AM 18.47 65.246 0.197 7.52 2.77 8.04
9/22/2021 5:45:00 AM 18.47 65.246 0.197 7.52 2.72 8.04
9/22/2021 6:00:00 AM 18.46 65.228 0.197 7.52 2.7 8.04
9/22/2021 6:15:00 AM 18.45 65.21 0.197 7.52 2.71 8.03
9/22/2021 6:30:00 AM 18.45 65.21 0.197 7.52 2.89 8.04
9/22/2021 6:45:00 AM 18.44 65.192 0.197 7.52 2.9 8.05
9/22/2021 7:00:00 AM 18.44 65.192 0.197 7.52 2.82 8.04
9/22/2021 7:15:00 AM 18.44 65.192 0.197 7.52 3.01 8.05
9/22/2021 7:30:00 AM 18.44 65.192 0.197 7.52 2.78 8.08
9/22/2021 7:45:00 AM 18.44 65.192 0.197 7.53 2.92 8.1
9/22/2021 8:00:00 AM 18.45 65.21 0.197 7.54 2.72 8.18
9/22/2021 8:15:00 AM 18.46 65.228 0.197 7.56 2.79 8.28
9/22/2021 8:30:00 AM 18.47 65.246 0.197 7.57 2.77 8.35
9/22/2021 8:45:00 AM 18.48 65.264 0.197 7.58 2.86 8.45
9/22/2021 9:00:00 AM 18.49 65.282 0.197 7.6 2.8 8.52
9/22/2021 9:15:00 AM 18.51 65.318 0.197 7.62 2.68 8.61
9/22/2021 9:30:00 AM 18.52 65.336 0.197 7.63 2.76 8.68
9/22/2021 9:45:00 AM 18.55 65.39 0.197 7.66 2.85 8.79
9/22/2021 10:00:00 AM 18.59 65.462 0.197 7.68 2.68 8.94
9/22/2021 10:15:00 AM 18.65 65.57 0.197 7.71 2.63 9.12
9/22/2021 10:30:00 AM 18.7 65.66 0.197 7.75 2.66 9.22
9/22/2021 10:45:00 AM 18.75 65.75 0.197 7.8 2.63 9.42
9/22/2021 11:00:00 AM 18.79 65.82201 0.197 7.83 2.62 9.54
9/22/2021 11:15:00 AM 18.83 65.894 0.197 7.89 2.63 9.7
9/22/2021 11:30:00 AM 18.88 65.984 0.196 7.95 2.57 9.82
9/22/2021 11:45:00 AM 18.94 66.092 0.196 7.99 2.52 9.88
9/22/2021 12:00:00 PM 19.01 66.218 0.196 8.05 2.63 10.01
9/22/2021 12:15:00 PM 19.09 66.362 0.197 8.04 2.78 10
9/22/2021 12:30:00 PM 19.21 66.578 0.196 8.1 2.6 10.09
9/22/2021 12:45:00 PM 19.33 66.794 0.196 8.17 2.59 10.2
9/22/2021 1:00:00 PM 19.42 66.956 0.196 8.24 2.65 10.35
9/22/2021 1:15:00 PM 19.49 67.082 0.196 8.31 2.56 10.44
9/22/2021 1:30:00 PM 19.56 67.208 0.196 8.4 2.67 10.46
9/22/2021 1:45:00 PM 19.64 67.352 0.196 8.5 2.6 10.65
9/22/2021 2:00:00 PM 19.7 67.46 0.195 8.55 2.6 10.66
9/22/2021 2:15:00 PM 19.73 67.514 0.195 8.59 2.54 10.62
9/22/2021 2:30:00 PM 19.75 67.55 0.195 8.58 2.75 10.52
9/22/2021 2:45:00 PM 19.78 67.604 0.195 8.61 2.63 10.49
9/22/2021 3:00:00 PM 19.82 67.676 0.195 8.59 2.62 10.37
9/22/2021 3:15:00 PM 19.88 67.784 0.195 8.6 2.52 10.39
9/22/2021 3:30:00 PM 19.91 67.838 0.195 8.59 2.61 10.31
9/22/2021 3:45:00 PM 19.91 67.838 0.195 8.55 2.5 10.19
9/22/2021 4:00:00 PM 19.91 67.838 0.196 8.52 2.51 10.12
9/22/2021 4:15:00 PM 19.91 67.838 0.195 8.5 2.84 10.05
9/22/2021 4:30:00 PM 19.9 67.82 0.194 8.45 2.7 9.87
9/22/2021 4:45:00 PM 19.9 67.82 0.193 8.37 2.64 9.7
9/22/2021 5:00:00 PM 19.9 67.82 0.193 8.32 2.73 9.64
9/22/2021 5:15:00 PM 19.88 67.784 0.193 8.25 2.71 9.51
9/22/2021 5:30:00 PM 19.86 67.748 0.192 8.16 2.65 9.39
9/22/2021 5:45:00 PM 19.84 67.712 0.192 8.09 2.72 9.29
9/22/2021 6:00:00 PM 19.82 67.676 0.191 8.04 2.79 9.19
9/22/2021 6:15:00 PM 19.79 67.622 0.192 7.99 2.88 9.09
9/22/2021 6:30:00 PM 19.76 67.568 0.192 7.94 3 8.99
9/22/2021 6:45:00 PM 19.72 67.496 0.193 7.88 2.85 8.81
9/22/2021 7:00:00 PM 19.67 67.406 0.192 7.81 3.01 8.63
9/22/2021 7:15:00 PM 19.64 67.352 0.193 7.76 2.83 8.51
9/22/2021 7:30:00 PM 19.6 67.28 0.193 7.73 2.87 8.42
9/22/2021 7:45:00 PM 19.56 67.208 0.194 7.7 2.85 8.31
9/22/2021 8:00:00 PM 19.52 67.136 0.194 7.66 3.32 8.19
9/22/2021 8:15:00 PM 19.49 67.082 0.195 7.64 3.25 8.08
9/22/2021 8:30:00 PM 19.46 67.028 0.195 7.61 3.09 8.03
9/22/2021 8:45:00 PM 19.44 66.992 0.196 7.6 3.09 7.99
9/22/2021 9:00:00 PM 19.42 66.956 0.196 7.59 3 7.97
9/22/2021 9:15:00 PM 19.39 66.902 0.197 7.58 2.9 7.95
9/22/2021 9:30:00 PM 19.37 66.866 0.197 7.58 2.89 7.94
9/22/2021 9:45:00 PM 19.35 66.83 0.197 7.58 3.09 7.92
9/22/2021 10:00:00 PM 19.34 66.812 0.197 7.57 3.07 7.93
9/22/2021 10:15:00 PM 19.33 66.794 0.197 7.57 3.06 7.93
9/22/2021 10:30:00 PM 19.32 66.776 0.197 7.57 2.87 7.94
9/22/2021 10:45:00 PM 19.31 66.758 0.197 7.56 2.89 7.94
9/22/2021 11:00:00 PM 19.3 66.74 0.197 7.56 2.77 7.95
9/22/2021 11:15:00 PM 19.3 66.74 0.197 7.56 2.91 7.95
9/22/2021 11:30:00 PM 19.29 66.722 0.197 7.56 2.84 7.95
9/22/2021 11:45:00 PM 19.29 66.722 0.197 7.56 2.88 7.96
9/23/2021 12:00:00 AM 19.29 66.722 0.197 7.56 2.88 7.96
9/23/2021 12:15:00 AM 19.28 66.704 0.197 7.56 2.77 7.96
9/23/2021 12:30:00 AM 19.28 66.704 0.197 7.56 2.89 7.98
9/23/2021 12:45:00 AM 19.27 66.686 0.197 7.56 2.84 7.98
9/23/2021 1:00:00 AM 19.26 66.668 0.197 7.56 2.92 8
9/23/2021 1:15:00 AM 19.26 66.668 0.197 7.56 2.9 8.01
9/23/2021 1:30:00 AM 19.25 66.65 0.197 7.56 2.89 8.01
9/23/2021 1:45:00 AM 19.24 66.632 0.197 7.56 3.06 8.02
9/23/2021 2:00:00 AM 19.23 66.614 0.197 7.57 2.96 8.02
9/23/2021 2:15:00 AM 19.22 66.596 0.197 7.56 4.55 8.03
9/23/2021 2:30:00 AM 19.21 66.578 0.197 7.56 2.89 8.03
9/23/2021 2:45:00 AM 19.21 66.578 0.197 7.57 3.11 8.03
9/23/2021 3:00:00 AM 19.2 66.56 0.197 7.56 3.11 8.03
9/23/2021 3:15:00 AM 19.2 66.56 0.197 7.56 2.96 8.03
9/23/2021 3:30:00 AM 19.19 66.542 0.197 7.56 3.02 8.04
9/23/2021 3:45:00 AM 19.19 66.542 0.197 7.56 3.09 8.04
9/23/2021 4:00:00 AM 19.18 66.524 0.197 7.56 3.08 8.06
9/23/2021 4:15:00 AM 19.17 66.506 0.197 7.57 3.14 8.05
9/23/2021 4:30:00 AM 19.17 66.506 0.196 7.57 3.11 8.06
9/23/2021 4:45:00 AM 19.16 66.488 0.196 7.57 3.22 8.07
9/23/2021 5:00:00 AM 19.15 66.47 0.196 7.57 3.29 8.07
9/23/2021 5:15:00 AM 19.15 66.47 0.196 7.57 3.15 8.07
9/23/2021 5:30:00 AM 19.14 66.452 0.196 7.57 3.31 8.07
9/23/2021 5:45:00 AM 19.14 66.452 0.196 7.57 3.17 8.08
9/23/2021 6:00:00 AM 19.13 66.434 0.196 7.57 3.18 8.08
9/23/2021 6:15:00 AM 19.12 66.416 0.196 7.56 3.19 8.08
9/23/2021 6:30:00 AM 19.11 66.398 0.196 7.56 3.16 8.07
9/23/2021 6:45:00 AM 19.1 66.38 0.195 7.56 3.24 8.09
9/23/2021 7:00:00 AM 19.09 66.362 0.195 7.57 3.2 8.1
9/23/2021 7:15:00 AM 19.08 66.344 0.195 7.57 3.27 8.1
9/23/2021 7:30:00 AM 19.07 66.326 0.194 7.57 3.23 8.12
9/23/2021 7:45:00 AM 19.06 66.308 0.194 7.57 3.2 8.15
9/23/2021 8:00:00 AM 19.05 66.29 0.193 7.57 3.16 8.16
9/23/2021 8:15:00 AM 19.03 66.254 0.193 7.58 3.16 8.18
9/23/2021 8:30:00 AM 18.99 66.182 0.191 7.59 3.29 8.24
9/23/2021 8:45:00 AM 18.95 66.11 0.19 7.59 3.24 8.29
9/23/2021 9:00:00 AM 18.88 65.984 0.188 7.61 3.4 8.33
9/23/2021 9:15:00 AM 18.8 65.84 0.185 7.61 3.7 8.38
9/23/2021 9:30:00 AM 18.7 65.66 0.182 7.62 4.35 8.44
9/23/2021 9:45:00 AM 18.58 65.444 0.178 7.62 5.47 8.52
9/23/2021 10:00:00 AM 18.46 65.228 0.173 7.63 9.12 8.59
9/23/2021 10:15:00 AM 18.33 64.994 0.17 7.62 18.13 8.58
9/23/2021 10:30:00 AM 18.19 64.742 0.16 7.57 35.36 8.6
9/23/2021 10:45:00 AM 18.05 64.49 0.15 7.52 36.08 8.6
9/23/2021 11:00:00 AM 18 64.4 0.148 7.44 35.7 8.62
9/23/2021 11:15:00 AM 18.03 64.454 0.149 7.36 105.05 8.63
9/23/2021 11:30:00 AM 17.79 64.022 0.135 7.11 246.34 8.72
9/23/2021 11:45:00 AM 17.59 63.662 0.113 7.05 464.39 8.83
9/23/2021 12:00:00 PM 17.49 63.482 0.102 6.97 485.8 8.81
9/23/2021 12:15:00 PM 17.39 63.302 0.093 6.93 528.43 8.84
9/23/2021 12:30:00 PM 17.32 63.176 0.09 6.91 618.05 8.85
9/23/2021 12:45:00 PM 17.27 63.086 0.086 6.86 699.99 8.84
9/23/2021 1:00:00 PM 17.22 62.996 0.083 6.82 773.53 8.82
9/23/2021 1:15:00 PM 17.18 62.924 0.078 6.78 831.4 8.83
9/23/2021 1:30:00 PM 17.16 62.888 0.07 6.76 796.1 8.84
9/23/2021 1:45:00 PM 17.15 62.87 0.071 6.73 903.75 8.82
9/23/2021 2:00:00 PM 17.15 62.87 0.069 6.71 973.09 8.82
9/23/2021 2:15:00 PM 17.15 62.87 0.069 6.73 964.29 8.82
9/23/2021 2:30:00 PM 17.16 62.888 0.069 6.74 933.27 8.83
9/23/2021 2:45:00 PM 17.19 62.942 0.069 6.8 882.48 8.85
9/23/2021 3:00:00 PM 17.22 62.996 0.069 6.85 823.88 8.85
9/23/2021 3:15:00 PM 17.25 63.05 0.069 6.89 749.07 8.83
9/23/2021 3:30:00 PM 17.27 63.086 0.069 6.88 715.37 8.82
9/23/2021 3:45:00 PM 17.29 63.122 0.069 6.88 688.74 8.81
9/23/2021 4:00:00 PM 17.32 63.176 0.07 6.9 605.79 8.79
9/23/2021 4:15:00 PM 17.35 63.23 0.07 6.9 572.76 8.79
9/23/2021 4:30:00 PM 17.39 63.302 0.071 6.91 562.97 8.81
9/23/2021 4:45:00 PM 17.43 63.374 0.071 6.91 502.89 8.81
9/23/2021 5:00:00 PM 17.46 63.428 0.071 6.92 477.42 8.8
9/23/2021 5:15:00 PM 17.5 63.5 0.071 6.92 441.25 8.79
9/23/2021 5:30:00 PM 17.52 63.536 0.072 6.93 415.07 8.76
9/23/2021 5:45:00 PM 17.54 63.572 0.072 6.93 388.58 8.76
9/23/2021 6:00:00 PM 17.55 63.59 0.073 6.94 373.19 8.75
9/23/2021 6:15:00 PM 17.55 63.59 0.073 6.93 345.55 8.75
9/23/2021 6:30:00 PM 17.55 63.59 0.074 6.94 323.34 8.77
9/23/2021 6:45:00 PM 17.54 63.572 0.075 6.95 310.09 8.76
9/23/2021 7:00:00 PM 17.51 63.518 0.077 6.95 276.56 8.77
9/23/2021 7:15:00 PM 17.48 63.464 0.074 6.93 238.84 8.78
9/23/2021 7:30:00 PM 17.45 63.41 0.079 6.95 244.75 8.78
9/23/2021 7:45:00 PM 17.41 63.338 0.081 6.97 231.26 8.8
9/23/2021 8:00:00 PM 17.37 63.266 0.082 6.97 206.48 8.81
9/23/2021 8:15:00 PM 17.33 63.194 0.083 6.98 200.79 8.82
9/23/2021 8:30:00 PM 17.28 63.104 0.084 6.96 187.42 8.84
9/23/2021 8:45:00 PM 17.23 63.014 0.085 6.98 184.22 8.86
9/23/2021 9:00:00 PM 17.19 62.942 0.087 6.97 162.62 8.87
9/23/2021 9:15:00 PM 17.15 62.87 0.087 6.99 164.35 8.89
9/23/2021 9:30:00 PM 17.09 62.762 0.088 6.98 147.51 8.89
9/23/2021 9:45:00 PM 17.04 62.672 0.09 7 135.5 8.89
9/23/2021 10:00:00 PM 16.98 62.564 0.09 7 131.09 8.89
9/23/2021 10:15:00 PM 16.92 62.456 0.092 7 123.93 8.91
9/23/2021 10:30:00 PM 16.86 62.348 0.093 7.02 116.53 8.94
9/23/2021 10:45:00 PM 16.79 62.222 0.094 7.01 116.93 8.97
9/23/2021 11:00:00 PM 16.73 62.114 0.095 7.02 100.59 8.98
9/23/2021 11:15:00 PM 16.67 62.006 0.095 7.03 98.16 8.98
9/23/2021 11:30:00 PM 16.6 61.88 0.096 7.05 95.08 8.98
9/23/2021 11:45:00 PM 16.53 61.754 0.097 7.05 87.38 9
9/24/2021 12:00:00 AM 16.46 61.628 0.098 7.04 82.32 9.02
9/24/2021 12:15:00 AM 16.39 61.502 0.099 7.04 83.37 9.05
9/24/2021 12:30:00 AM 16.32 61.376 0.1 7.06 76.74 9.06
9/24/2021 12:45:00 AM 16.25 61.25 0.101 7.06 75.83 9.07
9/24/2021 1:00:00 AM 16.18 61.124 0.102 7.06 77.71 9.07
9/24/2021 1:15:00 AM 16.11 60.998 0.103 7.07 69.15 9.09
9/24/2021 1:30:00 AM 16.04 60.872 0.104 7.08 66.44 9.12
9/24/2021 1:45:00 AM 15.99 60.782 0.104 7.07 64.79 9.14
9/24/2021 2:00:00 AM 15.94 60.692 0.105 7.08 59.69 9.16
9/24/2021 2:15:00 AM 15.9 60.62 0.106 7.06 54.7 9.17
9/24/2021 2:30:00 AM 15.84 60.512 0.106 7.08 55.14 9.17
9/24/2021 2:45:00 AM 15.78 60.404 0.107 7.09 56.42 9.17
9/24/2021 3:00:00 AM 15.71 60.278 0.108 7.08 52.65 9.17
9/24/2021 3:15:00 AM 15.65 60.17 0.108 7.09 49.67 9.2
9/24/2021 3:30:00 AM 15.6 60.08 0.109 7.1 49.61 9.23
9/24/2021 3:45:00 AM 15.53 59.954 0.109 7.08 45.83 9.26
9/24/2021 4:00:00 AM 15.48 59.864 0.101 7.08 42.95 9.26
9/24/2021 4:15:00 AM 15.42 59.756 0.102 7.09 42.54 9.27
9/24/2021 4:30:00 AM 15.37 59.666 0.111 7.11 43.42 9.27
9/24/2021 4:45:00 AM 15.33 59.594 0.111 7.09 41.46 9.28
9/24/2021 5:00:00 AM 15.28 59.504 0.112 7.12 42.03 9.29
9/24/2021 5:15:00 AM 15.23 59.414 0.113 7.12 39.73 9.31
9/24/2021 5:30:00 AM 15.18 59.324 0.113 7.12 39.64 9.33
9/24/2021 5:45:00 AM 15.12 59.216 0.114 7.11 38.85 9.35
9/24/2021 6:00:00 AM 15.07 59.126 0.114 7.12 39.43 9.36
9/24/2021 6:15:00 AM 15.01 59.018 0.114 7.12 34.77 9.37
9/24/2021 6:30:00 AM 14.95 58.91 0.115 7.11 36.62 9.37
9/24/2021 6:45:00 AM 14.91 58.838 0.061 7.12 37.01 9.38
9/24/2021 7:00:00 AM 14.86 58.748 0.116 7.13 33.39 9.39
9/24/2021 7:15:00 AM 14.81 58.658 0.116 7.13 33.53 9.42
9/24/2021 7:30:00 AM 14.77 58.586 0.116 7.14 31.04 9.45
9/24/2021 7:45:00 AM 14.74 58.532 0.117 7.13 31.68 9.46
9/24/2021 8:00:00 AM 14.71 58.478 0.117 7.15 30.85 9.48
9/24/2021 8:15:00 AM 14.68 58.424 0.117 7.14 30.08 9.49
9/24/2021 8:30:00 AM 14.66 58.388 0.118 7.15 30.77 9.5
9/24/2021 8:45:00 AM 14.65 58.37 0.118 7.15 32.16 9.51
9/24/2021 9:00:00 AM 14.66 58.388 0.118 7.15 28.9 9.51
9/24/2021 9:15:00 AM 14.67 58.406 0.119 7.16 27.62 9.53
9/24/2021 9:30:00 AM 14.69 58.442 0.119 7.15 26.75 9.54
9/24/2021 9:45:00 AM 14.71 58.478 0.119 7.16 26.79 9.55
9/24/2021 10:00:00 AM 14.77 58.586 0.119 7.17 27.14 9.55
9/24/2021 10:15:00 AM 14.84 58.712 0.12 7.17 25.47 9.54
9/24/2021 10:30:00 AM 14.89 58.802 0.12 7.18 25.01 9.53
9/24/2021 10:45:00 AM 14.89 58.802 0.12 7.18 24.44 9.53
9/24/2021 11:00:00 AM 14.88 58.784 0.12 7.17 24.11 9.54
9/24/2021 11:15:00 AM 14.91 58.838 0.12 7.19 24.5 9.53
9/24/2021 11:30:00 AM 15.01 59.018 0.121 7.19 23.81 9.54
9/24/2021 11:45:00 AM 15.15 59.27 0.121 7.17 23.74 9.55
9/24/2021 12:00:00 PM 15.3 59.54 0.121 7.17 25.13 9.52
9/24/2021 12:15:00 PM 15.46 59.828 0.122 7.2 21.66 9.53
9/24/2021 12:30:00 PM 15.52 59.936 0.122 7.19 22.32 9.53
9/24/2021 12:45:00 PM 15.57 60.026 0.122 7.19 20.94 9.52
9/24/2021 1:00:00 PM 15.59 60.062 0.122 7.19 21.8 9.51
9/24/2021 1:15:00 PM 15.64 60.152 0.122 7.2 20.85 9.48
9/24/2021 1:30:00 PM 15.77 60.386 0.122 7.2 20.64 9.44
9/24/2021 1:45:00 PM 15.95 60.71 0.122 7.22 20.66 9.45
9/24/2021 2:00:00 PM 16.11 60.998 0.122 7.2 20.32 9.38
9/24/2021 2:15:00 PM 16.24 61.232 0.123 7.21 19.68 9.38
9/24/2021 2:30:00 PM 16.37 61.466 0.123 7.21 20.2 9.34
9/24/2021 2:45:00 PM 16.45 61.61 0.123 7.21 19.61 9.31
9/24/2021 3:00:00 PM 16.52 61.736 0.124 7.22 19.79 9.29
9/24/2021 3:15:00 PM 16.56 61.808 0.124 7.2 18.73 9.28
9/24/2021 3:30:00 PM 16.59 61.862 0.124 7.21 19.18 9.27
9/24/2021 3:45:00 PM 16.66 61.988 0.124 7.23 19.45 9.25
9/24/2021 4:00:00 PM 16.73 62.114 0.124 7.22 18.6 9.23
9/24/2021 4:15:00 PM 16.79 62.222 0.124 7.22 19.53 9.2
9/24/2021 4:30:00 PM 16.83 62.294 0.125 7.22 236.67 9.18
9/24/2021 4:45:00 PM 16.86 62.348 0.125 7.23 193.45 9.15
9/24/2021 5:00:00 PM 16.91 62.438 0.125 7.22 17.88 9.14
9/24/2021 5:15:00 PM 16.94 62.492 0.125 7.23 17.4 9.14
9/24/2021 5:30:00 PM 16.94 62.492 0.125 7.23 16.81 9.13
9/24/2021 5:45:00 PM 16.93 62.474 0.125 7.22 16.39 9.12
9/24/2021 6:00:00 PM 16.91 62.438 0.125 7.23 16.56 9.11
9/24/2021 6:15:00 PM 16.87 62.366 0.126 7.23 16.74 9.1
9/24/2021 6:30:00 PM 16.82 62.276 0.126 7.22 16.98 9.1
9/24/2021 6:45:00 PM 16.78 62.204 0.126 7.23 16.25 9.1
9/24/2021 7:00:00 PM 16.75 62.15 0.126 7.22 16.38 9.1
9/24/2021 7:15:00 PM 16.72 62.096 0.125 7.21 14.53 9.1
9/24/2021 7:30:00 PM 16.68 62.024 0.127 7.23 16.46 9.1
9/24/2021 7:45:00 PM 16.64 61.952 0.127 7.21 16.22 9.11
9/24/2021 8:00:00 PM 16.6 61.88 0.127 7.22 18.24 9.11
9/24/2021 8:15:00 PM 16.55 61.79 0.127 7.21 15.72 9.11
9/24/2021 8:30:00 PM 16.5 61.7 0.127 7.21 15.9 9.1
9/24/2021 8:45:00 PM 16.44 61.592 0.127 7.21 15.51 9.11
9/24/2021 9:00:00 PM 16.38 61.484 0.127 7.21 15.83 9.12
9/24/2021 9:15:00 PM 16.31 61.358 0.128 7.21 15.95 9.15
9/24/2021 9:30:00 PM 16.24 61.232 0.128 7.21 15.69 9.17
9/24/2021 9:45:00 PM 16.17 61.106 0.128 7.21 15.66 9.18
9/24/2021 10:00:00 PM 16.09 60.962 0.128 7.22 15.5 9.18
9/24/2021 10:15:00 PM 16.02 60.836 0.128 7.22 15.68 9.19
9/24/2021 10:30:00 PM 15.94 60.692 0.128 7.22 15.16 9.22
9/24/2021 10:45:00 PM 15.87 60.566 0.129 7.23 14.98 9.24
9/24/2021 11:00:00 PM 15.8 60.44 0.129 7.21 15.48 9.25
9/24/2021 11:15:00 PM 15.72 60.296 0.129 7.22 15.35 9.26
9/24/2021 11:30:00 PM 15.65 60.17 0.129 7.22 14.96 9.27
9/24/2021 11:45:00 PM 15.58 60.044 0.129 7.22 13.75 9.29
9/25/2021 12:00:00 AM 15.51 59.918 0.129 7.22 14.04 9.31
9/25/2021 12:15:00 AM 15.44 59.792 0.129 7.22 13.95 9.34
9/25/2021 12:30:00 AM 15.38 59.684 0.129 7.2 14.53 9.35
9/25/2021 12:45:00 AM 15.31 59.558 0.13 7.22 13.88 9.35
9/25/2021 1:00:00 AM 15.25 59.45 0.13 7.22 13.23 9.35
9/25/2021 1:15:00 AM 15.19 59.342 0.13 7.21 14.32 9.36
9/25/2021 1:30:00 AM 15.13 59.234 0.069 7.19 24.24 9.39
9/25/2021 1:45:00 AM 15.07 59.126 0.13 7.22 17.16 9.42
9/25/2021 2:00:00 AM 15.01 59.018 0.131 7.21 15.63 9.43
9/25/2021 2:15:00 AM 14.95 58.91 0.069 7.2 15.22 9.44
9/25/2021 2:30:00 AM 14.9 58.82 0.13 7.2 14.46 9.45
9/25/2021 2:45:00 AM 14.84 58.712 0.131 7.2 15.13 9.44
9/25/2021 3:00:00 AM 14.78 58.604 0.074 7.21 13.96 9.47
9/25/2021 3:15:00 AM 14.73 58.514 0.131 7.22 13.12 9.49
9/25/2021 3:30:00 AM 14.68 58.424 0.132 7.22 13.27 9.51
9/25/2021 3:45:00 AM 14.62 58.316 0.071 7.2 13.48 9.53
9/25/2021 4:00:00 AM 14.57 58.226 0.131 7.22 13.41 9.54
9/25/2021 4:15:00 AM 14.53 58.154 0.132 7.23 12.03 9.54
9/25/2021 4:30:00 AM 14.49 58.082 0.132 7.22 12.54 9.53
9/25/2021 4:45:00 AM 14.45 58.01 0.1 7.21 13 9.53
9/25/2021 5:00:00 AM 14.41 57.938 0.132 7.23 12.15 9.55
9/25/2021 5:15:00 AM 14.38 57.884 0.132 7.24 12.05 9.56
9/25/2021 5:30:00 AM 14.35 57.83 0.132 7.22 12.67 9.58
9/25/2021 5:45:00 AM 14.32 57.776 0.132 7.22 12.84 9.6
9/25/2021 6:00:00 AM 14.29 57.722 0.132 7.23 12.47 9.62
9/25/2021 6:15:00 AM 14.27 57.686 0.133 7.25 11.39 9.63
9/25/2021 6:30:00 AM 14.25 57.65 0.133 7.23 11.62 9.64
9/25/2021 6:45:00 AM 14.23 57.614 0.133 7.25 11.1 9.64
9/25/2021 7:00:00 AM 14.2 57.56 0.133 7.24 11.2 9.65
9/25/2021 7:15:00 AM 14.17 57.506 0.108 7.22 12.27 9.66
9/25/2021 7:30:00 AM 14.15 57.47 0.133 7.25 11.86 9.65
9/25/2021 7:45:00 AM 14.12 57.416 0.133 7.24 11.12 9.66
9/25/2021 8:00:00 AM 14.1 57.38 0.133 7.24 10.75 9.67
9/25/2021 8:15:00 AM 14.09 57.362 0.133 7.24 10.85 9.68
9/25/2021 8:30:00 AM 14.07 57.326 0.134 7.25 10.6 9.69
9/25/2021 8:45:00 AM 14.07 57.326 0.134 7.24 10.26 9.71
9/25/2021 9:00:00 AM 14.08 57.344 0.134 7.26 10.37 9.71
9/25/2021 9:15:00 AM 14.09 57.362 0.134 7.23 11.11 9.74
9/25/2021 9:30:00 AM 14.1 57.38 0.134 7.26 9.67 9.75
9/25/2021 9:45:00 AM 14.12 57.416 0.134 7.24 10.73 9.76
9/25/2021 10:00:00 AM 14.16 57.488 0.071 7.24 10.77 9.77
9/25/2021 10:15:00 AM 14.2 57.56 0.134 7.27 9.37 9.8
9/25/2021 10:30:00 AM 14.3 57.74 0.134 7.26 10.63 9.81
9/25/2021 10:45:00 AM 14.45 58.01 0.134 7.28 9.7 9.76
9/25/2021 11:00:00 AM 14.61 58.298 0.112 7.27 10.43 9.79
9/25/2021 11:15:00 AM 14.75 58.55 0.135 7.28 9.67 9.75
9/25/2021 11:30:00 AM 14.9 58.82 0.135 7.28 9.9 9.73
9/25/2021 11:45:00 AM 15.04 59.072 0.083 7.26 10.18 9.73
9/25/2021 12:00:00 PM 15.2 59.36 0.135 7.29 9.62 9.69
9/25/2021 12:15:00 PM 15.35 59.63 0.135 7.28 9.52 9.68
9/25/2021 12:30:00 PM 15.48 59.864 0.135 7.28 9.24 9.67
9/25/2021 12:45:00 PM 15.62 60.116 0.135 7.28 9.5 9.62
9/25/2021 1:00:00 PM 15.73 60.314 0.135 7.28 9.22 9.6
9/25/2021 1:15:00 PM 15.85 60.53 0.135 7.29 8.87 9.59
9/25/2021 1:30:00 PM 15.95 60.71 0.135 7.3 9.24 9.55
9/25/2021 1:45:00 PM 16.04 60.872 0.135 7.29 10.08 9.52
9/25/2021 2:00:00 PM 16.1 60.98 0.135 7.3 9.25 9.51
9/25/2021 2:15:00 PM 16.18 61.124 0.136 7.3 8.86 9.5
9/25/2021 2:30:00 PM 16.26 61.268 0.136 7.3 8.93 9.47
9/25/2021 2:45:00 PM 16.31 61.358 0.136 7.31 8.55 9.44
9/25/2021 3:00:00 PM 16.36 61.448 0.136 7.31 8.69 9.41
9/25/2021 3:15:00 PM 16.4 61.52 0.136 7.31 8.64 9.39
9/25/2021 3:30:00 PM 16.43 61.574 0.136 7.31 8.72 9.37
9/25/2021 3:45:00 PM 16.45 61.61 0.136 7.32 8.76 9.35
9/25/2021 4:00:00 PM 16.48 61.664 0.136 7.31 8.6 9.34
9/25/2021 4:15:00 PM 16.52 61.736 0.136 7.32 8.85 9.35
9/25/2021 4:30:00 PM 16.56 61.808 0.136 7.32 8.45 9.34
9/25/2021 4:45:00 PM 16.58 61.844 0.136 7.31 8.54 9.33
9/25/2021 5:00:00 PM 16.6 61.88 0.136 7.32 8.91 9.3
9/25/2021 5:15:00 PM 16.62 61.916 0.136 7.32 8.46 9.29
9/25/2021 5:30:00 PM 16.63 61.934 0.136 7.32 8.37 9.27
9/25/2021 5:45:00 PM 16.64 61.952 0.136 7.31 8.75 9.25
9/25/2021 6:00:00 PM 16.64 61.952 0.136 7.31 8.33 9.23
9/25/2021 6:15:00 PM 16.62 61.916 0.136 7.32 8.38 9.22
9/25/2021 6:30:00 PM 16.6 61.88 0.136 7.31 8.36 9.21
9/25/2021 6:45:00 PM 16.58 61.844 0.137 7.31 8.45 9.2
9/25/2021 7:00:00 PM 16.55 61.79 0.136 7.32 8.38 9.2
9/25/2021 7:15:00 PM 16.52 61.736 0.136 7.29 9.33 9.18
9/25/2021 7:30:00 PM 16.49 61.682 0.137 7.31 8.28 9.18
9/25/2021 7:45:00 PM 16.46 61.628 0.137 7.31 8.45 9.17
9/25/2021 8:00:00 PM 16.44 61.592 0.137 7.3 8.51 9.15
9/25/2021 8:15:00 PM 16.42 61.556 0.137 7.31 8.69 9.15
9/25/2021 8:30:00 PM 16.4 61.52 0.137 7.31 8.64 9.15
9/25/2021 8:45:00 PM 16.39 61.502 0.137 7.3 8.81 9.14
9/25/2021 9:00:00 PM 16.38 61.484 0.137 7.3 8.41 9.14
9/25/2021 9:15:00 PM 16.37 61.466 0.137 7.3 8.62 9.13
9/25/2021 9:30:00 PM 16.36 61.448 0.137 7.29 8.71 9.13
9/25/2021 9:45:00 PM 16.36 61.448 0.138 7.31 8.6 9.13
9/25/2021 10:00:00 PM 16.35 61.43 0.138 7.3 8.36 9.13
9/25/2021 10:15:00 PM 16.34 61.412 0.138 7.3 8.57 9.13
9/25/2021 10:30:00 PM 16.32 61.376 0.138 7.3 8.66 9.13
9/25/2021 10:45:00 PM 16.31 61.358 0.138 7.3 8.84 9.13
9/25/2021 11:00:00 PM 16.29 61.322 0.138 7.3 8.18 9.14
9/25/2021 11:15:00 PM 16.26 61.268 0.138 7.3 8.08 9.15
9/25/2021 11:30:00 PM 16.24 61.232 0.138 7.3 8.16 9.15
9/25/2021 11:45:00 PM 16.21 61.178 0.138 7.31 8.36 9.17
9/26/2021 12:00:00 AM 16.18 61.124 0.138 7.3 8.31 9.18
9/26/2021 12:15:00 AM 16.15 61.07 0.138 7.3 8.49 9.19
9/26/2021 12:30:00 AM 16.12 61.016 0.138 7.29 9.41 9.21
9/26/2021 12:45:00 AM 16.08 60.944 0.138 7.32 8.01 9.23
9/26/2021 1:00:00 AM 16.05 60.89 0.137 7.3 9.69 9.23
9/26/2021 1:15:00 AM 16.01 60.818 0.138 7.31 8.24 9.24
9/26/2021 1:30:00 AM 15.97 60.746 0.138 7.32 8 9.23
9/26/2021 1:45:00 AM 15.93 60.674 0.138 7.31 8.2 9.23
9/26/2021 2:00:00 AM 15.9 60.62 0.137 7.29 9.05 9.24
9/26/2021 2:15:00 AM 15.86 60.548 0.139 7.33 7.98 9.24
9/26/2021 2:30:00 AM 15.82 60.476 0.139 7.31 7.9 9.25
9/26/2021 2:45:00 AM 15.78 60.404 0.139 7.32 8.09 9.27
9/26/2021 3:00:00 AM 15.75 60.35 0.139 7.31 7.83 9.28
9/26/2021 3:15:00 AM 15.71 60.278 0.077 7.3 8.99 9.29
9/26/2021 3:30:00 AM 15.67 60.206 0.074 7.3 8.93 9.31
9/26/2021 3:45:00 AM 15.62 60.116 0.074 7.3 8.94 9.32
9/26/2021 4:00:00 AM 15.57 60.026 0.075 7.3 8.62 9.32
9/26/2021 4:15:00 AM 15.52 59.936 0.139 7.32 7.55 9.32
9/26/2021 4:30:00 AM 15.46 59.828 0.14 7.31 7.98 9.32
9/26/2021 4:45:00 AM 15.41 59.738 0.14 7.31 7.45 9.34
9/26/2021 5:00:00 AM 15.35 59.63 0.139 7.29 8.47 9.36
9/26/2021 5:15:00 AM 15.3 59.54 0.14 7.32 7.45 9.38
9/26/2021 5:30:00 AM 15.25 59.45 0.14 7.31 7.43 9.39
9/26/2021 5:45:00 AM 15.21 59.378 0.14 7.31 7.48 9.39
9/26/2021 6:00:00 AM 15.15 59.27 0.14 7.31 7.37 9.39
9/26/2021 6:15:00 AM 15.1 59.18 0.14 7.31 7.31 9.39
9/26/2021 6:30:00 AM 15.06 59.108 0.141 7.31 7.19 9.4
9/26/2021 6:45:00 AM 15 59 0.141 7.31 7.36 9.42
9/26/2021 7:00:00 AM 14.95 58.91 0.14 7.29 8.23 9.44
9/26/2021 7:15:00 AM 14.91 58.838 0.141 7.33 7.37 9.47
9/26/2021 7:30:00 AM 14.86 58.748 0.141 7.31 7.46 9.48
9/26/2021 7:45:00 AM 14.82 58.676 0.141 7.32 6.92 9.5
9/26/2021 8:00:00 AM 14.79 58.622 0.141 7.3 8.19 9.51
9/26/2021 8:15:00 AM 14.77 58.586 0.077 7.31 8 9.52
9/26/2021 8:30:00 AM 14.76 58.568 0.141 7.33 6.7 9.54
9/26/2021 8:45:00 AM 14.76 58.568 0.141 7.32 6.86 9.54
9/26/2021 9:00:00 AM 14.78 58.604 0.141 7.33 6.66 9.57
9/26/2021 9:15:00 AM 14.82 58.676 0.141 7.32 7.73 9.58
9/26/2021 9:30:00 AM 14.86 58.748 0.081 7.33 7.65 9.6
9/26/2021 9:45:00 AM 14.91 58.838 0.142 7.34 6.52 9.62
9/26/2021 10:00:00 AM 14.98 58.964 0.142 7.34 6.36 9.61
9/26/2021 10:15:00 AM 15.06 59.108 0.142 7.34 6.15 9.6
9/26/2021 10:30:00 AM 15.15 59.27 0.142 7.35 6.42 9.61
9/26/2021 10:45:00 AM 15.26 59.468 0.079 7.33 7.36 9.65
9/26/2021 11:00:00 AM 15.39 59.702 0.142 7.37 6.07 9.62
9/26/2021 11:15:00 AM 15.53 59.954 0.142 7.35 6.24 9.61
9/26/2021 11:30:00 AM 15.68 60.224 0.142 7.36 6.08 9.61
9/26/2021 11:45:00 AM 15.82 60.476 0.142 7.36 6.11 9.57
9/26/2021 12:00:00 PM 15.95 60.71 0.142 7.36 5.99 9.57
9/26/2021 12:15:00 PM 16.02 60.836 0.142 7.37 5.96 9.56
9/26/2021 12:30:00 PM 16.02 60.836 0.142 7.37 5.86 9.55
9/26/2021 12:45:00 PM 16.09 60.962 0.142 7.38 5.86 9.54
9/26/2021 1:00:00 PM 16.17 61.106 0.142 7.37 6.1 9.51
9/26/2021 1:15:00 PM 16.22 61.196 0.142 7.36 7.09 9.5
9/26/2021 1:30:00 PM 16.32 61.376 0.142 7.38 5.7 9.5
9/26/2021 1:45:00 PM 16.35 61.43 0.142 7.38 5.81 9.49
9/26/2021 2:00:00 PM 16.35 61.43 0.142 7.38 5.89 9.46
9/26/2021 2:15:00 PM 16.44 61.592 0.142 7.38 5.82 9.45
9/26/2021 2:30:00 PM 16.5 61.7 0.142 7.38 5.62 9.43
9/26/2021 2:45:00 PM 16.53 61.754 0.142 7.39 5.67 9.41
9/26/2021 3:00:00 PM 16.62 61.916 0.142 7.39 5.86 9.39
9/26/2021 3:15:00 PM 16.65 61.97 0.142 7.39 5.63 9.39
9/26/2021 3:30:00 PM 16.65 61.97 0.142 7.4 5.77 9.37
9/26/2021 3:45:00 PM 16.66 61.988 0.142 7.38 5.73 9.35
9/26/2021 4:00:00 PM 16.66 61.988 0.142 7.39 5.65 9.34
9/26/2021 4:15:00 PM 16.65 61.97 0.142 7.38 5.78 9.33
9/26/2021 4:30:00 PM 16.63 61.934 0.142 7.38 5.88 9.31
9/26/2021 4:45:00 PM 16.6 61.88 0.142 7.39 5.63 9.29
9/26/2021 5:00:00 PM 16.56 61.808 0.142 7.38 5.68 9.28
9/26/2021 5:15:00 PM 16.51 61.718 0.142 7.37 5.69 9.27
9/26/2021 5:30:00 PM 16.47 61.646 0.142 7.38 5.55 9.27
9/26/2021 5:45:00 PM 16.45 61.61 0.141 7.35 6.89 9.26
9/26/2021 6:00:00 PM 16.42 61.556 0.142 7.38 6.1 9.26
9/26/2021 6:15:00 PM 16.41 61.538 0.142 7.37 5.63 9.26
9/26/2021 6:30:00 PM 16.4 61.52 0.142 7.37 5.76 9.25
9/26/2021 6:45:00 PM 16.38 61.484 0.142 7.36 5.76 9.24
9/26/2021 7:00:00 PM 16.35 61.43 0.142 7.35 6.98 9.24
9/26/2021 7:15:00 PM 16.32 61.376 0.142 7.37 5.81 9.23
9/26/2021 7:30:00 PM 16.29 61.322 0.142 7.36 5.7 9.22
9/26/2021 7:45:00 PM 16.24 61.232 0.142 7.36 5.77 9.21
9/26/2021 8:00:00 PM 16.19 61.142 0.142 7.36 5.69 9.21
9/26/2021 8:15:00 PM 16.13 61.034 0.143 7.36 5.74 9.2
9/26/2021 8:30:00 PM 16.08 60.944 0.142 7.36 5.94 9.22
9/26/2021 8:45:00 PM 16.04 60.872 0.142 7.37 5.95 9.23
9/26/2021 9:00:00 PM 16.01 60.818 0.143 7.36 6.18 9.24
9/26/2021 9:15:00 PM 15.97 60.746 0.143 7.36 6.19 9.25
9/26/2021 9:30:00 PM 15.93 60.674 0.143 7.35 7.35 9.25
9/26/2021 9:45:00 PM 15.9 60.62 0.077 7.35 7.18 9.25
9/26/2021 10:00:00 PM 15.87 60.566 0.086 7.36 7.34 9.25
9/26/2021 10:15:00 PM 15.83 60.494 0.143 7.37 6.07 9.25
9/26/2021 10:30:00 PM 15.8 60.44 0.143 7.36 6.23 9.25
9/26/2021 10:45:00 PM 15.77 60.386 0.143 7.34 7.23 9.25
9/26/2021 11:00:00 PM 15.75 60.35 0.143 7.36 6.03 9.25
9/26/2021 11:15:00 PM 15.73 60.314 0.143 7.36 6.03 9.25
9/26/2021 11:30:00 PM 15.72 60.296 0.143 7.36 5.98 9.25
9/26/2021 11:45:00 PM 15.71 60.278 0.144 7.36 5.92 9.26
9/27/2021 12:00:00 AM 15.7 60.26 0.144 7.36 6.01 9.26
9/27/2021 12:15:00 AM 15.69 60.242 0.144 7.37 6.07 9.27
9/27/2021 12:30:00 AM 15.67 60.206 0.144 7.36 5.8 9.27
9/27/2021 12:45:00 AM 15.65 60.17 0.144 7.36 5.82 9.28
9/27/2021 1:00:00 AM 15.64 60.152 0.144 7.36 5.88 9.29
9/27/2021 1:15:00 AM 15.61 60.098 0.144 7.37 5.98 9.3
9/27/2021 1:30:00 AM 15.58 60.044 0.144 7.36 5.89 9.32
9/27/2021 1:45:00 AM 15.54 59.972 0.144 7.37 6.06 9.33
9/27/2021 2:00:00 AM 15.5 59.9 0.144 7.37 6.01 9.34
9/27/2021 2:15:00 AM 15.46 59.828 0.144 7.36 6.02 9.34
9/27/2021 2:30:00 AM 15.42 59.756 0.144 7.36 7.43 9.34
9/27/2021 2:45:00 AM 15.39 59.702 0.096 7.36 7.48 9.35
9/27/2021 3:00:00 AM 15.36 59.648 0.145 7.38 5.97 9.35
9/27/2021 3:15:00 AM 15.33 59.594 0.145 7.37 5.95 9.35
9/27/2021 3:30:00 AM 15.3 59.54 0.145 7.37 6.12 9.36
9/27/2021 3:45:00 AM 15.28 59.504 0.145 7.36 7.2 9.37
9/27/2021 4:00:00 AM 15.24 59.432 0.145 7.37 5.85 9.38
9/27/2021 4:15:00 AM 15.21 59.378 0.145 7.37 6.03 9.39
9/27/2021 4:30:00 AM 15.18 59.324 0.145 7.37 6.02 9.41
9/27/2021 4:45:00 AM 15.16 59.288 0.146 7.37 5.98 9.42
9/27/2021 5:00:00 AM 15.13 59.234 0.146 7.37 6.27 9.42
9/27/2021 5:15:00 AM 15.1 59.18 0.146 7.37 5.97 9.43
9/27/2021 5:30:00 AM 15.08 59.144 0.146 7.37 6.24 9.43
9/27/2021 5:45:00 AM 15.06 59.108 0.146 7.38 6.13 9.44
9/27/2021 6:00:00 AM 15.04 59.072 0.146 7.37 5.87 9.45
9/27/2021 6:15:00 AM 15.02 59.036 0.146 7.37 5.8 9.45
9/27/2021 6:30:00 AM 15 59 0.146 7.38 5.9 9.46
9/27/2021 6:45:00 AM 14.98 58.964 0.146 7.37 5.83 9.46
9/27/2021 7:00:00 AM 14.97 58.946 0.146 7.38 5.82 9.45
9/27/2021 7:15:00 AM 14.95 58.91 0.146 7.38 5.65 9.46
9/27/2021 7:30:00 AM 14.94 58.892 0.146 7.38 5.53 9.47
9/27/2021 7:45:00 AM 14.92 58.856 0.147 7.38 5.71 9.48
9/27/2021 8:00:00 AM 14.91 58.838 0.147 7.38 5.66 9.49
9/27/2021 8:15:00 AM 14.91 58.838 0.147 7.37 7.04 9.51
9/27/2021 8:30:00 AM 14.92 58.856 0.078 7.39 6.79 9.53
9/27/2021 8:45:00 AM 14.93 58.874 0.078 7.4 6.59 9.56
9/27/2021 9:00:00 AM 15 59 0.084 7.4 6.69 9.59
9/27/2021 9:15:00 AM 15.03 59.054 0.147 7.41 5.25 9.61
9/27/2021 9:30:00 AM 15.09 59.162 0.147 7.41 5.09 9.63
9/27/2021 9:45:00 AM 15.16 59.288 0.132 7.41 6.36 9.65
9/27/2021 10:00:00 AM 15.22 59.396 0.148 7.44 4.99 9.64
9/27/2021 10:15:00 AM 15.3 59.54 0.148 7.43 5.06 9.64
9/27/2021 10:30:00 AM 15.44 59.792 0.148 7.43 5.01 9.67
9/27/2021 10:45:00 AM 15.59 60.062 0.148 7.44 4.98 9.65
9/27/2021 11:00:00 AM 15.7 60.26 0.148 7.45 4.85 9.63
9/27/2021 11:15:00 AM 15.8 60.44 0.146 7.44 5.95 9.64
9/27/2021 11:30:00 AM 15.96 60.728 0.148 7.45 4.85 9.63
9/27/2021 11:45:00 AM 16.15 61.07 0.148 7.46 4.68 9.61
9/27/2021 12:00:00 PM 16.33 61.394 0.149 7.46 4.72 9.59
9/27/2021 12:15:00 PM 16.48 61.664 0.149 7.46 4.72 9.56
9/27/2021 12:30:00 PM 16.64 61.952 0.149 7.47 4.64 9.56
9/27/2021 12:45:00 PM 16.76 62.168 0.148 7.47 6.05 9.53
9/27/2021 1:00:00 PM 16.89 62.402 0.149 7.48 4.48 9.52
9/27/2021 1:15:00 PM 17 62.6 0.149 7.48 4.51 9.5
9/27/2021 1:30:00 PM 17.12 62.816 0.149 7.48 4.76 9.46
9/27/2021 1:45:00 PM 17.23 63.014 0.149 7.49 4.58 9.46
9/27/2021 2:00:00 PM 17.33 63.194 0.15 7.49 4.59 9.44
9/27/2021 2:15:00 PM 17.4 63.32 0.15 7.5 4.65 9.42
9/27/2021 2:30:00 PM 17.45 63.41 0.15 7.5 4.77 9.38
9/27/2021 2:45:00 PM 17.5 63.5 0.15 7.5 4.53 9.36
9/27/2021 3:00:00 PM 17.56 63.608 0.15 7.49 4.44 9.33
9/27/2021 3:15:00 PM 17.62 63.716 0.15 7.48 4.47 9.32
9/27/2021 3:30:00 PM 17.66 63.788 0.15 7.49 4.29 9.29
9/27/2021 3:45:00 PM 17.69 63.842 0.15 7.49 4.57 9.26
9/27/2021 4:00:00 PM 17.72 63.896 0.15 7.49 4.43 9.24
9/27/2021 4:15:00 PM 17.75 63.95 0.15 7.49 4.43 9.21
9/27/2021 4:30:00 PM 17.78 64.004 0.15 7.48 4.26 9.19
9/27/2021 4:45:00 PM 17.8 64.04 0.15 7.48 4.35 9.17
9/27/2021 5:00:00 PM 17.82 64.076 0.15 7.48 4.21 9.15
9/27/2021 5:15:00 PM 17.84 64.112 0.15 7.48 4.27 9.14
9/27/2021 5:30:00 PM 17.84 64.112 0.15 7.47 4.29 9.11
9/27/2021 5:45:00 PM 17.83 64.094 0.15 7.47 4.26 9.09
9/27/2021 6:00:00 PM 17.8 64.04 0.151 7.47 4.29 9.07
9/27/2021 6:15:00 PM 17.77 63.986 0.151 7.46 4.28 9.05
9/27/2021 6:30:00 PM 17.74 63.932 0.151 7.45 4.36 9.02
9/27/2021 6:45:00 PM 17.69 63.842 0.151 7.45 4.21 9
9/27/2021 7:00:00 PM 17.65 63.77 0.151 7.45 4.36 8.99
9/27/2021 7:15:00 PM 17.6 63.68 0.151 7.43 5.66 8.98
9/27/2021 7:30:00 PM 17.55 63.59 0.151 7.44 4.3 8.96
9/27/2021 7:45:00 PM 17.51 63.518 0.151 7.43 4.55 8.95
9/27/2021 8:00:00 PM 17.46 63.428 0.151 7.43 4.57 8.93
9/27/2021 8:15:00 PM 17.41 63.338 0.151 7.43 4.64 8.94
9/27/2021 8:30:00 PM 17.35 63.23 0.151 7.43 4.62 8.94
9/27/2021 8:45:00 PM 17.3 63.14 0.151 7.42 4.58 8.95
9/27/2021 9:00:00 PM 17.25 63.05 0.151 7.42 4.56 8.96
9/27/2021 9:15:00 PM 17.19 62.942 0.151 7.43 4.46 8.98
9/27/2021 9:30:00 PM 17.13 62.834 0.152 7.42 4.63 8.97
9/27/2021 9:45:00 PM 17.07 62.726 0.152 7.42 4.53 8.96
9/27/2021 10:00:00 PM 17.01 62.618 0.152 7.41 4.53 8.97
9/27/2021 10:15:00 PM 16.96 62.528 0.152 7.42 4.74 8.98
9/27/2021 10:30:00 PM 16.92 62.456 0.152 7.41 4.59 9
9/27/2021 10:45:00 PM 16.87 62.366 0.152 7.42 4.62 9.02
9/27/2021 11:00:00 PM 16.83 62.294 0.152 7.41 4.68 9.02
9/27/2021 11:15:00 PM 16.78 62.204 0.152 7.42 4.49 9.02
9/27/2021 11:30:00 PM 16.74 62.132 0.152 7.41 4.43 9.03
9/27/2021 11:45:00 PM 16.7 62.06 0.152 7.41 4.69 9.03
9/28/2021 12:00:00 AM 16.67 62.006 0.151 7.4 5.78 9.03
9/28/2021 12:15:00 AM 16.63 61.934 0.153 7.41 4.54 9.03
9/28/2021 12:30:00 AM 16.6 61.88 0.153 7.41 4.58 9.04
9/28/2021 12:45:00 AM 16.56 61.808 0.153 7.41 4.49 9.05
9/28/2021 1:00:00 AM 16.53 61.754 0.153 7.41 4.61 9.05
9/28/2021 1:15:00 AM 16.49 61.682 0.153 7.41 4.7 9.06
9/28/2021 1:30:00 AM 16.46 61.628 0.153 7.41 4.72 9.07
9/28/2021 1:45:00 AM 16.44 61.592 0.153 7.42 4.57 9.08
9/28/2021 2:00:00 AM 16.42 61.556 0.153 7.41 4.76 9.08
9/28/2021 2:15:00 AM 16.4 61.52 0.153 7.41 4.39 9.09
9/28/2021 2:30:00 AM 16.38 61.484 0.153 7.41 4.54 9.09
9/28/2021 2:45:00 AM 16.37 61.466 0.153 7.42 4.53 9.09
9/28/2021 3:00:00 AM 16.36 61.448 0.153 7.41 4.71 9.1
9/28/2021 3:15:00 AM 16.35 61.43 0.153 7.41 4.6 9.1
9/28/2021 3:30:00 AM 16.33 61.394 0.153 7.41 4.49 9.09
9/28/2021 3:45:00 AM 16.32 61.376 0.154 7.41 4.66 9.1
9/28/2021 4:00:00 AM 16.31 61.358 0.154 7.42 4.69 9.1
9/28/2021 4:15:00 AM 16.29 61.322 0.154 7.42 4.69 9.1
9/28/2021 4:30:00 AM 16.27 61.286 0.154 7.41 5.66 9.1
9/28/2021 4:45:00 AM 16.24 61.232 0.154 7.42 4.4 9.1
9/28/2021 5:00:00 AM 16.21 61.178 0.154 7.41 4.41 9.11
9/28/2021 5:15:00 AM 16.18 61.124 0.154 7.42 4.57 9.11
9/28/2021 5:30:00 AM 16.15 61.07 0.154 7.41 4.45 9.13
9/28/2021 5:45:00 AM 16.12 61.016 0.154 7.41 4.52 9.14
9/28/2021 6:00:00 AM 16.09 60.962 0.154 7.41 5.79 9.16
9/28/2021 6:15:00 AM 16.05 60.89 0.088 7.4 5.88 9.17
9/28/2021 6:30:00 AM 16.02 60.836 0.154 7.42 4.42 9.18
9/28/2021 6:45:00 AM 15.98 60.764 0.154 7.41 4.46 9.18
9/28/2021 7:00:00 AM 15.95 60.71 0.154 7.42 4.5 9.19
9/28/2021 7:15:00 AM 15.93 60.674 0.152 7.41 5.75 9.19
9/28/2021 7:30:00 AM 15.92 60.656 0.154 7.41 5.6 9.2
9/28/2021 7:45:00 AM 15.91 60.638 0.134 7.41 5.63 9.21
9/28/2021 8:00:00 AM 15.9 60.62 0.155 7.43 4.39 9.21
9/28/2021 8:15:00 AM 15.89 60.602 0.153 7.42 5.74 9.22
9/28/2021 8:30:00 AM 15.89 60.602 0.155 7.42 4.19 9.23
9/28/2021 8:45:00 AM 15.89 60.602 0.155 7.42 4.25 9.23
9/28/2021 9:00:00 AM 15.88 60.584 0.155 7.42 4.33 9.24
9/28/2021 9:15:00 AM 15.87 60.566 0.154 7.42 4.1 9.24
9/28/2021 9:30:00 AM 15.87 60.566 0.154 7.43 4.07 9.25
9/28/2021 9:45:00 AM 15.86 60.548 0.154 7.42 4.16 9.25
9/28/2021 10:00:00 AM 15.85 60.53 0.154 7.42 4.23 9.26
9/28/2021 10:15:00 AM 15.86 60.548 0.154 7.43 4.45 9.26
9/28/2021 10:30:00 AM 15.86 60.548 0.154 7.43 4.39 9.28
9/28/2021 10:45:00 AM 15.86 60.548 0.154 7.44 4.47 9.29
9/28/2021 11:00:00 AM 15.86 60.548 0.154 7.44 4.58 9.31
9/28/2021 11:15:00 AM 15.87 60.566 0.154 7.44 5.81 9.33
9/28/2021 11:30:00 AM 15.86 60.548 0.155 7.46 4.21 9.35
9/28/2021 11:45:00 AM 15.86 60.548 0.152 7.46 5.81 9.36
9/28/2021 12:00:00 PM 15.87 60.566 0.155 7.47 4.29 9.39
9/28/2021 12:15:00 PM 15.93 60.674 0.155 7.47 4.26 9.44
9/28/2021 12:30:00 PM 15.99 60.782 0.155 7.48 4.18 9.5
9/28/2021 12:45:00 PM 16.06 60.908 0.155 7.5 4.09 9.55
9/28/2021 1:00:00 PM 16.19 61.142 0.156 7.5 5.16 9.55
9/28/2021 1:15:00 PM 16.29 61.322 0.156 7.52 4.04 9.6
9/28/2021 1:30:00 PM 16.4 61.52 0.156 7.52 3.95 9.61
9/28/2021 1:45:00 PM 16.46 61.628 0.156 7.54 3.99 9.6
9/28/2021 2:00:00 PM 16.54 61.772 0.156 7.53 3.98 9.59
9/28/2021 2:15:00 PM 16.6 61.88 0.156 7.53 5.48 9.59
9/28/2021 2:30:00 PM 16.63 61.934 0.157 7.55 3.97 9.6
9/28/2021 2:45:00 PM 16.67 62.006 0.157 7.55 3.95 9.6
9/28/2021 3:00:00 PM 16.64 61.952 0.157 7.54 3.93 9.58
9/28/2021 3:15:00 PM 16.63 61.934 0.157 7.54 3.92 9.56
9/28/2021 3:30:00 PM 16.6 61.88 0.157 7.54 3.83 9.54
9/28/2021 3:45:00 PM 16.57 61.826 0.157 7.54 3.92 9.52
9/28/2021 4:00:00 PM 16.56 61.808 0.147 7.53 5.53 9.52
9/28/2021 4:15:00 PM 16.53 61.754 0.157 7.55 5.26 9.5
9/28/2021 4:30:00 PM 16.49 61.682 0.157 7.53 3.74 9.5
9/28/2021 4:45:00 PM 16.47 61.646 0.158 7.53 3.69 9.49
9/28/2021 5:00:00 PM 16.46 61.628 0.158 7.52 4.97 9.48
9/28/2021 5:15:00 PM 16.43 61.574 0.158 7.52 3.78 9.46
9/28/2021 5:30:00 PM 16.41 61.538 0.158 7.53 3.78 9.45
9/28/2021 5:45:00 PM 16.38 61.484 0.158 7.51 3.65 9.43
9/28/2021 6:00:00 PM 16.34 61.412 0.158 7.5 5.14 9.43
9/28/2021 6:15:00 PM 16.29 61.322 0.158 7.53 3.71 9.4
9/28/2021 6:30:00 PM 16.24 61.232 0.158 7.51 3.7 9.38
9/28/2021 6:45:00 PM 16.19 61.142 0.159 7.5 3.69 9.35
9/28/2021 7:00:00 PM 16.14 61.052 0.159 7.49 5.12 9.33
9/28/2021 7:15:00 PM 16.08 60.944 0.159 7.5 3.67 9.33
9/28/2021 7:30:00 PM 16.02 60.836 0.159 7.49 3.99 9.32
9/28/2021 7:45:00 PM 15.96 60.728 0.159 7.48 3.89 9.31
9/28/2021 8:00:00 PM 15.9 60.62 0.159 7.47 5.25 9.3
9/28/2021 8:15:00 PM 15.84 60.512 0.159 7.49 3.83 9.29
9/28/2021 8:30:00 PM 15.78 60.404 0.157 7.47 5.18 9.28
9/28/2021 8:45:00 PM 15.73 60.314 0.159 7.47 5.33 9.29
9/28/2021 9:00:00 PM 15.67 60.206 0.159 7.47 5.14 9.32
9/28/2021 9:15:00 PM 15.62 60.116 0.16 7.48 3.94 9.33
9/28/2021 9:30:00 PM 15.57 60.026 0.158 7.46 5.12 9.34
9/28/2021 9:45:00 PM 15.53 59.954 0.16 7.46 5.48 9.34
9/28/2021 10:00:00 PM 15.49 59.882 0.16 7.48 3.9 9.34
9/28/2021 10:15:00 PM 15.44 59.792 0.16 7.47 3.81 9.34
9/28/2021 10:30:00 PM 15.4 59.72 0.16 7.46 5.15 9.35
9/28/2021 10:45:00 PM 15.36 59.648 0.161 7.47 3.94 9.36
9/28/2021 11:00:00 PM 15.31 59.558 0.161 7.47 3.84 9.38
9/28/2021 11:15:00 PM 15.27 59.486 0.161 7.48 4.18 9.39
9/28/2021 11:30:00 PM 15.23 59.414 0.161 7.47 4.15 9.4
9/28/2021 11:45:00 PM 15.19 59.342 0.161 7.47 3.94 9.42
9/29/2021 12:00:00 AM 15.14 59.252 0.161 7.46 5.21 9.41
9/29/2021 12:15:00 AM 15.09 59.162 0.161 7.47 4.06 9.41
9/29/2021 12:30:00 AM 15.03 59.054 0.161 7.47 3.86 9.41
9/29/2021 12:45:00 AM 14.97 58.946 0.16 7.46 5.21 9.44
9/29/2021 1:00:00 AM 14.91 58.838 0.161 7.48 3.89 9.46
9/29/2021 1:15:00 AM 14.85 58.73 0.161 7.47 3.88 9.48
9/29/2021 1:30:00 AM 14.79 58.622 0.162 7.47 4 9.49
9/29/2021 1:45:00 AM 14.72 58.496 0.162 7.47 3.89 9.49
9/29/2021 2:00:00 AM 14.66 58.388 0.162 7.47 3.83 9.49
9/29/2021 2:15:00 AM 14.6 58.28 0.162 7.46 5.34 9.5
9/29/2021 2:30:00 AM 14.54 58.172 0.162 7.47 3.85 9.52
9/29/2021 2:45:00 AM 14.48 58.064 0.162 7.47 3.89 9.54
9/29/2021 3:00:00 AM 14.43 57.974 0.162 7.47 3.76 9.56
9/29/2021 3:15:00 AM 14.38 57.884 0.162 7.47 4 9.56
9/29/2021 3:30:00 AM 14.32 57.776 0.162 7.46 5.34 9.56
9/29/2021 3:45:00 AM 14.27 57.686 0.162 7.46 3.76 9.56
9/29/2021 4:00:00 AM 14.23 57.614 0.162 7.46 4 9.57
9/29/2021 4:15:00 AM 14.2 57.56 0.163 7.46 3.78 9.59
9/29/2021 4:30:00 AM 14.16 57.488 0.163 7.46 5.08 9.61
9/29/2021 4:45:00 AM 14.11 57.398 0.163 7.47 3.78 9.62
9/29/2021 5:00:00 AM 14.07 57.326 0.163 7.45 5.49 9.64
9/29/2021 5:15:00 AM 14.03 57.254 0.163 7.47 4.01 9.64
9/29/2021 5:30:00 AM 13.98 57.164 0.163 7.45 5.44 9.64
9/29/2021 5:45:00 AM 13.93 57.074 0.087 7.46 5.21 9.64
9/29/2021 6:00:00 AM 13.89 57.002 0.163 7.47 5.98 9.64
9/29/2021 6:15:00 AM 13.83 56.894 0.163 7.47 3.86 9.67
9/29/2021 6:30:00 AM 13.78 56.804 0.163 7.47 5.2 9.7
9/29/2021 6:45:00 AM 13.71 56.678 0.163 7.47 3.72 9.72
9/29/2021 7:00:00 AM 13.67 56.606 0.163 7.47 3.82 9.75
9/29/2021 7:15:00 AM 13.62 56.516 0.163 7.47 3.73 9.75
9/29/2021 7:30:00 AM 13.57 56.426 0.163 7.47 3.6 9.75
9/29/2021 7:45:00 AM 13.53 56.354 0.148 7.46 5.13 9.77
9/29/2021 8:00:00 AM 13.5 56.3 0.163 7.48 3.76 9.8
9/29/2021 8:15:00 AM 13.49 56.282 0.163 7.48 3.76 9.84
9/29/2021 8:30:00 AM 13.47 56.246 0.163 7.49 3.68 9.87
9/29/2021 8:45:00 AM 13.49 56.282 0.163 7.49 4.93 9.92
9/29/2021 9:00:00 AM 13.5 56.3 0.087 7.49 5.05 9.94
9/29/2021 9:15:00 AM 13.54 56.372 0.162 7.5 4.92 9.98
9/29/2021 9:30:00 AM 13.61 56.498 0.163 7.5 5.14 10.01
9/29/2021 9:45:00 AM 13.7 56.66 0.092 7.51 5.3 10.06
9/29/2021 10:00:00 AM 13.81 56.858 0.163 7.53 3.62 10.06
9/29/2021 10:15:00 AM 13.94 57.092 0.163 7.53 3.46 10.05
9/29/2021 10:30:00 AM 14.09 57.362 0.163 7.53 4.92 10.1
9/29/2021 10:45:00 AM 14.25 57.65 0.163 7.55 3.43 10.1
9/29/2021 11:00:00 AM 14.38 57.884 0.163 7.56 3.41 10.08
9/29/2021 11:15:00 AM 14.57 58.226 0.163 7.56 3.39 10.11
9/29/2021 11:30:00 AM 14.72 58.496 0.163 7.57 3.29 10.07
9/29/2021 11:45:00 AM 14.88 58.784 0.163 7.57 3.34 10.09
9/29/2021 12:00:00 PM 14.97 58.946 0.163 7.58 3.29 10.07
9/29/2021 12:15:00 PM 15.13 59.234 0.163 7.58 3.34 10.03
9/29/2021 12:30:00 PM 15.22 59.396 0.163 7.59 3.34 10.04
9/29/2021 12:45:00 PM 15.33 59.594 0.163 7.6 3.41 10.05
9/29/2021 1:00:00 PM 15.42 59.756 0.163 7.6 3.46 10.02
9/29/2021 1:15:00 PM 15.48 59.864 0.158 7.59 4.79 10
9/29/2021 1:30:00 PM 15.5 59.9 0.087 7.59 4.84 9.99
9/29/2021 1:45:00 PM 15.56 60.008 0.163 7.61 3.37 9.99
9/29/2021 2:00:00 PM 15.65 60.17 0.163 7.62 3.29 10.01
9/29/2021 2:15:00 PM 15.67 60.206 0.141 7.62 4.79 10.01
9/29/2021 2:30:00 PM 15.67 60.206 0.164 7.63 3.32 10.01
9/29/2021 2:45:00 PM 15.69 60.242 0.164 7.62 3.33 10
9/29/2021 3:00:00 PM 15.69 60.242 0.164 7.63 3.37 9.98
9/29/2021 3:15:00 PM 15.68 60.224 0.164 7.62 3.36 9.95
9/29/2021 3:30:00 PM 15.68 60.224 0.162 7.61 4.8 9.92
9/29/2021 3:45:00 PM 15.68 60.224 0.164 7.63 3.25 9.9
9/29/2021 4:00:00 PM 15.67 60.206 0.163 7.6 4.84 9.89
9/29/2021 4:15:00 PM 15.66 60.188 0.164 7.61 3.26 9.87
9/29/2021 4:30:00 PM 15.66 60.188 0.164 7.6 3.19 9.86
9/29/2021 4:45:00 PM 15.66 60.188 0.164 7.61 3.3 9.86
9/29/2021 5:00:00 PM 15.65 60.17 0.163 7.6 4.8 9.86
9/29/2021 5:15:00 PM 15.65 60.17 0.164 7.6 3.33 9.84
9/29/2021 5:30:00 PM 15.64 60.152 0.161 7.59 4.65 9.83
9/29/2021 5:45:00 PM 15.63 60.134 0.164 7.59 4.74 9.8
9/29/2021 6:00:00 PM 15.62 60.116 0.164 7.59 3.31 9.75
9/29/2021 6:15:00 PM 15.6 60.08 0.164 7.58 3.22 9.7
9/29/2021 6:30:00 PM 15.57 60.026 0.164 7.56 4.78 9.66
9/29/2021 6:45:00 PM 15.55 59.99 0.164 7.55 3.21 9.6
9/29/2021 7:00:00 PM 15.51 59.918 0.164 7.55 3.19 9.56
9/29/2021 7:15:00 PM 15.48 59.864 0.165 7.54 3.23 9.52
9/29/2021 7:30:00 PM 15.44 59.792 0.165 7.52 4.89 9.49
9/29/2021 7:45:00 PM 15.4 59.72 0.165 7.53 3.31 9.48
9/29/2021 8:00:00 PM 15.36 59.648 0.165 7.52 3.39 9.47
9/29/2021 8:15:00 PM 15.32 59.576 0.165 7.53 3.29 9.48
9/29/2021 8:30:00 PM 15.28 59.504 0.165 7.51 3.43 9.48
9/29/2021 8:45:00 PM 15.24 59.432 0.165 7.51 3.37 9.48
9/29/2021 9:00:00 PM 15.19 59.342 0.165 7.51 3.31 9.48
9/29/2021 9:15:00 PM 15.15 59.27 0.165 7.51 3.42 9.47
9/29/2021 9:30:00 PM 15.11 59.198 0.165 7.49 3.49 9.47
9/29/2021 9:45:00 PM 15.08 59.144 0.165 7.5 3.37 9.47
9/29/2021 10:00:00 PM 15.04 59.072 0.165 7.49 3.75 9.47
9/29/2021 10:15:00 PM 15.01 59.018 0.165 7.49 5.04 9.48
9/29/2021 10:30:00 PM 14.98 58.964 0.165 7.49 4.93 9.48
9/29/2021 10:45:00 PM 14.95 58.91 0.093 7.49 5 9.49
9/29/2021 11:00:00 PM 14.92 58.856 0.165 7.49 5.16 9.5
9/29/2021 11:15:00 PM 14.89 58.802 0.165 7.48 4.94 9.52
9/29/2021 11:30:00 PM 14.86 58.748 0.165 7.49 4.93 9.53
9/29/2021 11:45:00 PM 14.83 58.694 0.165 7.5 3.38 9.53
9/30/2021 12:00:00 AM 14.78 58.604 0.165 7.49 3.47 9.53
9/30/2021 12:15:00 AM 14.73 58.514 0.165 7.49 3.51 9.53
9/30/2021 12:30:00 AM 14.68 58.424 0.165 7.49 3.45 9.53
9/30/2021 12:45:00 AM 14.63 58.334 0.165 7.48 4.84 9.53
9/30/2021 1:00:00 AM 14.59 58.262 0.166 7.49 3.47 9.54
9/30/2021 1:15:00 AM 14.54 58.172 0.166 7.49 3.55 9.56
9/30/2021 1:30:00 AM 14.48 58.064 0.166 7.5 3.62 9.58
9/30/2021 1:45:00 AM 14.44 57.992 0.165 7.48 5.21 9.6
9/30/2021 2:00:00 AM 14.38 57.884 0.166 7.49 3.67 9.6
9/30/2021 2:15:00 AM 14.33 57.794 0.165 7.47 5.06 9.6
9/30/2021 2:30:00 AM 14.28 57.704 0.166 7.48 3.34 9.61
9/30/2021 2:45:00 AM 14.23 57.614 0.094 7.47 4.94 9.61
9/30/2021 3:00:00 AM 14.17 57.506 0.166 7.49 5.2 9.63
9/30/2021 3:15:00 AM 14.14 57.452 0.094 7.47 4.92 9.65
9/30/2021 3:30:00 AM 14.11 57.398 0.167 7.49 3.64 9.66
9/30/2021 3:45:00 AM 14.08 57.344 0.165 7.47 4.99 9.67
9/30/2021 4:00:00 AM 14.06 57.308 0.167 7.49 3.54 9.68
9/30/2021 4:15:00 AM 14.04 57.272 0.167 7.48 3.88 9.69
9/30/2021 4:30:00 AM 14.03 57.254 0.167 7.48 4.92 9.69
9/30/2021 4:45:00 AM 14.02 57.236 0.167 7.49 3.7 9.69
9/30/2021 5:00:00 AM 14.02 57.236 0.167 7.48 3.56 9.69
9/30/2021 5:15:00 AM 14.02 57.236 0.167 7.48 3.48 9.7
9/30/2021 5:30:00 AM 14.01 57.218 0.167 7.49 3.61 9.7
9/30/2021 5:45:00 AM 14.01 57.218 0.167 7.49 3.52 9.7
9/30/2021 6:00:00 AM 14 57.2 0.168 7.49 3.4 9.7
9/30/2021 6:15:00 AM 14 57.2 0.168 7.49 3.59 9.7
9/30/2021 6:30:00 AM 13.99 57.182 0.164 7.48 4.84 9.7
9/30/2021 6:45:00 AM 13.98 57.164 0.168 7.49 3.37 9.71
9/30/2021 7:00:00 AM 13.97 57.146 0.168 7.48 4.92 9.7
9/30/2021 7:15:00 AM 13.96 57.128 0.168 7.49 4.91 9.71
9/30/2021 7:30:00 AM 13.96 57.128 0.168 7.49 3.34 9.72
9/30/2021 7:45:00 AM 13.96 57.128 0.168 7.49 3.4 9.75
9/30/2021 8:00:00 AM 13.96 57.128 0.167 7.49 4.78 9.78
9/30/2021 8:15:00 AM 13.96 57.128 0.168 7.51 3.13 9.83
9/30/2021 8:30:00 AM 13.97 57.146 0.168 7.51 4.72 9.87
9/30/2021 8:45:00 AM 13.99 57.182 0.168 7.52 3.12 9.93
9/30/2021 9:00:00 AM 14.03 57.254 0.168 7.54 3.23 9.99
9/30/2021 9:15:00 AM 14.07 57.326 0.168 7.56 3.2 10.05
9/30/2021 9:30:00 AM 14.21 57.578 0.168 7.57 3.17 10.09
9/30/2021 9:45:00 AM 14.28 57.704 0.168 7.57 4.66 10.12
9/30/2021 10:00:00 AM 14.39 57.902 0.168 7.6 3.18 10.18
9/30/2021 10:15:00 AM 14.52 58.136 0.16 7.59